<?xml version="1.0" encoding="UTF-8" standalone="no" ?>
<gpx xmlns="http://www.topografix.com/GPX/1/1" xmlns:xsi="http://www.w3.org/2001/XMLSchema-instance" xsi:schemaLocation="http://www.topografix.com/GPX/1/1 http://www.topografix.com/GPX/1/1/gpx.xsd" version="1.1" creator="VisuGPX - https://www.visugpx.com">
  <metadata>
    <name>Créon sud</name>
    <desc><![CDATA[Randonnée VTT]]></desc>
  </metadata>
  <trk>
    <name><![CDATA[Creon baudin couteau court]]></name>
    <trkseg>
      <trkpt lat="44.77625" lon="-0.34859">
        <ele>100</ele>
        <time>2013-11-02T13:09:57Z</time>
      </trkpt>
      <trkpt lat="44.77628" lon="-0.34824">
        <ele>101</ele>
        <time>2013-11-02T13:10:08Z</time>
      </trkpt>
      <trkpt lat="44.77626" lon="-0.34789">
        <ele>101</ele>
        <time>2013-11-02T13:10:18Z</time>
      </trkpt>
      <trkpt lat="44.77624" lon="-0.34755">
        <ele>102</ele>
        <time>2013-11-02T13:10:27Z</time>
      </trkpt>
      <trkpt lat="44.77618" lon="-0.3471">
        <ele>102</ele>
        <time>2013-11-02T13:10:38Z</time>
      </trkpt>
      <trkpt lat="44.77602" lon="-0.34683">
        <ele>103</ele>
        <time>2013-11-02T13:10:45Z</time>
      </trkpt>
      <trkpt lat="44.77578" lon="-0.34658">
        <ele>104</ele>
        <time>2013-11-02T13:10:54Z</time>
      </trkpt>
      <trkpt lat="44.7757" lon="-0.34646">
        <ele>104</ele>
        <time>2013-11-02T13:10:58Z</time>
      </trkpt>
      <trkpt lat="44.77581" lon="-0.3463">
        <ele>104</ele>
        <time>2013-11-02T13:11:03Z</time>
      </trkpt>
      <trkpt lat="44.77585" lon="-0.34628">
        <ele>104</ele>
        <time>2013-11-02T13:11:04Z</time>
      </trkpt>
      <trkpt lat="44.77609" lon="-0.34608">
        <ele>104</ele>
        <time>2013-11-02T13:11:11Z</time>
      </trkpt>
      <trkpt lat="44.77617" lon="-0.34595">
        <ele>104</ele>
        <time>2013-11-02T13:11:14Z</time>
      </trkpt>
      <trkpt lat="44.77619" lon="-0.3459">
        <ele>104</ele>
        <time>2013-11-02T13:11:15Z</time>
      </trkpt>
      <trkpt lat="44.77636" lon="-0.34538">
        <ele>104</ele>
        <time>2013-11-02T13:11:25Z</time>
      </trkpt>
      <trkpt lat="44.7764" lon="-0.34518">
        <ele>104</ele>
        <time>2013-11-02T13:11:28Z</time>
      </trkpt>
      <trkpt lat="44.77651" lon="-0.34464">
        <ele>104</ele>
        <time>2013-11-02T13:11:35Z</time>
      </trkpt>
      <trkpt lat="44.77653" lon="-0.34456">
        <ele>103</ele>
        <time>2013-11-02T13:11:36Z</time>
      </trkpt>
      <trkpt lat="44.77654" lon="-0.34448">
        <ele>103</ele>
        <time>2013-11-02T13:11:37Z</time>
      </trkpt>
      <trkpt lat="44.77669" lon="-0.34386">
        <ele>100</ele>
        <time>2013-11-02T13:11:45Z</time>
      </trkpt>
      <trkpt lat="44.77693" lon="-0.34326">
        <ele>100</ele>
        <time>2013-11-02T13:11:54Z</time>
      </trkpt>
      <trkpt lat="44.77718" lon="-0.34275">
        <ele>102</ele>
        <time>2013-11-02T13:12:03Z</time>
      </trkpt>
      <trkpt lat="44.77723" lon="-0.34263">
        <ele>102</ele>
        <time>2013-11-02T13:12:05Z</time>
      </trkpt>
      <trkpt lat="44.77723" lon="-0.34256">
        <ele>102</ele>
        <time>2013-11-02T13:12:06Z</time>
      </trkpt>
      <trkpt lat="44.77722" lon="-0.34249">
        <ele>102</ele>
        <time>2013-11-02T13:12:07Z</time>
      </trkpt>
      <trkpt lat="44.77719" lon="-0.34244">
        <ele>102</ele>
        <time>2013-11-02T13:12:08Z</time>
      </trkpt>
      <trkpt lat="44.77716" lon="-0.34241">
        <ele>102</ele>
        <time>2013-11-02T13:12:09Z</time>
      </trkpt>
      <trkpt lat="44.77713" lon="-0.34239">
        <ele>102</ele>
        <time>2013-11-02T13:12:10Z</time>
      </trkpt>
      <trkpt lat="44.7771" lon="-0.34238">
        <ele>102</ele>
        <time>2013-11-02T13:12:11Z</time>
      </trkpt>
      <trkpt lat="44.77708" lon="-0.34237">
        <ele>102</ele>
        <time>2013-11-02T13:12:12Z</time>
      </trkpt>
      <trkpt lat="44.77692" lon="-0.34229">
        <ele>103</ele>
        <time>2013-11-02T13:12:19Z</time>
      </trkpt>
      <trkpt lat="44.77673" lon="-0.34217">
        <ele>104</ele>
        <time>2013-11-02T13:12:27Z</time>
      </trkpt>
      <trkpt lat="44.7766" lon="-0.34207">
        <ele>104</ele>
        <time>2013-11-02T13:12:33Z</time>
      </trkpt>
      <trkpt lat="44.77643" lon="-0.34196">
        <ele>104</ele>
        <time>2013-11-02T13:12:40Z</time>
      </trkpt>
      <trkpt lat="44.7763" lon="-0.34187">
        <ele>104</ele>
        <time>2013-11-02T13:12:45Z</time>
      </trkpt>
      <trkpt lat="44.77609" lon="-0.3418">
        <ele>105</ele>
        <time>2013-11-02T13:12:52Z</time>
      </trkpt>
      <trkpt lat="44.77593" lon="-0.34171">
        <ele>105</ele>
        <time>2013-11-02T13:12:59Z</time>
      </trkpt>
      <trkpt lat="44.77579" lon="-0.34163">
        <ele>105</ele>
        <time>2013-11-02T13:13:05Z</time>
      </trkpt>
      <trkpt lat="44.77577" lon="-0.34164">
        <ele>105</ele>
        <time>2013-11-02T13:13:06Z</time>
      </trkpt>
      <trkpt lat="44.77576" lon="-0.34166">
        <ele>105</ele>
        <time>2013-11-02T13:13:07Z</time>
      </trkpt>
      <trkpt lat="44.77574" lon="-0.34168">
        <ele>105</ele>
        <time>2013-11-02T13:13:08Z</time>
      </trkpt>
      <trkpt lat="44.77574" lon="-0.3417">
        <ele>105</ele>
        <time>2013-11-02T13:13:09Z</time>
      </trkpt>
      <trkpt lat="44.77573" lon="-0.34173">
        <ele>105</ele>
        <time>2013-11-02T13:13:10Z</time>
      </trkpt>
      <trkpt lat="44.77572" lon="-0.34176">
        <ele>105</ele>
        <time>2013-11-02T13:13:11Z</time>
      </trkpt>
      <trkpt lat="44.77571" lon="-0.34179">
        <ele>105</ele>
        <time>2013-11-02T13:13:12Z</time>
      </trkpt>
      <trkpt lat="44.77571" lon="-0.34182">
        <ele>105</ele>
        <time>2013-11-02T13:13:13Z</time>
      </trkpt>
      <trkpt lat="44.77563" lon="-0.34208">
        <ele>104</ele>
        <time>2013-11-02T13:13:20Z</time>
      </trkpt>
      <trkpt lat="44.77553" lon="-0.34239">
        <ele>104</ele>
        <time>2013-11-02T13:13:28Z</time>
      </trkpt>
      <trkpt lat="44.7754" lon="-0.34252">
        <ele>105</ele>
        <time>2013-11-02T13:13:34Z</time>
      </trkpt>
      <trkpt lat="44.77538" lon="-0.34251">
        <ele>105</ele>
        <time>2013-11-02T13:13:35Z</time>
      </trkpt>
      <trkpt lat="44.77535" lon="-0.34249">
        <ele>105</ele>
        <time>2013-11-02T13:13:36Z</time>
      </trkpt>
      <trkpt lat="44.77533" lon="-0.34248">
        <ele>105</ele>
        <time>2013-11-02T13:13:37Z</time>
      </trkpt>
      <trkpt lat="44.7753" lon="-0.34247">
        <ele>105</ele>
        <time>2013-11-02T13:13:38Z</time>
      </trkpt>
      <trkpt lat="44.77527" lon="-0.34244">
        <ele>105</ele>
        <time>2013-11-02T13:13:39Z</time>
      </trkpt>
      <trkpt lat="44.77523" lon="-0.34242">
        <ele>105</ele>
        <time>2013-11-02T13:13:40Z</time>
      </trkpt>
      <trkpt lat="44.77502" lon="-0.34229">
        <ele>105</ele>
        <time>2013-11-02T13:13:47Z</time>
      </trkpt>
      <trkpt lat="44.77497" lon="-0.34228">
        <ele>105</ele>
        <time>2013-11-02T13:13:49Z</time>
      </trkpt>
      <trkpt lat="44.77494" lon="-0.34226">
        <ele>105</ele>
        <time>2013-11-02T13:13:50Z</time>
      </trkpt>
      <trkpt lat="44.77492" lon="-0.34224">
        <ele>105</ele>
        <time>2013-11-02T13:13:51Z</time>
      </trkpt>
      <trkpt lat="44.7749" lon="-0.34223">
        <ele>105</ele>
        <time>2013-11-02T13:13:52Z</time>
      </trkpt>
      <trkpt lat="44.77487" lon="-0.34221">
        <ele>105</ele>
        <time>2013-11-02T13:13:53Z</time>
      </trkpt>
      <trkpt lat="44.77484" lon="-0.34219">
        <ele>105</ele>
        <time>2013-11-02T13:13:54Z</time>
      </trkpt>
      <trkpt lat="44.77466" lon="-0.34204">
        <ele>105</ele>
        <time>2013-11-02T13:14:01Z</time>
      </trkpt>
      <trkpt lat="44.77449" lon="-0.34196">
        <ele>106</ele>
        <time>2013-11-02T13:14:07Z</time>
      </trkpt>
      <trkpt lat="44.77428" lon="-0.34182">
        <ele>106</ele>
        <time>2013-11-02T13:14:14Z</time>
      </trkpt>
      <trkpt lat="44.77414" lon="-0.34169">
        <ele>106</ele>
        <time>2013-11-02T13:14:19Z</time>
      </trkpt>
      <trkpt lat="44.77404" lon="-0.34159">
        <ele>106</ele>
        <time>2013-11-02T13:14:24Z</time>
      </trkpt>
      <trkpt lat="44.77402" lon="-0.34156">
        <ele>106</ele>
        <time>2013-11-02T13:14:25Z</time>
      </trkpt>
      <trkpt lat="44.774" lon="-0.34153">
        <ele>106</ele>
        <time>2013-11-02T13:14:26Z</time>
      </trkpt>
      <trkpt lat="44.77398" lon="-0.3415">
        <ele>106</ele>
        <time>2013-11-02T13:14:27Z</time>
      </trkpt>
      <trkpt lat="44.77395" lon="-0.34147">
        <ele>106</ele>
        <time>2013-11-02T13:14:28Z</time>
      </trkpt>
      <trkpt lat="44.77393" lon="-0.34144">
        <ele>106</ele>
        <time>2013-11-02T13:14:29Z</time>
      </trkpt>
      <trkpt lat="44.77391" lon="-0.34141">
        <ele>106</ele>
        <time>2013-11-02T13:14:30Z</time>
      </trkpt>
      <trkpt lat="44.77373" lon="-0.34121">
        <ele>106</ele>
        <time>2013-11-02T13:14:37Z</time>
      </trkpt>
      <trkpt lat="44.77355" lon="-0.34103">
        <ele>106</ele>
        <time>2013-11-02T13:14:44Z</time>
      </trkpt>
      <trkpt lat="44.77351" lon="-0.34097">
        <ele>106</ele>
        <time>2013-11-02T13:14:46Z</time>
      </trkpt>
      <trkpt lat="44.77349" lon="-0.34095">
        <ele>106</ele>
        <time>2013-11-02T13:14:47Z</time>
      </trkpt>
      <trkpt lat="44.77347" lon="-0.34092">
        <ele>106</ele>
        <time>2013-11-02T13:14:48Z</time>
      </trkpt>
      <trkpt lat="44.77346" lon="-0.34089">
        <ele>106</ele>
        <time>2013-11-02T13:14:49Z</time>
      </trkpt>
      <trkpt lat="44.77344" lon="-0.34087">
        <ele>106</ele>
        <time>2013-11-02T13:14:50Z</time>
      </trkpt>
      <trkpt lat="44.77342" lon="-0.34084">
        <ele>106</ele>
        <time>2013-11-02T13:14:51Z</time>
      </trkpt>
      <trkpt lat="44.77333" lon="-0.34067">
        <ele>106</ele>
        <time>2013-11-02T13:14:57Z</time>
      </trkpt>
      <trkpt lat="44.7732" lon="-0.34049">
        <ele>106</ele>
        <time>2013-11-02T13:15:03Z</time>
      </trkpt>
      <trkpt lat="44.77307" lon="-0.34034">
        <ele>106</ele>
        <time>2013-11-02T13:15:09Z</time>
      </trkpt>
      <trkpt lat="44.77305" lon="-0.34033">
        <ele>106</ele>
        <time>2013-11-02T13:15:10Z</time>
      </trkpt>
      <trkpt lat="44.77303" lon="-0.34032">
        <ele>106</ele>
        <time>2013-11-02T13:15:11Z</time>
      </trkpt>
      <trkpt lat="44.77301" lon="-0.34031">
        <ele>106</ele>
        <time>2013-11-02T13:15:12Z</time>
      </trkpt>
      <trkpt lat="44.77298" lon="-0.34029">
        <ele>106</ele>
        <time>2013-11-02T13:15:13Z</time>
      </trkpt>
      <trkpt lat="44.77296" lon="-0.34027">
        <ele>106</ele>
        <time>2013-11-02T13:15:14Z</time>
      </trkpt>
      <trkpt lat="44.77295" lon="-0.34024">
        <ele>106</ele>
        <time>2013-11-02T13:15:15Z</time>
      </trkpt>
      <trkpt lat="44.77294" lon="-0.3402">
        <ele>106</ele>
        <time>2013-11-02T13:15:16Z</time>
      </trkpt>
      <trkpt lat="44.77293" lon="-0.34017">
        <ele>106</ele>
        <time>2013-11-02T13:15:17Z</time>
      </trkpt>
      <trkpt lat="44.77291" lon="-0.34014">
        <ele>106</ele>
        <time>2013-11-02T13:15:18Z</time>
      </trkpt>
      <trkpt lat="44.77289" lon="-0.3401">
        <ele>106</ele>
        <time>2013-11-02T13:15:19Z</time>
      </trkpt>
      <trkpt lat="44.77287" lon="-0.34007">
        <ele>105</ele>
        <time>2013-11-02T13:15:20Z</time>
      </trkpt>
      <trkpt lat="44.7728" lon="-0.33993">
        <ele>105</ele>
        <time>2013-11-02T13:15:24Z</time>
      </trkpt>
      <trkpt lat="44.77278" lon="-0.3399">
        <ele>105</ele>
        <time>2013-11-02T13:15:25Z</time>
      </trkpt>
      <trkpt lat="44.77262" lon="-0.3397">
        <ele>105</ele>
        <time>2013-11-02T13:15:32Z</time>
      </trkpt>
      <trkpt lat="44.7725" lon="-0.33948">
        <ele>105</ele>
        <time>2013-11-02T13:15:38Z</time>
      </trkpt>
      <trkpt lat="44.77247" lon="-0.33946">
        <ele>105</ele>
        <time>2013-11-02T13:15:39Z</time>
      </trkpt>
      <trkpt lat="44.77244" lon="-0.33946">
        <ele>105</ele>
        <time>2013-11-02T13:15:40Z</time>
      </trkpt>
      <trkpt lat="44.77241" lon="-0.33947">
        <ele>105</ele>
        <time>2013-11-02T13:15:41Z</time>
      </trkpt>
      <trkpt lat="44.77239" lon="-0.33948">
        <ele>105</ele>
        <time>2013-11-02T13:15:42Z</time>
      </trkpt>
      <trkpt lat="44.77236" lon="-0.3395">
        <ele>105</ele>
        <time>2013-11-02T13:15:43Z</time>
      </trkpt>
      <trkpt lat="44.77234" lon="-0.3395">
        <ele>105</ele>
        <time>2013-11-02T13:15:44Z</time>
      </trkpt>
      <trkpt lat="44.77231" lon="-0.33948">
        <ele>104</ele>
        <time>2013-11-02T13:15:45Z</time>
      </trkpt>
      <trkpt lat="44.77229" lon="-0.33946">
        <ele>104</ele>
        <time>2013-11-02T13:15:46Z</time>
      </trkpt>
      <trkpt lat="44.77228" lon="-0.33943">
        <ele>104</ele>
        <time>2013-11-02T13:15:47Z</time>
      </trkpt>
      <trkpt lat="44.77227" lon="-0.3394">
        <ele>104</ele>
        <time>2013-11-02T13:15:48Z</time>
      </trkpt>
      <trkpt lat="44.77228" lon="-0.33936">
        <ele>104</ele>
        <time>2013-11-02T13:15:49Z</time>
      </trkpt>
      <trkpt lat="44.77228" lon="-0.33933">
        <ele>104</ele>
        <time>2013-11-02T13:15:50Z</time>
      </trkpt>
      <trkpt lat="44.77228" lon="-0.3393">
        <ele>104</ele>
        <time>2013-11-02T13:15:51Z</time>
      </trkpt>
      <trkpt lat="44.77228" lon="-0.33927">
        <ele>104</ele>
        <time>2013-11-02T13:15:52Z</time>
      </trkpt>
      <trkpt lat="44.77228" lon="-0.33924">
        <ele>104</ele>
        <time>2013-11-02T13:15:53Z</time>
      </trkpt>
      <trkpt lat="44.77228" lon="-0.3392">
        <ele>104</ele>
        <time>2013-11-02T13:15:54Z</time>
      </trkpt>
      <trkpt lat="44.77228" lon="-0.33916">
        <ele>105</ele>
        <time>2013-11-02T13:15:55Z</time>
      </trkpt>
      <trkpt lat="44.77229" lon="-0.33912">
        <ele>105</ele>
        <time>2013-11-02T13:15:56Z</time>
      </trkpt>
      <trkpt lat="44.77229" lon="-0.33908">
        <ele>105</ele>
        <time>2013-11-02T13:15:57Z</time>
      </trkpt>
      <trkpt lat="44.7723" lon="-0.33904">
        <ele>105</ele>
        <time>2013-11-02T13:15:58Z</time>
      </trkpt>
      <trkpt lat="44.77231" lon="-0.339">
        <ele>105</ele>
        <time>2013-11-02T13:15:59Z</time>
      </trkpt>
      <trkpt lat="44.77231" lon="-0.33896">
        <ele>105</ele>
        <time>2013-11-02T13:16:00Z</time>
      </trkpt>
      <trkpt lat="44.77232" lon="-0.33893">
        <ele>105</ele>
        <time>2013-11-02T13:16:01Z</time>
      </trkpt>
      <trkpt lat="44.77234" lon="-0.33862">
        <ele>105</ele>
        <time>2013-11-02T13:16:08Z</time>
      </trkpt>
      <trkpt lat="44.77235" lon="-0.33822">
        <ele>104</ele>
        <time>2013-11-02T13:16:17Z</time>
      </trkpt>
      <trkpt lat="44.7723" lon="-0.33779">
        <ele>104</ele>
        <time>2013-11-02T13:16:26Z</time>
      </trkpt>
      <trkpt lat="44.7722" lon="-0.33727">
        <ele>104</ele>
        <time>2013-11-02T13:16:35Z</time>
      </trkpt>
      <trkpt lat="44.77215" lon="-0.33695">
        <ele>104</ele>
        <time>2013-11-02T13:16:41Z</time>
      </trkpt>
      <trkpt lat="44.7721" lon="-0.33678">
        <ele>104</ele>
        <time>2013-11-02T13:16:46Z</time>
      </trkpt>
      <trkpt lat="44.77198" lon="-0.33644">
        <ele>104</ele>
        <time>2013-11-02T13:16:55Z</time>
      </trkpt>
      <trkpt lat="44.77194" lon="-0.33639">
        <ele>105</ele>
        <time>2013-11-02T13:16:58Z</time>
      </trkpt>
      <trkpt lat="44.77192" lon="-0.33639">
        <ele>105</ele>
        <time>2013-11-02T13:16:59Z</time>
      </trkpt>
      <trkpt lat="44.77186" lon="-0.33641">
        <ele>105</ele>
        <time>2013-11-02T13:17:02Z</time>
      </trkpt>
      <trkpt lat="44.77184" lon="-0.33639">
        <ele>105</ele>
        <time>2013-11-02T13:17:03Z</time>
      </trkpt>
      <trkpt lat="44.77182" lon="-0.33636">
        <ele>105</ele>
        <time>2013-11-02T13:17:04Z</time>
      </trkpt>
      <trkpt lat="44.7718" lon="-0.33633">
        <ele>105</ele>
        <time>2013-11-02T13:17:05Z</time>
      </trkpt>
      <trkpt lat="44.77177" lon="-0.3363">
        <ele>105</ele>
        <time>2013-11-02T13:17:06Z</time>
      </trkpt>
      <trkpt lat="44.77174" lon="-0.33629">
        <ele>105</ele>
        <time>2013-11-02T13:17:07Z</time>
      </trkpt>
      <trkpt lat="44.7717" lon="-0.33626">
        <ele>105</ele>
        <time>2013-11-02T13:17:08Z</time>
      </trkpt>
      <trkpt lat="44.77168" lon="-0.33623">
        <ele>105</ele>
        <time>2013-11-02T13:17:09Z</time>
      </trkpt>
      <trkpt lat="44.77165" lon="-0.33619">
        <ele>105</ele>
        <time>2013-11-02T13:17:10Z</time>
      </trkpt>
      <trkpt lat="44.77162" lon="-0.33615">
        <ele>105</ele>
        <time>2013-11-02T13:17:11Z</time>
      </trkpt>
      <trkpt lat="44.77144" lon="-0.33597">
        <ele>105</ele>
        <time>2013-11-02T13:17:17Z</time>
      </trkpt>
      <trkpt lat="44.77124" lon="-0.33574">
        <ele>105</ele>
        <time>2013-11-02T13:17:24Z</time>
      </trkpt>
      <trkpt lat="44.77088" lon="-0.33532">
        <ele>105</ele>
        <time>2013-11-02T13:17:36Z</time>
      </trkpt>
      <trkpt lat="44.77081" lon="-0.33525">
        <ele>105</ele>
        <time>2013-11-02T13:17:38Z</time>
      </trkpt>
      <trkpt lat="44.77047" lon="-0.33506">
        <ele>105</ele>
        <time>2013-11-02T13:17:47Z</time>
      </trkpt>
      <trkpt lat="44.77009" lon="-0.33508">
        <ele>105</ele>
        <time>2013-11-02T13:17:56Z</time>
      </trkpt>
      <trkpt lat="44.76962" lon="-0.3351">
        <ele>105</ele>
        <time>2013-11-02T13:18:07Z</time>
      </trkpt>
      <trkpt lat="44.76906" lon="-0.33503">
        <ele>105</ele>
        <time>2013-11-02T13:18:20Z</time>
      </trkpt>
      <trkpt lat="44.76859" lon="-0.335">
        <ele>105</ele>
        <time>2013-11-02T13:18:31Z</time>
      </trkpt>
      <trkpt lat="44.76816" lon="-0.33486">
        <ele>104</ele>
        <time>2013-11-02T13:18:41Z</time>
      </trkpt>
      <trkpt lat="44.76777" lon="-0.33458">
        <ele>104</ele>
        <time>2013-11-02T13:18:50Z</time>
      </trkpt>
      <trkpt lat="44.76752" lon="-0.3344">
        <ele>104</ele>
        <time>2013-11-02T13:18:56Z</time>
      </trkpt>
      <trkpt lat="44.76713" lon="-0.33423">
        <ele>104</ele>
        <time>2013-11-02T13:19:05Z</time>
      </trkpt>
      <trkpt lat="44.76677" lon="-0.33415">
        <ele>104</ele>
        <time>2013-11-02T13:19:13Z</time>
      </trkpt>
      <trkpt lat="44.76637" lon="-0.33413">
        <ele>104</ele>
        <time>2013-11-02T13:19:22Z</time>
      </trkpt>
      <trkpt lat="44.76592" lon="-0.33417">
        <ele>104</ele>
        <time>2013-11-02T13:19:32Z</time>
      </trkpt>
      <trkpt lat="44.76544" lon="-0.3341">
        <ele>105</ele>
        <time>2013-11-02T13:19:43Z</time>
      </trkpt>
      <trkpt lat="44.76507" lon="-0.33386">
        <ele>105</ele>
        <time>2013-11-02T13:19:52Z</time>
      </trkpt>
      <trkpt lat="44.76462" lon="-0.33336">
        <ele>106</ele>
        <time>2013-11-02T13:20:04Z</time>
      </trkpt>
      <trkpt lat="44.7642" lon="-0.33283">
        <ele>106</ele>
        <time>2013-11-02T13:20:16Z</time>
      </trkpt>
      <trkpt lat="44.76391" lon="-0.33232">
        <ele>106</ele>
        <time>2013-11-02T13:20:26Z</time>
      </trkpt>
      <trkpt lat="44.76361" lon="-0.33199">
        <ele>106</ele>
        <time>2013-11-02T13:20:34Z</time>
      </trkpt>
      <trkpt lat="44.76315" lon="-0.3317">
        <ele>106</ele>
        <time>2013-11-02T13:20:45Z</time>
      </trkpt>
      <trkpt lat="44.7627" lon="-0.33145">
        <ele>105</ele>
        <time>2013-11-02T13:20:55Z</time>
      </trkpt>
      <trkpt lat="44.76225" lon="-0.33119">
        <ele>104</ele>
        <time>2013-11-02T13:21:05Z</time>
      </trkpt>
      <trkpt lat="44.76204" lon="-0.33103">
        <ele>105</ele>
        <time>2013-11-02T13:21:10Z</time>
      </trkpt>
      <trkpt lat="44.76169" lon="-0.33071">
        <ele>106</ele>
        <time>2013-11-02T13:21:20Z</time>
      </trkpt>
      <trkpt lat="44.76134" lon="-0.33041">
        <ele>107</ele>
        <time>2013-11-02T13:21:29Z</time>
      </trkpt>
      <trkpt lat="44.76093" lon="-0.33014">
        <ele>107</ele>
        <time>2013-11-02T13:21:39Z</time>
      </trkpt>
      <trkpt lat="44.76088" lon="-0.33012">
        <ele>107</ele>
        <time>2013-11-02T13:21:40Z</time>
      </trkpt>
      <trkpt lat="44.76041" lon="-0.32993">
        <ele>106</ele>
        <time>2013-11-02T13:21:51Z</time>
      </trkpt>
      <trkpt lat="44.75992" lon="-0.32975">
        <ele>106</ele>
        <time>2013-11-02T13:22:02Z</time>
      </trkpt>
      <trkpt lat="44.75946" lon="-0.32956">
        <ele>106</ele>
        <time>2013-11-02T13:22:12Z</time>
      </trkpt>
      <trkpt lat="44.75898" lon="-0.3294">
        <ele>107</ele>
        <time>2013-11-02T13:22:22Z</time>
      </trkpt>
      <trkpt lat="44.75847" lon="-0.32931">
        <ele>107</ele>
        <time>2013-11-02T13:22:33Z</time>
      </trkpt>
      <trkpt lat="44.75815" lon="-0.32932">
        <ele>107</ele>
        <time>2013-11-02T13:22:42Z</time>
      </trkpt>
      <trkpt lat="44.75814" lon="-0.32937">
        <ele>107</ele>
        <time>2013-11-02T13:22:43Z</time>
      </trkpt>
      <trkpt lat="44.75814" lon="-0.32942">
        <ele>107</ele>
        <time>2013-11-02T13:22:44Z</time>
      </trkpt>
      <trkpt lat="44.75815" lon="-0.32946">
        <ele>107</ele>
        <time>2013-11-02T13:22:45Z</time>
      </trkpt>
      <trkpt lat="44.75816" lon="-0.32951">
        <ele>107</ele>
        <time>2013-11-02T13:22:46Z</time>
      </trkpt>
      <trkpt lat="44.7582" lon="-0.32972">
        <ele>107</ele>
        <time>2013-11-02T13:22:52Z</time>
      </trkpt>
      <trkpt lat="44.75828" lon="-0.33007">
        <ele>107</ele>
        <time>2013-11-02T13:23:00Z</time>
      </trkpt>
      <trkpt lat="44.75837" lon="-0.33032">
        <ele>107</ele>
        <time>2013-11-02T13:23:06Z</time>
      </trkpt>
      <trkpt lat="44.75857" lon="-0.33045">
        <ele>106</ele>
        <time>2013-11-02T13:23:13Z</time>
      </trkpt>
      <trkpt lat="44.7587" lon="-0.33061">
        <ele>106</ele>
        <time>2013-11-02T13:23:18Z</time>
      </trkpt>
      <trkpt lat="44.75889" lon="-0.33083">
        <ele>106</ele>
        <time>2013-11-02T13:23:26Z</time>
      </trkpt>
      <trkpt lat="44.75907" lon="-0.33114">
        <ele>106</ele>
        <time>2013-11-02T13:23:34Z</time>
      </trkpt>
      <trkpt lat="44.7592" lon="-0.33147">
        <ele>106</ele>
        <time>2013-11-02T13:23:42Z</time>
      </trkpt>
      <trkpt lat="44.75927" lon="-0.33166">
        <ele>105</ele>
        <time>2013-11-02T13:23:47Z</time>
      </trkpt>
      <trkpt lat="44.75933" lon="-0.33192">
        <ele>105</ele>
        <time>2013-11-02T13:23:53Z</time>
      </trkpt>
      <trkpt lat="44.75942" lon="-0.33226">
        <ele>105</ele>
        <time>2013-11-02T13:24:01Z</time>
      </trkpt>
      <trkpt lat="44.75947" lon="-0.3324">
        <ele>105</ele>
        <time>2013-11-02T13:24:05Z</time>
      </trkpt>
      <trkpt lat="44.75953" lon="-0.33267">
        <ele>105</ele>
        <time>2013-11-02T13:24:11Z</time>
      </trkpt>
      <trkpt lat="44.75956" lon="-0.33302">
        <ele>105</ele>
        <time>2013-11-02T13:24:18Z</time>
      </trkpt>
      <trkpt lat="44.75955" lon="-0.33322">
        <ele>105</ele>
        <time>2013-11-02T13:24:22Z</time>
      </trkpt>
      <trkpt lat="44.75955" lon="-0.33328">
        <ele>104</ele>
        <time>2013-11-02T13:24:23Z</time>
      </trkpt>
      <trkpt lat="44.75954" lon="-0.33334">
        <ele>104</ele>
        <time>2013-11-02T13:24:24Z</time>
      </trkpt>
      <trkpt lat="44.75954" lon="-0.3334">
        <ele>104</ele>
        <time>2013-11-02T13:24:25Z</time>
      </trkpt>
      <trkpt lat="44.75954" lon="-0.33346">
        <ele>104</ele>
        <time>2013-11-02T13:24:26Z</time>
      </trkpt>
      <trkpt lat="44.75954" lon="-0.33372">
        <ele>104</ele>
        <time>2013-11-02T13:24:31Z</time>
      </trkpt>
      <trkpt lat="44.75955" lon="-0.33418">
        <ele>103</ele>
        <time>2013-11-02T13:24:40Z</time>
      </trkpt>
      <trkpt lat="44.75954" lon="-0.33461">
        <ele>102</ele>
        <time>2013-11-02T13:24:48Z</time>
      </trkpt>
      <trkpt lat="44.7595" lon="-0.33504">
        <ele>101</ele>
        <time>2013-11-02T13:24:56Z</time>
      </trkpt>
      <trkpt lat="44.75945" lon="-0.33548">
        <ele>101</ele>
        <time>2013-11-02T13:25:04Z</time>
      </trkpt>
      <trkpt lat="44.75943" lon="-0.33583">
        <ele>100</ele>
        <time>2013-11-02T13:25:11Z</time>
      </trkpt>
      <trkpt lat="44.75941" lon="-0.33622">
        <ele>100</ele>
        <time>2013-11-02T13:25:19Z</time>
      </trkpt>
      <trkpt lat="44.75939" lon="-0.33653">
        <ele>99</ele>
        <time>2013-11-02T13:25:26Z</time>
      </trkpt>
      <trkpt lat="44.75937" lon="-0.33678">
        <ele>99</ele>
        <time>2013-11-02T13:25:32Z</time>
      </trkpt>
      <trkpt lat="44.75934" lon="-0.33714">
        <ele>98</ele>
        <time>2013-11-02T13:25:40Z</time>
      </trkpt>
      <trkpt lat="44.75939" lon="-0.33729">
        <ele>98</ele>
        <time>2013-11-02T13:25:45Z</time>
      </trkpt>
      <trkpt lat="44.75942" lon="-0.3374">
        <ele>98</ele>
        <time>2013-11-02T13:25:49Z</time>
      </trkpt>
      <trkpt lat="44.75936" lon="-0.33756">
        <ele>97</ele>
        <time>2013-11-02T13:25:56Z</time>
      </trkpt>
      <trkpt lat="44.75922" lon="-0.33762">
        <ele>97</ele>
        <time>2013-11-02T13:26:02Z</time>
      </trkpt>
      <trkpt lat="44.75908" lon="-0.33755">
        <ele>96</ele>
        <time>2013-11-02T13:26:08Z</time>
      </trkpt>
      <trkpt lat="44.75897" lon="-0.33759">
        <ele>94</ele>
        <time>2013-11-02T13:26:12Z</time>
      </trkpt>
      <trkpt lat="44.75883" lon="-0.33762">
        <ele>92</ele>
        <time>2013-11-02T13:26:16Z</time>
      </trkpt>
      <trkpt lat="44.75863" lon="-0.33768">
        <ele>88</ele>
        <time>2013-11-02T13:26:22Z</time>
      </trkpt>
      <trkpt lat="44.75856" lon="-0.33773">
        <ele>87</ele>
        <time>2013-11-02T13:26:24Z</time>
      </trkpt>
      <trkpt lat="44.7584" lon="-0.3378">
        <ele>84</ele>
        <time>2013-11-02T13:26:28Z</time>
      </trkpt>
      <trkpt lat="44.75815" lon="-0.33787">
        <ele>79</ele>
        <time>2013-11-02T13:26:35Z</time>
      </trkpt>
      <trkpt lat="44.75809" lon="-0.33789">
        <ele>78</ele>
        <time>2013-11-02T13:26:38Z</time>
      </trkpt>
      <trkpt lat="44.75801" lon="-0.33805">
        <ele>77</ele>
        <time>2013-11-02T13:26:44Z</time>
      </trkpt>
      <trkpt lat="44.758" lon="-0.33815">
        <ele>77</ele>
        <time>2013-11-02T13:26:49Z</time>
      </trkpt>
      <trkpt lat="44.758" lon="-0.33818">
        <ele>77</ele>
        <time>2013-11-02T13:27:01Z</time>
      </trkpt>
      <trkpt lat="44.75799" lon="-0.33819">
        <ele>77</ele>
        <time>2013-11-02T13:27:09Z</time>
      </trkpt>
      <trkpt lat="44.75799" lon="-0.33823">
        <ele>77</ele>
        <time>2013-11-02T13:27:15Z</time>
      </trkpt>
      <trkpt lat="44.75796" lon="-0.33844">
        <ele>76</ele>
        <time>2013-11-02T13:27:21Z</time>
      </trkpt>
      <trkpt lat="44.75797" lon="-0.33852">
        <ele>76</ele>
        <time>2013-11-02T13:27:23Z</time>
      </trkpt>
      <trkpt lat="44.75792" lon="-0.33878">
        <ele>75</ele>
        <time>2013-11-02T13:27:30Z</time>
      </trkpt>
      <trkpt lat="44.75788" lon="-0.3389">
        <ele>74</ele>
        <time>2013-11-02T13:27:34Z</time>
      </trkpt>
      <trkpt lat="44.75786" lon="-0.339">
        <ele>74</ele>
        <time>2013-11-02T13:27:37Z</time>
      </trkpt>
      <trkpt lat="44.75781" lon="-0.33925">
        <ele>73</ele>
        <time>2013-11-02T13:27:43Z</time>
      </trkpt>
      <trkpt lat="44.75777" lon="-0.33946">
        <ele>72</ele>
        <time>2013-11-02T13:27:49Z</time>
      </trkpt>
      <trkpt lat="44.75773" lon="-0.33968">
        <ele>71</ele>
        <time>2013-11-02T13:27:54Z</time>
      </trkpt>
      <trkpt lat="44.75774" lon="-0.33992">
        <ele>71</ele>
        <time>2013-11-02T13:28:00Z</time>
      </trkpt>
      <trkpt lat="44.75778" lon="-0.34005">
        <ele>71</ele>
        <time>2013-11-02T13:28:04Z</time>
      </trkpt>
      <trkpt lat="44.75779" lon="-0.34027">
        <ele>71</ele>
        <time>2013-11-02T13:28:09Z</time>
      </trkpt>
      <trkpt lat="44.75779" lon="-0.34035">
        <ele>71</ele>
        <time>2013-11-02T13:28:11Z</time>
      </trkpt>
      <trkpt lat="44.75778" lon="-0.34042">
        <ele>70</ele>
        <time>2013-11-02T13:28:13Z</time>
      </trkpt>
      <trkpt lat="44.75777" lon="-0.34058">
        <ele>70</ele>
        <time>2013-11-02T13:28:18Z</time>
      </trkpt>
      <trkpt lat="44.75779" lon="-0.34071">
        <ele>70</ele>
        <time>2013-11-02T13:28:22Z</time>
      </trkpt>
      <trkpt lat="44.75783" lon="-0.34091">
        <ele>69</ele>
        <time>2013-11-02T13:28:28Z</time>
      </trkpt>
      <trkpt lat="44.75783" lon="-0.34094">
        <ele>69</ele>
        <time>2013-11-02T13:28:29Z</time>
      </trkpt>
      <trkpt lat="44.75786" lon="-0.34108">
        <ele>69</ele>
        <time>2013-11-02T13:28:35Z</time>
      </trkpt>
      <trkpt lat="44.75792" lon="-0.34123">
        <ele>69</ele>
        <time>2013-11-02T13:28:40Z</time>
      </trkpt>
      <trkpt lat="44.75793" lon="-0.34131">
        <ele>68</ele>
        <time>2013-11-02T13:28:42Z</time>
      </trkpt>
      <trkpt lat="44.75796" lon="-0.34142">
        <ele>68</ele>
        <time>2013-11-02T13:28:46Z</time>
      </trkpt>
      <trkpt lat="44.75794" lon="-0.34167">
        <ele>67</ele>
        <time>2013-11-02T13:28:52Z</time>
      </trkpt>
      <trkpt lat="44.75793" lon="-0.34191">
        <ele>66</ele>
        <time>2013-11-02T13:28:57Z</time>
      </trkpt>
      <trkpt lat="44.75796" lon="-0.34208">
        <ele>66</ele>
        <time>2013-11-02T13:29:02Z</time>
      </trkpt>
      <trkpt lat="44.75795" lon="-0.34218">
        <ele>66</ele>
        <time>2013-11-02T13:29:06Z</time>
      </trkpt>
      <trkpt lat="44.75796" lon="-0.34228">
        <ele>66</ele>
        <time>2013-11-02T13:29:11Z</time>
      </trkpt>
      <trkpt lat="44.75795" lon="-0.34236">
        <ele>66</ele>
        <time>2013-11-02T13:29:16Z</time>
      </trkpt>
      <trkpt lat="44.75798" lon="-0.34252">
        <ele>66</ele>
        <time>2013-11-02T13:29:23Z</time>
      </trkpt>
      <trkpt lat="44.75799" lon="-0.34253">
        <ele>66</ele>
        <time>2013-11-02T13:29:24Z</time>
      </trkpt>
      <trkpt lat="44.75805" lon="-0.34266">
        <ele>67</ele>
        <time>2013-11-02T13:29:30Z</time>
      </trkpt>
      <trkpt lat="44.75805" lon="-0.34285">
        <ele>68</ele>
        <time>2013-11-02T13:29:36Z</time>
      </trkpt>
      <trkpt lat="44.75798" lon="-0.34302">
        <ele>67</ele>
        <time>2013-11-02T13:29:43Z</time>
      </trkpt>
      <trkpt lat="44.758" lon="-0.34325">
        <ele>69</ele>
        <time>2013-11-02T13:29:50Z</time>
      </trkpt>
      <trkpt lat="44.75796" lon="-0.34352">
        <ele>67</ele>
        <time>2013-11-02T13:29:57Z</time>
      </trkpt>
      <trkpt lat="44.7579" lon="-0.3438">
        <ele>66</ele>
        <time>2013-11-02T13:30:04Z</time>
      </trkpt>
      <trkpt lat="44.7579" lon="-0.34383">
        <ele>65</ele>
        <time>2013-11-02T13:30:05Z</time>
      </trkpt>
      <trkpt lat="44.75786" lon="-0.34414">
        <ele>64</ele>
        <time>2013-11-02T13:30:13Z</time>
      </trkpt>
      <trkpt lat="44.75786" lon="-0.34426">
        <ele>64</ele>
        <time>2013-11-02T13:30:17Z</time>
      </trkpt>
      <trkpt lat="44.75786" lon="-0.34445">
        <ele>63</ele>
        <time>2013-11-02T13:30:23Z</time>
      </trkpt>
      <trkpt lat="44.75782" lon="-0.34459">
        <ele>62</ele>
        <time>2013-11-02T13:30:30Z</time>
      </trkpt>
      <trkpt lat="44.75781" lon="-0.3446">
        <ele>62</ele>
        <time>2013-11-02T13:30:44Z</time>
      </trkpt>
      <trkpt lat="44.75781" lon="-0.34461">
        <ele>62</ele>
        <time>2013-11-02T13:30:51Z</time>
      </trkpt>
      <trkpt lat="44.7578" lon="-0.34462">
        <ele>62</ele>
        <time>2013-11-02T13:31:06Z</time>
      </trkpt>
      <trkpt lat="44.7578" lon="-0.34464">
        <ele>62</ele>
        <time>2013-11-02T13:31:17Z</time>
      </trkpt>
      <trkpt lat="44.7578" lon="-0.34464">
        <ele>62</ele>
        <time>2013-11-02T13:31:30Z</time>
      </trkpt>
      <trkpt lat="44.7578" lon="-0.34464">
        <ele>62</ele>
        <time>2013-11-02T13:31:38Z</time>
      </trkpt>
      <trkpt lat="44.7578" lon="-0.34464">
        <ele>62</ele>
        <time>2013-11-02T13:31:51Z</time>
      </trkpt>
      <trkpt lat="44.7578" lon="-0.34464">
        <ele>62</ele>
        <time>2013-11-02T13:32:09Z</time>
      </trkpt>
      <trkpt lat="44.7578" lon="-0.34466">
        <ele>62</ele>
        <time>2013-11-02T13:32:20Z</time>
      </trkpt>
      <trkpt lat="44.75778" lon="-0.3448">
        <ele>62</ele>
        <time>2013-11-02T13:32:25Z</time>
      </trkpt>
      <trkpt lat="44.75778" lon="-0.34498">
        <ele>62</ele>
        <time>2013-11-02T13:32:31Z</time>
      </trkpt>
      <trkpt lat="44.75781" lon="-0.34518">
        <ele>62</ele>
        <time>2013-11-02T13:32:37Z</time>
      </trkpt>
      <trkpt lat="44.75785" lon="-0.34533">
        <ele>61</ele>
        <time>2013-11-02T13:32:42Z</time>
      </trkpt>
      <trkpt lat="44.75792" lon="-0.34552">
        <ele>61</ele>
        <time>2013-11-02T13:32:49Z</time>
      </trkpt>
      <trkpt lat="44.75799" lon="-0.34577">
        <ele>60</ele>
        <time>2013-11-02T13:32:57Z</time>
      </trkpt>
      <trkpt lat="44.75801" lon="-0.34583">
        <ele>60</ele>
        <time>2013-11-02T13:32:59Z</time>
      </trkpt>
      <trkpt lat="44.75796" lon="-0.34594">
        <ele>60</ele>
        <time>2013-11-02T13:33:06Z</time>
      </trkpt>
      <trkpt lat="44.75795" lon="-0.34597">
        <ele>60</ele>
        <time>2013-11-02T13:33:13Z</time>
      </trkpt>
      <trkpt lat="44.75794" lon="-0.34601">
        <ele>60</ele>
        <time>2013-11-02T13:33:22Z</time>
      </trkpt>
      <trkpt lat="44.75792" lon="-0.34601">
        <ele>61</ele>
        <time>2013-11-02T13:33:30Z</time>
      </trkpt>
      <trkpt lat="44.75789" lon="-0.34602">
        <ele>61</ele>
        <time>2013-11-02T13:33:38Z</time>
      </trkpt>
      <trkpt lat="44.75784" lon="-0.34601">
        <ele>61</ele>
        <time>2013-11-02T13:33:45Z</time>
      </trkpt>
      <trkpt lat="44.75785" lon="-0.34602">
        <ele>61</ele>
        <time>2013-11-02T13:33:53Z</time>
      </trkpt>
      <trkpt lat="44.75785" lon="-0.34601">
        <ele>61</ele>
        <time>2013-11-02T13:34:04Z</time>
      </trkpt>
      <trkpt lat="44.75785" lon="-0.34599">
        <ele>61</ele>
        <time>2013-11-02T13:34:26Z</time>
      </trkpt>
      <trkpt lat="44.75785" lon="-0.34599">
        <ele>61</ele>
        <time>2013-11-02T13:34:37Z</time>
      </trkpt>
      <trkpt lat="44.75784" lon="-0.34599">
        <ele>61</ele>
        <time>2013-11-02T13:34:47Z</time>
      </trkpt>
      <trkpt lat="44.75784" lon="-0.34599">
        <ele>61</ele>
        <time>2013-11-02T13:34:54Z</time>
      </trkpt>
      <trkpt lat="44.75783" lon="-0.346">
        <ele>61</ele>
        <time>2013-11-02T13:35:10Z</time>
      </trkpt>
      <trkpt lat="44.75784" lon="-0.346">
        <ele>61</ele>
        <time>2013-11-02T13:35:28Z</time>
      </trkpt>
      <trkpt lat="44.75784" lon="-0.346">
        <ele>61</ele>
        <time>2013-11-02T13:35:46Z</time>
      </trkpt>
      <trkpt lat="44.75783" lon="-0.34599">
        <ele>61</ele>
        <time>2013-11-02T13:35:56Z</time>
      </trkpt>
      <trkpt lat="44.75777" lon="-0.34585">
        <ele>61</ele>
        <time>2013-11-02T13:36:05Z</time>
      </trkpt>
      <trkpt lat="44.75772" lon="-0.3457">
        <ele>61</ele>
        <time>2013-11-02T13:36:12Z</time>
      </trkpt>
      <trkpt lat="44.75766" lon="-0.34544">
        <ele>61</ele>
        <time>2013-11-02T13:36:22Z</time>
      </trkpt>
      <trkpt lat="44.75762" lon="-0.34531">
        <ele>61</ele>
        <time>2013-11-02T13:36:27Z</time>
      </trkpt>
      <trkpt lat="44.75758" lon="-0.34518">
        <ele>61</ele>
        <time>2013-11-02T13:36:31Z</time>
      </trkpt>
      <trkpt lat="44.75751" lon="-0.3451">
        <ele>61</ele>
        <time>2013-11-02T13:36:35Z</time>
      </trkpt>
      <trkpt lat="44.75733" lon="-0.34501">
        <ele>63</ele>
        <time>2013-11-02T13:36:44Z</time>
      </trkpt>
      <trkpt lat="44.75722" lon="-0.34506">
        <ele>64</ele>
        <time>2013-11-02T13:36:50Z</time>
      </trkpt>
      <trkpt lat="44.75711" lon="-0.34505">
        <ele>65</ele>
        <time>2013-11-02T13:36:56Z</time>
      </trkpt>
      <trkpt lat="44.7571" lon="-0.34505">
        <ele>65</ele>
        <time>2013-11-02T13:36:57Z</time>
      </trkpt>
      <trkpt lat="44.75697" lon="-0.34512">
        <ele>66</ele>
        <time>2013-11-02T13:37:05Z</time>
      </trkpt>
      <trkpt lat="44.75695" lon="-0.34513">
        <ele>66</ele>
        <time>2013-11-02T13:37:06Z</time>
      </trkpt>
      <trkpt lat="44.75687" lon="-0.34516">
        <ele>67</ele>
        <time>2013-11-02T13:37:11Z</time>
      </trkpt>
      <trkpt lat="44.75678" lon="-0.34522">
        <ele>68</ele>
        <time>2013-11-02T13:37:17Z</time>
      </trkpt>
      <trkpt lat="44.7567" lon="-0.34525">
        <ele>69</ele>
        <time>2013-11-02T13:37:23Z</time>
      </trkpt>
      <trkpt lat="44.75663" lon="-0.34528">
        <ele>69</ele>
        <time>2013-11-02T13:37:27Z</time>
      </trkpt>
      <trkpt lat="44.75653" lon="-0.34537">
        <ele>70</ele>
        <time>2013-11-02T13:37:34Z</time>
      </trkpt>
      <trkpt lat="44.75646" lon="-0.34541">
        <ele>70</ele>
        <time>2013-11-02T13:37:40Z</time>
      </trkpt>
      <trkpt lat="44.75635" lon="-0.34546">
        <ele>71</ele>
        <time>2013-11-02T13:37:46Z</time>
      </trkpt>
      <trkpt lat="44.75633" lon="-0.34546">
        <ele>71</ele>
        <time>2013-11-02T13:37:47Z</time>
      </trkpt>
      <trkpt lat="44.75629" lon="-0.34546">
        <ele>72</ele>
        <time>2013-11-02T13:37:49Z</time>
      </trkpt>
      <trkpt lat="44.75616" lon="-0.34543">
        <ele>72</ele>
        <time>2013-11-02T13:37:56Z</time>
      </trkpt>
      <trkpt lat="44.75615" lon="-0.34542">
        <ele>72</ele>
        <time>2013-11-02T13:37:57Z</time>
      </trkpt>
      <trkpt lat="44.75605" lon="-0.34542">
        <ele>72</ele>
        <time>2013-11-02T13:38:02Z</time>
      </trkpt>
      <trkpt lat="44.75601" lon="-0.3454">
        <ele>72</ele>
        <time>2013-11-02T13:38:04Z</time>
      </trkpt>
      <trkpt lat="44.75592" lon="-0.34537">
        <ele>72</ele>
        <time>2013-11-02T13:38:10Z</time>
      </trkpt>
      <trkpt lat="44.75586" lon="-0.34546">
        <ele>73</ele>
        <time>2013-11-02T13:38:14Z</time>
      </trkpt>
      <trkpt lat="44.75578" lon="-0.34561">
        <ele>74</ele>
        <time>2013-11-02T13:38:21Z</time>
      </trkpt>
      <trkpt lat="44.75577" lon="-0.34564">
        <ele>74</ele>
        <time>2013-11-02T13:38:23Z</time>
      </trkpt>
      <trkpt lat="44.75566" lon="-0.34579">
        <ele>75</ele>
        <time>2013-11-02T13:38:30Z</time>
      </trkpt>
      <trkpt lat="44.75564" lon="-0.3458">
        <ele>75</ele>
        <time>2013-11-02T13:38:31Z</time>
      </trkpt>
      <trkpt lat="44.75556" lon="-0.34587">
        <ele>76</ele>
        <time>2013-11-02T13:38:38Z</time>
      </trkpt>
      <trkpt lat="44.7555" lon="-0.34592">
        <ele>77</ele>
        <time>2013-11-02T13:38:41Z</time>
      </trkpt>
      <trkpt lat="44.75541" lon="-0.34597">
        <ele>78</ele>
        <time>2013-11-02T13:38:45Z</time>
      </trkpt>
      <trkpt lat="44.75529" lon="-0.3461">
        <ele>79</ele>
        <time>2013-11-02T13:38:53Z</time>
      </trkpt>
      <trkpt lat="44.75528" lon="-0.34611">
        <ele>79</ele>
        <time>2013-11-02T13:38:54Z</time>
      </trkpt>
      <trkpt lat="44.75516" lon="-0.34627">
        <ele>81</ele>
        <time>2013-11-02T13:39:02Z</time>
      </trkpt>
      <trkpt lat="44.75512" lon="-0.34633">
        <ele>82</ele>
        <time>2013-11-02T13:39:05Z</time>
      </trkpt>
      <trkpt lat="44.75502" lon="-0.34641">
        <ele>83</ele>
        <time>2013-11-02T13:39:11Z</time>
      </trkpt>
      <trkpt lat="44.75495" lon="-0.34643">
        <ele>83</ele>
        <time>2013-11-02T13:39:16Z</time>
      </trkpt>
      <trkpt lat="44.75493" lon="-0.34639">
        <ele>83</ele>
        <time>2013-11-02T13:39:22Z</time>
      </trkpt>
      <trkpt lat="44.75492" lon="-0.34638">
        <ele>83</ele>
        <time>2013-11-02T13:39:28Z</time>
      </trkpt>
      <trkpt lat="44.7549" lon="-0.34638">
        <ele>83</ele>
        <time>2013-11-02T13:39:37Z</time>
      </trkpt>
      <trkpt lat="44.7549" lon="-0.34638">
        <ele>83</ele>
        <time>2013-11-02T13:39:43Z</time>
      </trkpt>
      <trkpt lat="44.7549" lon="-0.34637">
        <ele>83</ele>
        <time>2013-11-02T13:39:58Z</time>
      </trkpt>
      <trkpt lat="44.75489" lon="-0.34637">
        <ele>83</ele>
        <time>2013-11-02T13:40:05Z</time>
      </trkpt>
      <trkpt lat="44.75488" lon="-0.3464">
        <ele>83</ele>
        <time>2013-11-02T13:40:19Z</time>
      </trkpt>
      <trkpt lat="44.75488" lon="-0.3464">
        <ele>83</ele>
        <time>2013-11-02T13:40:37Z</time>
      </trkpt>
      <trkpt lat="44.75487" lon="-0.34641">
        <ele>83</ele>
        <time>2013-11-02T13:40:51Z</time>
      </trkpt>
      <trkpt lat="44.75486" lon="-0.34641">
        <ele>84</ele>
        <time>2013-11-02T13:41:07Z</time>
      </trkpt>
      <trkpt lat="44.75486" lon="-0.34639">
        <ele>83</ele>
        <time>2013-11-02T13:41:09Z</time>
      </trkpt>
      <trkpt lat="44.75478" lon="-0.34633">
        <ele>83</ele>
        <time>2013-11-02T13:41:15Z</time>
      </trkpt>
      <trkpt lat="44.75473" lon="-0.34632">
        <ele>83</ele>
        <time>2013-11-02T13:41:19Z</time>
      </trkpt>
      <trkpt lat="44.75461" lon="-0.34624">
        <ele>83</ele>
        <time>2013-11-02T13:41:27Z</time>
      </trkpt>
      <trkpt lat="44.7546" lon="-0.34624">
        <ele>83</ele>
        <time>2013-11-02T13:41:28Z</time>
      </trkpt>
      <trkpt lat="44.75456" lon="-0.34626">
        <ele>83</ele>
        <time>2013-11-02T13:41:31Z</time>
      </trkpt>
      <trkpt lat="44.75452" lon="-0.34631">
        <ele>84</ele>
        <time>2013-11-02T13:41:37Z</time>
      </trkpt>
      <trkpt lat="44.75452" lon="-0.34631">
        <ele>84</ele>
        <time>2013-11-02T13:41:38Z</time>
      </trkpt>
      <trkpt lat="44.75441" lon="-0.34641">
        <ele>85</ele>
        <time>2013-11-02T13:41:45Z</time>
      </trkpt>
      <trkpt lat="44.7543" lon="-0.34647">
        <ele>86</ele>
        <time>2013-11-02T13:41:53Z</time>
      </trkpt>
      <trkpt lat="44.75419" lon="-0.34653">
        <ele>88</ele>
        <time>2013-11-02T13:42:01Z</time>
      </trkpt>
      <trkpt lat="44.75407" lon="-0.3466">
        <ele>89</ele>
        <time>2013-11-02T13:42:09Z</time>
      </trkpt>
      <trkpt lat="44.75405" lon="-0.3466">
        <ele>89</ele>
        <time>2013-11-02T13:42:11Z</time>
      </trkpt>
      <trkpt lat="44.75394" lon="-0.34663">
        <ele>90</ele>
        <time>2013-11-02T13:42:19Z</time>
      </trkpt>
      <trkpt lat="44.75386" lon="-0.34666">
        <ele>90</ele>
        <time>2013-11-02T13:42:26Z</time>
      </trkpt>
      <trkpt lat="44.75379" lon="-0.34671">
        <ele>91</ele>
        <time>2013-11-02T13:42:33Z</time>
      </trkpt>
      <trkpt lat="44.75377" lon="-0.34673">
        <ele>91</ele>
        <time>2013-11-02T13:42:35Z</time>
      </trkpt>
      <trkpt lat="44.75373" lon="-0.34675">
        <ele>92</ele>
        <time>2013-11-02T13:42:42Z</time>
      </trkpt>
      <trkpt lat="44.7537" lon="-0.34676">
        <ele>92</ele>
        <time>2013-11-02T13:42:47Z</time>
      </trkpt>
      <trkpt lat="44.75359" lon="-0.34684">
        <ele>92</ele>
        <time>2013-11-02T13:42:54Z</time>
      </trkpt>
      <trkpt lat="44.75349" lon="-0.34693">
        <ele>93</ele>
        <time>2013-11-02T13:43:01Z</time>
      </trkpt>
      <trkpt lat="44.75336" lon="-0.34703">
        <ele>94</ele>
        <time>2013-11-02T13:43:09Z</time>
      </trkpt>
      <trkpt lat="44.75325" lon="-0.34712">
        <ele>94</ele>
        <time>2013-11-02T13:43:16Z</time>
      </trkpt>
      <trkpt lat="44.75313" lon="-0.34723">
        <ele>94</ele>
        <time>2013-11-02T13:43:24Z</time>
      </trkpt>
      <trkpt lat="44.75309" lon="-0.34729">
        <ele>94</ele>
        <time>2013-11-02T13:43:27Z</time>
      </trkpt>
      <trkpt lat="44.75304" lon="-0.34733">
        <ele>94</ele>
        <time>2013-11-02T13:43:30Z</time>
      </trkpt>
      <trkpt lat="44.753" lon="-0.34722">
        <ele>94</ele>
        <time>2013-11-02T13:43:36Z</time>
      </trkpt>
      <trkpt lat="44.75299" lon="-0.34712">
        <ele>94</ele>
        <time>2013-11-02T13:43:40Z</time>
      </trkpt>
      <trkpt lat="44.75295" lon="-0.34674">
        <ele>95</ele>
        <time>2013-11-02T13:43:52Z</time>
      </trkpt>
      <trkpt lat="44.75292" lon="-0.34638">
        <ele>95</ele>
        <time>2013-11-02T13:44:03Z</time>
      </trkpt>
      <trkpt lat="44.75289" lon="-0.34606">
        <ele>95</ele>
        <time>2013-11-02T13:44:13Z</time>
      </trkpt>
      <trkpt lat="44.75288" lon="-0.34591">
        <ele>95</ele>
        <time>2013-11-02T13:44:18Z</time>
      </trkpt>
      <trkpt lat="44.75282" lon="-0.34582">
        <ele>95</ele>
        <time>2013-11-02T13:44:24Z</time>
      </trkpt>
      <trkpt lat="44.75279" lon="-0.34586">
        <ele>95</ele>
        <time>2013-11-02T13:44:27Z</time>
      </trkpt>
      <trkpt lat="44.75263" lon="-0.34594">
        <ele>95</ele>
        <time>2013-11-02T13:44:36Z</time>
      </trkpt>
      <trkpt lat="44.7525" lon="-0.34601">
        <ele>94</ele>
        <time>2013-11-02T13:44:43Z</time>
      </trkpt>
      <trkpt lat="44.75236" lon="-0.34608">
        <ele>92</ele>
        <time>2013-11-02T13:44:51Z</time>
      </trkpt>
      <trkpt lat="44.75234" lon="-0.34608">
        <ele>91</ele>
        <time>2013-11-02T13:44:52Z</time>
      </trkpt>
      <trkpt lat="44.75229" lon="-0.34603">
        <ele>91</ele>
        <time>2013-11-02T13:44:56Z</time>
      </trkpt>
      <trkpt lat="44.75221" lon="-0.3458">
        <ele>91</ele>
        <time>2013-11-02T13:45:05Z</time>
      </trkpt>
      <trkpt lat="44.75215" lon="-0.34558">
        <ele>91</ele>
        <time>2013-11-02T13:45:13Z</time>
      </trkpt>
      <trkpt lat="44.75208" lon="-0.3454">
        <ele>91</ele>
        <time>2013-11-02T13:45:21Z</time>
      </trkpt>
      <trkpt lat="44.75206" lon="-0.34539">
        <ele>91</ele>
        <time>2013-11-02T13:45:27Z</time>
      </trkpt>
      <trkpt lat="44.75195" lon="-0.34537">
        <ele>89</ele>
        <time>2013-11-02T13:45:32Z</time>
      </trkpt>
      <trkpt lat="44.75193" lon="-0.34536">
        <ele>89</ele>
        <time>2013-11-02T13:45:34Z</time>
      </trkpt>
      <trkpt lat="44.75186" lon="-0.34533">
        <ele>88</ele>
        <time>2013-11-02T13:45:40Z</time>
      </trkpt>
      <trkpt lat="44.75181" lon="-0.34542">
        <ele>87</ele>
        <time>2013-11-02T13:45:47Z</time>
      </trkpt>
      <trkpt lat="44.7518" lon="-0.3455">
        <ele>86</ele>
        <time>2013-11-02T13:45:52Z</time>
      </trkpt>
      <trkpt lat="44.75175" lon="-0.34557">
        <ele>85</ele>
        <time>2013-11-02T13:45:56Z</time>
      </trkpt>
      <trkpt lat="44.75172" lon="-0.3457">
        <ele>84</ele>
        <time>2013-11-02T13:46:02Z</time>
      </trkpt>
      <trkpt lat="44.7517" lon="-0.34581">
        <ele>83</ele>
        <time>2013-11-02T13:46:07Z</time>
      </trkpt>
      <trkpt lat="44.75174" lon="-0.34592">
        <ele>83</ele>
        <time>2013-11-02T13:46:12Z</time>
      </trkpt>
      <trkpt lat="44.75173" lon="-0.34602">
        <ele>82</ele>
        <time>2013-11-02T13:46:16Z</time>
      </trkpt>
      <trkpt lat="44.75169" lon="-0.34612">
        <ele>81</ele>
        <time>2013-11-02T13:46:22Z</time>
      </trkpt>
      <trkpt lat="44.75165" lon="-0.34623">
        <ele>81</ele>
        <time>2013-11-02T13:46:30Z</time>
      </trkpt>
      <trkpt lat="44.75161" lon="-0.34627">
        <ele>82</ele>
        <time>2013-11-02T13:46:39Z</time>
      </trkpt>
      <trkpt lat="44.75157" lon="-0.34635">
        <ele>82</ele>
        <time>2013-11-02T13:46:47Z</time>
      </trkpt>
      <trkpt lat="44.75153" lon="-0.34638">
        <ele>83</ele>
        <time>2013-11-02T13:46:53Z</time>
      </trkpt>
      <trkpt lat="44.75151" lon="-0.34634">
        <ele>83</ele>
        <time>2013-11-02T13:47:00Z</time>
      </trkpt>
      <trkpt lat="44.75151" lon="-0.34634">
        <ele>83</ele>
        <time>2013-11-02T13:47:08Z</time>
      </trkpt>
      <trkpt lat="44.75151" lon="-0.34633">
        <ele>83</ele>
        <time>2013-11-02T13:47:21Z</time>
      </trkpt>
      <trkpt lat="44.75151" lon="-0.34633">
        <ele>83</ele>
        <time>2013-11-02T13:47:34Z</time>
      </trkpt>
      <trkpt lat="44.75151" lon="-0.34633">
        <ele>83</ele>
        <time>2013-11-02T13:47:43Z</time>
      </trkpt>
      <trkpt lat="44.75151" lon="-0.34633">
        <ele>83</ele>
        <time>2013-11-02T13:47:54Z</time>
      </trkpt>
      <trkpt lat="44.75151" lon="-0.34633">
        <ele>83</ele>
        <time>2013-11-02T13:48:07Z</time>
      </trkpt>
      <trkpt lat="44.75151" lon="-0.34633">
        <ele>83</ele>
        <time>2013-11-02T13:48:10Z</time>
      </trkpt>
      <trkpt lat="44.75149" lon="-0.34617">
        <ele>84</ele>
        <time>2013-11-02T13:48:18Z</time>
      </trkpt>
      <trkpt lat="44.75144" lon="-0.34595">
        <ele>85</ele>
        <time>2013-11-02T13:48:26Z</time>
      </trkpt>
      <trkpt lat="44.7514" lon="-0.34574">
        <ele>85</ele>
        <time>2013-11-02T13:48:33Z</time>
      </trkpt>
      <trkpt lat="44.75137" lon="-0.34555">
        <ele>86</ele>
        <time>2013-11-02T13:48:39Z</time>
      </trkpt>
      <trkpt lat="44.75135" lon="-0.34536">
        <ele>86</ele>
        <time>2013-11-02T13:48:45Z</time>
      </trkpt>
      <trkpt lat="44.7513" lon="-0.34516">
        <ele>87</ele>
        <time>2013-11-02T13:48:53Z</time>
      </trkpt>
      <trkpt lat="44.75124" lon="-0.34493">
        <ele>87</ele>
        <time>2013-11-02T13:49:01Z</time>
      </trkpt>
      <trkpt lat="44.7511" lon="-0.34489">
        <ele>89</ele>
        <time>2013-11-02T13:49:09Z</time>
      </trkpt>
      <trkpt lat="44.751" lon="-0.34493">
        <ele>90</ele>
        <time>2013-11-02T13:49:16Z</time>
      </trkpt>
      <trkpt lat="44.75088" lon="-0.34494">
        <ele>91</ele>
        <time>2013-11-02T13:49:23Z</time>
      </trkpt>
      <trkpt lat="44.75077" lon="-0.34495">
        <ele>93</ele>
        <time>2013-11-02T13:49:31Z</time>
      </trkpt>
      <trkpt lat="44.75067" lon="-0.34497">
        <ele>93</ele>
        <time>2013-11-02T13:49:38Z</time>
      </trkpt>
      <trkpt lat="44.75053" lon="-0.345">
        <ele>94</ele>
        <time>2013-11-02T13:49:47Z</time>
      </trkpt>
      <trkpt lat="44.7504" lon="-0.34502">
        <ele>96</ele>
        <time>2013-11-02T13:49:56Z</time>
      </trkpt>
      <trkpt lat="44.75037" lon="-0.34502">
        <ele>96</ele>
        <time>2013-11-02T13:49:58Z</time>
      </trkpt>
      <trkpt lat="44.75024" lon="-0.34503">
        <ele>96</ele>
        <time>2013-11-02T13:50:06Z</time>
      </trkpt>
      <trkpt lat="44.75019" lon="-0.34498">
        <ele>96</ele>
        <time>2013-11-02T13:50:12Z</time>
      </trkpt>
      <trkpt lat="44.75019" lon="-0.34498">
        <ele>96</ele>
        <time>2013-11-02T13:50:20Z</time>
      </trkpt>
      <trkpt lat="44.75019" lon="-0.34499">
        <ele>96</ele>
        <time>2013-11-02T13:50:38Z</time>
      </trkpt>
      <trkpt lat="44.75019" lon="-0.34498">
        <ele>96</ele>
        <time>2013-11-02T13:50:47Z</time>
      </trkpt>
      <trkpt lat="44.75019" lon="-0.34497">
        <ele>96</ele>
        <time>2013-11-02T13:50:52Z</time>
      </trkpt>
      <trkpt lat="44.75018" lon="-0.34496">
        <ele>97</ele>
        <time>2013-11-02T13:50:54Z</time>
      </trkpt>
      <trkpt lat="44.75006" lon="-0.34478">
        <ele>97</ele>
        <time>2013-11-02T13:51:03Z</time>
      </trkpt>
      <trkpt lat="44.74994" lon="-0.34464">
        <ele>98</ele>
        <time>2013-11-02T13:51:10Z</time>
      </trkpt>
      <trkpt lat="44.74982" lon="-0.34453">
        <ele>99</ele>
        <time>2013-11-02T13:51:17Z</time>
      </trkpt>
      <trkpt lat="44.7497" lon="-0.34438">
        <ele>99</ele>
        <time>2013-11-02T13:51:25Z</time>
      </trkpt>
      <trkpt lat="44.74957" lon="-0.34425">
        <ele>100</ele>
        <time>2013-11-02T13:51:33Z</time>
      </trkpt>
      <trkpt lat="44.7495" lon="-0.34413">
        <ele>100</ele>
        <time>2013-11-02T13:51:38Z</time>
      </trkpt>
      <trkpt lat="44.74941" lon="-0.34409">
        <ele>100</ele>
        <time>2013-11-02T13:51:43Z</time>
      </trkpt>
      <trkpt lat="44.74922" lon="-0.34397">
        <ele>101</ele>
        <time>2013-11-02T13:51:53Z</time>
      </trkpt>
      <trkpt lat="44.74909" lon="-0.34388">
        <ele>101</ele>
        <time>2013-11-02T13:52:01Z</time>
      </trkpt>
      <trkpt lat="44.74894" lon="-0.34379">
        <ele>101</ele>
        <time>2013-11-02T13:52:09Z</time>
      </trkpt>
      <trkpt lat="44.7488" lon="-0.34371">
        <ele>101</ele>
        <time>2013-11-02T13:52:17Z</time>
      </trkpt>
      <trkpt lat="44.7486" lon="-0.3436">
        <ele>101</ele>
        <time>2013-11-02T13:52:27Z</time>
      </trkpt>
      <trkpt lat="44.74842" lon="-0.34348">
        <ele>101</ele>
        <time>2013-11-02T13:52:36Z</time>
      </trkpt>
      <trkpt lat="44.74827" lon="-0.34338">
        <ele>102</ele>
        <time>2013-11-02T13:52:44Z</time>
      </trkpt>
      <trkpt lat="44.74816" lon="-0.34336">
        <ele>102</ele>
        <time>2013-11-02T13:52:50Z</time>
      </trkpt>
      <trkpt lat="44.7481" lon="-0.34344">
        <ele>102</ele>
        <time>2013-11-02T13:52:54Z</time>
      </trkpt>
      <trkpt lat="44.74804" lon="-0.34354">
        <ele>102</ele>
        <time>2013-11-02T13:52:59Z</time>
      </trkpt>
      <trkpt lat="44.74792" lon="-0.34355">
        <ele>102</ele>
        <time>2013-11-02T13:53:04Z</time>
      </trkpt>
      <trkpt lat="44.74786" lon="-0.34364">
        <ele>102</ele>
        <time>2013-11-02T13:53:07Z</time>
      </trkpt>
      <trkpt lat="44.74768" lon="-0.34398">
        <ele>101</ele>
        <time>2013-11-02T13:53:17Z</time>
      </trkpt>
      <trkpt lat="44.74763" lon="-0.34405">
        <ele>101</ele>
        <time>2013-11-02T13:53:20Z</time>
      </trkpt>
      <trkpt lat="44.74721" lon="-0.34388">
        <ele>101</ele>
        <time>2013-11-02T13:53:26Z</time>
      </trkpt>
      <trkpt lat="44.74672" lon="-0.34375">
        <ele>99</ele>
        <time>2013-11-02T13:53:27Z</time>
      </trkpt>
      <trkpt lat="44.74665" lon="-0.3441">
        <ele>98</ele>
        <time>2013-11-02T13:54:14Z</time>
      </trkpt>
      <trkpt lat="44.74661" lon="-0.34424">
        <ele>98</ele>
        <time>2013-11-02T13:54:20Z</time>
      </trkpt>
      <trkpt lat="44.74655" lon="-0.34448">
        <ele>98</ele>
        <time>2013-11-02T13:54:27Z</time>
      </trkpt>
      <trkpt lat="44.74643" lon="-0.34449">
        <ele>97</ele>
        <time>2013-11-02T13:54:32Z</time>
      </trkpt>
      <trkpt lat="44.74624" lon="-0.34442">
        <ele>95</ele>
        <time>2013-11-02T13:54:41Z</time>
      </trkpt>
      <trkpt lat="44.74606" lon="-0.34437">
        <ele>93</ele>
        <time>2013-11-02T13:54:48Z</time>
      </trkpt>
      <trkpt lat="44.7459" lon="-0.34435">
        <ele>92</ele>
        <time>2013-11-02T13:54:55Z</time>
      </trkpt>
      <trkpt lat="44.74578" lon="-0.34441">
        <ele>91</ele>
        <time>2013-11-02T13:55:02Z</time>
      </trkpt>
      <trkpt lat="44.74572" lon="-0.34455">
        <ele>91</ele>
        <time>2013-11-02T13:55:08Z</time>
      </trkpt>
      <trkpt lat="44.74566" lon="-0.34472">
        <ele>92</ele>
        <time>2013-11-02T13:55:15Z</time>
      </trkpt>
      <trkpt lat="44.74556" lon="-0.3447">
        <ele>91</ele>
        <time>2013-11-02T13:55:22Z</time>
      </trkpt>
      <trkpt lat="44.74544" lon="-0.34464">
        <ele>90</ele>
        <time>2013-11-02T13:55:29Z</time>
      </trkpt>
      <trkpt lat="44.74532" lon="-0.3446">
        <ele>88</ele>
        <time>2013-11-02T13:55:35Z</time>
      </trkpt>
      <trkpt lat="44.7452" lon="-0.34456">
        <ele>87</ele>
        <time>2013-11-02T13:55:41Z</time>
      </trkpt>
      <trkpt lat="44.74514" lon="-0.3445">
        <ele>86</ele>
        <time>2013-11-02T13:55:46Z</time>
      </trkpt>
      <trkpt lat="44.74511" lon="-0.34444">
        <ele>85</ele>
        <time>2013-11-02T13:55:51Z</time>
      </trkpt>
      <trkpt lat="44.74511" lon="-0.34438">
        <ele>85</ele>
        <time>2013-11-02T13:55:56Z</time>
      </trkpt>
      <trkpt lat="44.7451" lon="-0.34436">
        <ele>85</ele>
        <time>2013-11-02T13:56:06Z</time>
      </trkpt>
      <trkpt lat="44.74509" lon="-0.34434">
        <ele>85</ele>
        <time>2013-11-02T13:56:17Z</time>
      </trkpt>
      <trkpt lat="44.74509" lon="-0.34428">
        <ele>84</ele>
        <time>2013-11-02T13:56:22Z</time>
      </trkpt>
      <trkpt lat="44.74509" lon="-0.34424">
        <ele>84</ele>
        <time>2013-11-02T13:56:24Z</time>
      </trkpt>
      <trkpt lat="44.74509" lon="-0.3441">
        <ele>83</ele>
        <time>2013-11-02T13:56:29Z</time>
      </trkpt>
      <trkpt lat="44.74501" lon="-0.34396">
        <ele>81</ele>
        <time>2013-11-02T13:56:36Z</time>
      </trkpt>
      <trkpt lat="44.74499" lon="-0.34387">
        <ele>81</ele>
        <time>2013-11-02T13:56:40Z</time>
      </trkpt>
      <trkpt lat="44.74487" lon="-0.34375">
        <ele>80</ele>
        <time>2013-11-02T13:56:47Z</time>
      </trkpt>
      <trkpt lat="44.74484" lon="-0.34374">
        <ele>79</ele>
        <time>2013-11-02T13:56:49Z</time>
      </trkpt>
      <trkpt lat="44.74477" lon="-0.34364">
        <ele>79</ele>
        <time>2013-11-02T13:56:56Z</time>
      </trkpt>
      <trkpt lat="44.74476" lon="-0.34362">
        <ele>79</ele>
        <time>2013-11-02T13:56:57Z</time>
      </trkpt>
      <trkpt lat="44.74469" lon="-0.34354">
        <ele>78</ele>
        <time>2013-11-02T13:57:04Z</time>
      </trkpt>
      <trkpt lat="44.7446" lon="-0.34351">
        <ele>76</ele>
        <time>2013-11-02T13:57:09Z</time>
      </trkpt>
      <trkpt lat="44.74452" lon="-0.34353">
        <ele>75</ele>
        <time>2013-11-02T13:57:13Z</time>
      </trkpt>
      <trkpt lat="44.74446" lon="-0.34354">
        <ele>75</ele>
        <time>2013-11-02T13:57:16Z</time>
      </trkpt>
      <trkpt lat="44.74435" lon="-0.34359">
        <ele>73</ele>
        <time>2013-11-02T13:57:23Z</time>
      </trkpt>
      <trkpt lat="44.74426" lon="-0.34369">
        <ele>72</ele>
        <time>2013-11-02T13:57:28Z</time>
      </trkpt>
      <trkpt lat="44.74422" lon="-0.34374">
        <ele>71</ele>
        <time>2013-11-02T13:57:32Z</time>
      </trkpt>
      <trkpt lat="44.74411" lon="-0.34379">
        <ele>69</ele>
        <time>2013-11-02T13:57:38Z</time>
      </trkpt>
      <trkpt lat="44.74407" lon="-0.34388">
        <ele>69</ele>
        <time>2013-11-02T13:57:42Z</time>
      </trkpt>
      <trkpt lat="44.74401" lon="-0.34395">
        <ele>70</ele>
        <time>2013-11-02T13:57:46Z</time>
      </trkpt>
      <trkpt lat="44.74395" lon="-0.34414">
        <ele>70</ele>
        <time>2013-11-02T13:57:53Z</time>
      </trkpt>
      <trkpt lat="44.74395" lon="-0.34417">
        <ele>70</ele>
        <time>2013-11-02T13:57:54Z</time>
      </trkpt>
      <trkpt lat="44.74388" lon="-0.34437">
        <ele>70</ele>
        <time>2013-11-02T13:58:01Z</time>
      </trkpt>
      <trkpt lat="44.74384" lon="-0.34448">
        <ele>69</ele>
        <time>2013-11-02T13:58:05Z</time>
      </trkpt>
      <trkpt lat="44.74379" lon="-0.34456">
        <ele>68</ele>
        <time>2013-11-02T13:58:08Z</time>
      </trkpt>
      <trkpt lat="44.74373" lon="-0.34465">
        <ele>68</ele>
        <time>2013-11-02T13:58:12Z</time>
      </trkpt>
      <trkpt lat="44.74368" lon="-0.34478">
        <ele>67</ele>
        <time>2013-11-02T13:58:18Z</time>
      </trkpt>
      <trkpt lat="44.74361" lon="-0.34489">
        <ele>66</ele>
        <time>2013-11-02T13:58:23Z</time>
      </trkpt>
      <trkpt lat="44.74357" lon="-0.34493">
        <ele>66</ele>
        <time>2013-11-02T13:58:26Z</time>
      </trkpt>
      <trkpt lat="44.74353" lon="-0.345">
        <ele>66</ele>
        <time>2013-11-02T13:58:33Z</time>
      </trkpt>
      <trkpt lat="44.74351" lon="-0.34503">
        <ele>66</ele>
        <time>2013-11-02T13:58:40Z</time>
      </trkpt>
      <trkpt lat="44.74348" lon="-0.34504">
        <ele>66</ele>
        <time>2013-11-02T13:58:45Z</time>
      </trkpt>
      <trkpt lat="44.74345" lon="-0.34509">
        <ele>66</ele>
        <time>2013-11-02T13:58:52Z</time>
      </trkpt>
      <trkpt lat="44.74341" lon="-0.34513">
        <ele>66</ele>
        <time>2013-11-02T13:59:02Z</time>
      </trkpt>
      <trkpt lat="44.7434" lon="-0.34515">
        <ele>65</ele>
        <time>2013-11-02T13:59:09Z</time>
      </trkpt>
      <trkpt lat="44.74338" lon="-0.34517">
        <ele>65</ele>
        <time>2013-11-02T13:59:19Z</time>
      </trkpt>
      <trkpt lat="44.74338" lon="-0.34522">
        <ele>65</ele>
        <time>2013-11-02T13:59:26Z</time>
      </trkpt>
      <trkpt lat="44.74338" lon="-0.34524">
        <ele>65</ele>
        <time>2013-11-02T13:59:34Z</time>
      </trkpt>
      <trkpt lat="44.74337" lon="-0.34525">
        <ele>65</ele>
        <time>2013-11-02T13:59:36Z</time>
      </trkpt>
      <trkpt lat="44.74332" lon="-0.34534">
        <ele>65</ele>
        <time>2013-11-02T13:59:43Z</time>
      </trkpt>
      <trkpt lat="44.74332" lon="-0.34534">
        <ele>65</ele>
        <time>2013-11-02T13:59:44Z</time>
      </trkpt>
      <trkpt lat="44.74331" lon="-0.34543">
        <ele>65</ele>
        <time>2013-11-02T13:59:50Z</time>
      </trkpt>
      <trkpt lat="44.74332" lon="-0.34553">
        <ele>65</ele>
        <time>2013-11-02T13:59:55Z</time>
      </trkpt>
      <trkpt lat="44.74334" lon="-0.34555">
        <ele>65</ele>
        <time>2013-11-02T13:59:57Z</time>
      </trkpt>
      <trkpt lat="44.74336" lon="-0.3456">
        <ele>65</ele>
        <time>2013-11-02T14:00:00Z</time>
      </trkpt>
      <trkpt lat="44.74342" lon="-0.34568">
        <ele>65</ele>
        <time>2013-11-02T14:00:07Z</time>
      </trkpt>
      <trkpt lat="44.74345" lon="-0.34574">
        <ele>66</ele>
        <time>2013-11-02T14:00:14Z</time>
      </trkpt>
      <trkpt lat="44.74348" lon="-0.34577">
        <ele>66</ele>
        <time>2013-11-02T14:00:20Z</time>
      </trkpt>
      <trkpt lat="44.74351" lon="-0.34579">
        <ele>66</ele>
        <time>2013-11-02T14:00:25Z</time>
      </trkpt>
      <trkpt lat="44.74353" lon="-0.34581">
        <ele>66</ele>
        <time>2013-11-02T14:00:30Z</time>
      </trkpt>
      <trkpt lat="44.74361" lon="-0.34585">
        <ele>67</ele>
        <time>2013-11-02T14:00:36Z</time>
      </trkpt>
      <trkpt lat="44.74367" lon="-0.34594">
        <ele>69</ele>
        <time>2013-11-02T14:00:41Z</time>
      </trkpt>
      <trkpt lat="44.74373" lon="-0.34604">
        <ele>70</ele>
        <time>2013-11-02T14:00:48Z</time>
      </trkpt>
      <trkpt lat="44.7438" lon="-0.34608">
        <ele>71</ele>
        <time>2013-11-02T14:00:55Z</time>
      </trkpt>
      <trkpt lat="44.74382" lon="-0.34612">
        <ele>72</ele>
        <time>2013-11-02T14:01:02Z</time>
      </trkpt>
      <trkpt lat="44.74384" lon="-0.34622">
        <ele>72</ele>
        <time>2013-11-02T14:01:08Z</time>
      </trkpt>
      <trkpt lat="44.74385" lon="-0.34625">
        <ele>72</ele>
        <time>2013-11-02T14:01:15Z</time>
      </trkpt>
      <trkpt lat="44.74385" lon="-0.34627">
        <ele>72</ele>
        <time>2013-11-02T14:01:22Z</time>
      </trkpt>
      <trkpt lat="44.74385" lon="-0.34628">
        <ele>72</ele>
        <time>2013-11-02T14:01:30Z</time>
      </trkpt>
      <trkpt lat="44.74382" lon="-0.34631">
        <ele>72</ele>
        <time>2013-11-02T14:01:42Z</time>
      </trkpt>
      <trkpt lat="44.74382" lon="-0.34631">
        <ele>72</ele>
        <time>2013-11-02T14:02:01Z</time>
      </trkpt>
      <trkpt lat="44.74381" lon="-0.34632">
        <ele>72</ele>
        <time>2013-11-02T14:02:11Z</time>
      </trkpt>
      <trkpt lat="44.7438" lon="-0.34631">
        <ele>71</ele>
        <time>2013-11-02T14:02:21Z</time>
      </trkpt>
      <trkpt lat="44.74378" lon="-0.3463">
        <ele>71</ele>
        <time>2013-11-02T14:02:23Z</time>
      </trkpt>
      <trkpt lat="44.74373" lon="-0.3463">
        <ele>70</ele>
        <time>2013-11-02T14:02:26Z</time>
      </trkpt>
      <trkpt lat="44.74369" lon="-0.34633">
        <ele>69</ele>
        <time>2013-11-02T14:02:31Z</time>
      </trkpt>
      <trkpt lat="44.74367" lon="-0.34633">
        <ele>69</ele>
        <time>2013-11-02T14:02:39Z</time>
      </trkpt>
      <trkpt lat="44.74364" lon="-0.34635">
        <ele>69</ele>
        <time>2013-11-02T14:02:42Z</time>
      </trkpt>
      <trkpt lat="44.7436" lon="-0.34635">
        <ele>68</ele>
        <time>2013-11-02T14:02:48Z</time>
      </trkpt>
      <trkpt lat="44.7436" lon="-0.34635">
        <ele>68</ele>
        <time>2013-11-02T14:02:49Z</time>
      </trkpt>
      <trkpt lat="44.74356" lon="-0.34632">
        <ele>68</ele>
        <time>2013-11-02T14:02:52Z</time>
      </trkpt>
      <trkpt lat="44.74354" lon="-0.34631">
        <ele>68</ele>
        <time>2013-11-02T14:02:55Z</time>
      </trkpt>
      <trkpt lat="44.74346" lon="-0.34619">
        <ele>67</ele>
        <time>2013-11-02T14:03:01Z</time>
      </trkpt>
      <trkpt lat="44.74343" lon="-0.34612">
        <ele>66</ele>
        <time>2013-11-02T14:03:04Z</time>
      </trkpt>
      <trkpt lat="44.74327" lon="-0.3461">
        <ele>65</ele>
        <time>2013-11-02T14:03:10Z</time>
      </trkpt>
      <trkpt lat="44.74323" lon="-0.3461">
        <ele>65</ele>
        <time>2013-11-02T14:03:12Z</time>
      </trkpt>
      <trkpt lat="44.74308" lon="-0.34611">
        <ele>64</ele>
        <time>2013-11-02T14:03:18Z</time>
      </trkpt>
      <trkpt lat="44.74297" lon="-0.34609">
        <ele>64</ele>
        <time>2013-11-02T14:03:24Z</time>
      </trkpt>
      <trkpt lat="44.74293" lon="-0.34606">
        <ele>63</ele>
        <time>2013-11-02T14:03:32Z</time>
      </trkpt>
      <trkpt lat="44.74289" lon="-0.34604">
        <ele>63</ele>
        <time>2013-11-02T14:03:41Z</time>
      </trkpt>
      <trkpt lat="44.74282" lon="-0.34606">
        <ele>63</ele>
        <time>2013-11-02T14:03:49Z</time>
      </trkpt>
      <trkpt lat="44.74279" lon="-0.34607">
        <ele>63</ele>
        <time>2013-11-02T14:03:57Z</time>
      </trkpt>
      <trkpt lat="44.74276" lon="-0.34609">
        <ele>63</ele>
        <time>2013-11-02T14:04:04Z</time>
      </trkpt>
      <trkpt lat="44.74271" lon="-0.34607">
        <ele>62</ele>
        <time>2013-11-02T14:04:13Z</time>
      </trkpt>
      <trkpt lat="44.74269" lon="-0.34606">
        <ele>62</ele>
        <time>2013-11-02T14:04:15Z</time>
      </trkpt>
      <trkpt lat="44.74263" lon="-0.34598">
        <ele>63</ele>
        <time>2013-11-02T14:04:22Z</time>
      </trkpt>
      <trkpt lat="44.74261" lon="-0.34599">
        <ele>63</ele>
        <time>2013-11-02T14:04:28Z</time>
      </trkpt>
      <trkpt lat="44.74254" lon="-0.34596">
        <ele>63</ele>
        <time>2013-11-02T14:04:34Z</time>
      </trkpt>
      <trkpt lat="44.74249" lon="-0.3459">
        <ele>63</ele>
        <time>2013-11-02T14:04:40Z</time>
      </trkpt>
      <trkpt lat="44.74243" lon="-0.34594">
        <ele>63</ele>
        <time>2013-11-02T14:04:45Z</time>
      </trkpt>
      <trkpt lat="44.74235" lon="-0.34599">
        <ele>63</ele>
        <time>2013-11-02T14:04:51Z</time>
      </trkpt>
      <trkpt lat="44.74226" lon="-0.34606">
        <ele>62</ele>
        <time>2013-11-02T14:04:58Z</time>
      </trkpt>
      <trkpt lat="44.74224" lon="-0.3461">
        <ele>62</ele>
        <time>2013-11-02T14:05:01Z</time>
      </trkpt>
      <trkpt lat="44.74221" lon="-0.34618">
        <ele>62</ele>
        <time>2013-11-02T14:05:05Z</time>
      </trkpt>
      <trkpt lat="44.74214" lon="-0.34623">
        <ele>62</ele>
        <time>2013-11-02T14:05:13Z</time>
      </trkpt>
      <trkpt lat="44.74211" lon="-0.34623">
        <ele>63</ele>
        <time>2013-11-02T14:05:22Z</time>
      </trkpt>
      <trkpt lat="44.74208" lon="-0.34625">
        <ele>63</ele>
        <time>2013-11-02T14:05:28Z</time>
      </trkpt>
      <trkpt lat="44.74205" lon="-0.34634">
        <ele>62</ele>
        <time>2013-11-02T14:05:33Z</time>
      </trkpt>
      <trkpt lat="44.74199" lon="-0.3464">
        <ele>63</ele>
        <time>2013-11-02T14:05:37Z</time>
      </trkpt>
      <trkpt lat="44.74187" lon="-0.34656">
        <ele>62</ele>
        <time>2013-11-02T14:05:45Z</time>
      </trkpt>
      <trkpt lat="44.74176" lon="-0.34675">
        <ele>61</ele>
        <time>2013-11-02T14:05:51Z</time>
      </trkpt>
      <trkpt lat="44.74166" lon="-0.34689">
        <ele>61</ele>
        <time>2013-11-02T14:05:57Z</time>
      </trkpt>
      <trkpt lat="44.74161" lon="-0.34695">
        <ele>62</ele>
        <time>2013-11-02T14:06:00Z</time>
      </trkpt>
      <trkpt lat="44.74158" lon="-0.34708">
        <ele>61</ele>
        <time>2013-11-02T14:06:05Z</time>
      </trkpt>
      <trkpt lat="44.74159" lon="-0.34715">
        <ele>60</ele>
        <time>2013-11-02T14:06:08Z</time>
      </trkpt>
      <trkpt lat="44.74156" lon="-0.34727">
        <ele>60</ele>
        <time>2013-11-02T14:06:13Z</time>
      </trkpt>
      <trkpt lat="44.74151" lon="-0.34738">
        <ele>59</ele>
        <time>2013-11-02T14:06:19Z</time>
      </trkpt>
      <trkpt lat="44.74146" lon="-0.34748">
        <ele>58</ele>
        <time>2013-11-02T14:06:25Z</time>
      </trkpt>
      <trkpt lat="44.74139" lon="-0.34759">
        <ele>58</ele>
        <time>2013-11-02T14:06:31Z</time>
      </trkpt>
      <trkpt lat="44.74129" lon="-0.34772">
        <ele>57</ele>
        <time>2013-11-02T14:06:37Z</time>
      </trkpt>
      <trkpt lat="44.74119" lon="-0.34778">
        <ele>58</ele>
        <time>2013-11-02T14:06:43Z</time>
      </trkpt>
      <trkpt lat="44.74112" lon="-0.34787">
        <ele>57</ele>
        <time>2013-11-02T14:06:49Z</time>
      </trkpt>
      <trkpt lat="44.74107" lon="-0.34794">
        <ele>57</ele>
        <time>2013-11-02T14:06:54Z</time>
      </trkpt>
      <trkpt lat="44.74105" lon="-0.34797">
        <ele>57</ele>
        <time>2013-11-02T14:06:58Z</time>
      </trkpt>
      <trkpt lat="44.74101" lon="-0.34807">
        <ele>56</ele>
        <time>2013-11-02T14:07:05Z</time>
      </trkpt>
      <trkpt lat="44.74096" lon="-0.34813">
        <ele>55</ele>
        <time>2013-11-02T14:07:13Z</time>
      </trkpt>
      <trkpt lat="44.74092" lon="-0.34816">
        <ele>55</ele>
        <time>2013-11-02T14:07:19Z</time>
      </trkpt>
      <trkpt lat="44.7409" lon="-0.34819">
        <ele>56</ele>
        <time>2013-11-02T14:07:26Z</time>
      </trkpt>
      <trkpt lat="44.74088" lon="-0.34824">
        <ele>56</ele>
        <time>2013-11-02T14:07:33Z</time>
      </trkpt>
      <trkpt lat="44.74083" lon="-0.3483">
        <ele>56</ele>
        <time>2013-11-02T14:07:39Z</time>
      </trkpt>
      <trkpt lat="44.74081" lon="-0.34832">
        <ele>57</ele>
        <time>2013-11-02T14:07:46Z</time>
      </trkpt>
      <trkpt lat="44.74079" lon="-0.34834">
        <ele>57</ele>
        <time>2013-11-02T14:07:58Z</time>
      </trkpt>
      <trkpt lat="44.74079" lon="-0.34833">
        <ele>57</ele>
        <time>2013-11-02T14:08:05Z</time>
      </trkpt>
      <trkpt lat="44.74077" lon="-0.34832">
        <ele>57</ele>
        <time>2013-11-02T14:08:14Z</time>
      </trkpt>
      <trkpt lat="44.74076" lon="-0.34834">
        <ele>57</ele>
        <time>2013-11-02T14:08:23Z</time>
      </trkpt>
      <trkpt lat="44.74068" lon="-0.3484">
        <ele>57</ele>
        <time>2013-11-02T14:08:29Z</time>
      </trkpt>
      <trkpt lat="44.74056" lon="-0.34846">
        <ele>57</ele>
        <time>2013-11-02T14:08:37Z</time>
      </trkpt>
      <trkpt lat="44.74044" lon="-0.34852">
        <ele>57</ele>
        <time>2013-11-02T14:08:44Z</time>
      </trkpt>
      <trkpt lat="44.74033" lon="-0.34857">
        <ele>56</ele>
        <time>2013-11-02T14:08:51Z</time>
      </trkpt>
      <trkpt lat="44.74026" lon="-0.3486">
        <ele>55</ele>
        <time>2013-11-02T14:08:56Z</time>
      </trkpt>
      <trkpt lat="44.74016" lon="-0.34861">
        <ele>55</ele>
        <time>2013-11-02T14:09:03Z</time>
      </trkpt>
      <trkpt lat="44.74013" lon="-0.34862">
        <ele>54</ele>
        <time>2013-11-02T14:09:05Z</time>
      </trkpt>
      <trkpt lat="44.74007" lon="-0.34861">
        <ele>54</ele>
        <time>2013-11-02T14:09:09Z</time>
      </trkpt>
      <trkpt lat="44.73997" lon="-0.34867">
        <ele>53</ele>
        <time>2013-11-02T14:09:17Z</time>
      </trkpt>
      <trkpt lat="44.73984" lon="-0.34869">
        <ele>52</ele>
        <time>2013-11-02T14:09:25Z</time>
      </trkpt>
      <trkpt lat="44.73981" lon="-0.3487">
        <ele>52</ele>
        <time>2013-11-02T14:09:27Z</time>
      </trkpt>
      <trkpt lat="44.73971" lon="-0.34871">
        <ele>53</ele>
        <time>2013-11-02T14:09:33Z</time>
      </trkpt>
      <trkpt lat="44.73965" lon="-0.34874">
        <ele>53</ele>
        <time>2013-11-02T14:09:38Z</time>
      </trkpt>
      <trkpt lat="44.73959" lon="-0.34877">
        <ele>54</ele>
        <time>2013-11-02T14:09:45Z</time>
      </trkpt>
      <trkpt lat="44.73957" lon="-0.3488">
        <ele>54</ele>
        <time>2013-11-02T14:09:51Z</time>
      </trkpt>
      <trkpt lat="44.73956" lon="-0.34883">
        <ele>54</ele>
        <time>2013-11-02T14:09:54Z</time>
      </trkpt>
      <trkpt lat="44.73957" lon="-0.34886">
        <ele>55</ele>
        <time>2013-11-02T14:10:01Z</time>
      </trkpt>
      <trkpt lat="44.73956" lon="-0.34887">
        <ele>55</ele>
        <time>2013-11-02T14:10:08Z</time>
      </trkpt>
      <trkpt lat="44.73957" lon="-0.34894">
        <ele>55</ele>
        <time>2013-11-02T14:10:16Z</time>
      </trkpt>
      <trkpt lat="44.73959" lon="-0.349">
        <ele>56</ele>
        <time>2013-11-02T14:10:23Z</time>
      </trkpt>
      <trkpt lat="44.7396" lon="-0.34907">
        <ele>57</ele>
        <time>2013-11-02T14:10:30Z</time>
      </trkpt>
      <trkpt lat="44.7396" lon="-0.34917">
        <ele>58</ele>
        <time>2013-11-02T14:10:37Z</time>
      </trkpt>
      <trkpt lat="44.7396" lon="-0.34919">
        <ele>58</ele>
        <time>2013-11-02T14:10:39Z</time>
      </trkpt>
      <trkpt lat="44.73955" lon="-0.34925">
        <ele>58</ele>
        <time>2013-11-02T14:10:48Z</time>
      </trkpt>
      <trkpt lat="44.73955" lon="-0.34926">
        <ele>58</ele>
        <time>2013-11-02T14:10:59Z</time>
      </trkpt>
      <trkpt lat="44.73954" lon="-0.34926">
        <ele>59</ele>
        <time>2013-11-02T14:11:08Z</time>
      </trkpt>
      <trkpt lat="44.73953" lon="-0.34926">
        <ele>58</ele>
        <time>2013-11-02T14:11:12Z</time>
      </trkpt>
      <trkpt lat="44.73946" lon="-0.34923">
        <ele>58</ele>
        <time>2013-11-02T14:11:19Z</time>
      </trkpt>
      <trkpt lat="44.73939" lon="-0.34916">
        <ele>57</ele>
        <time>2013-11-02T14:11:24Z</time>
      </trkpt>
      <trkpt lat="44.73933" lon="-0.34917">
        <ele>57</ele>
        <time>2013-11-02T14:11:30Z</time>
      </trkpt>
      <trkpt lat="44.73931" lon="-0.34917">
        <ele>58</ele>
        <time>2013-11-02T14:11:39Z</time>
      </trkpt>
      <trkpt lat="44.73928" lon="-0.34915">
        <ele>57</ele>
        <time>2013-11-02T14:11:46Z</time>
      </trkpt>
      <trkpt lat="44.73925" lon="-0.34915">
        <ele>57</ele>
        <time>2013-11-02T14:11:53Z</time>
      </trkpt>
      <trkpt lat="44.73921" lon="-0.34916">
        <ele>57</ele>
        <time>2013-11-02T14:11:58Z</time>
      </trkpt>
      <trkpt lat="44.73921" lon="-0.34916">
        <ele>57</ele>
        <time>2013-11-02T14:12:02Z</time>
      </trkpt>
      <trkpt lat="44.73922" lon="-0.34911">
        <ele>57</ele>
        <time>2013-11-02T14:12:08Z</time>
      </trkpt>
      <trkpt lat="44.73922" lon="-0.34911">
        <ele>57</ele>
        <time>2013-11-02T14:12:11Z</time>
      </trkpt>
      <trkpt lat="44.73911" lon="-0.34899">
        <ele>55</ele>
        <time>2013-11-02T14:12:19Z</time>
      </trkpt>
      <trkpt lat="44.73908" lon="-0.34898">
        <ele>55</ele>
        <time>2013-11-02T14:12:22Z</time>
      </trkpt>
      <trkpt lat="44.73904" lon="-0.34888">
        <ele>54</ele>
        <time>2013-11-02T14:12:27Z</time>
      </trkpt>
      <trkpt lat="44.73895" lon="-0.34878">
        <ele>53</ele>
        <time>2013-11-02T14:12:33Z</time>
      </trkpt>
      <trkpt lat="44.73889" lon="-0.34874">
        <ele>53</ele>
        <time>2013-11-02T14:12:36Z</time>
      </trkpt>
      <trkpt lat="44.73881" lon="-0.34877">
        <ele>53</ele>
        <time>2013-11-02T14:12:42Z</time>
      </trkpt>
      <trkpt lat="44.7388" lon="-0.34879">
        <ele>54</ele>
        <time>2013-11-02T14:12:43Z</time>
      </trkpt>
      <trkpt lat="44.73885" lon="-0.34883">
        <ele>54</ele>
        <time>2013-11-02T14:12:48Z</time>
      </trkpt>
      <trkpt lat="44.7389" lon="-0.34894">
        <ele>55</ele>
        <time>2013-11-02T14:12:55Z</time>
      </trkpt>
      <trkpt lat="44.73887" lon="-0.34909">
        <ele>57</ele>
        <time>2013-11-02T14:13:02Z</time>
      </trkpt>
      <trkpt lat="44.73887" lon="-0.3491">
        <ele>57</ele>
        <time>2013-11-02T14:13:03Z</time>
      </trkpt>
      <trkpt lat="44.73877" lon="-0.34915">
        <ele>58</ele>
        <time>2013-11-02T14:13:10Z</time>
      </trkpt>
      <trkpt lat="44.73868" lon="-0.34914">
        <ele>59</ele>
        <time>2013-11-02T14:13:17Z</time>
      </trkpt>
      <trkpt lat="44.73859" lon="-0.34912">
        <ele>59</ele>
        <time>2013-11-02T14:13:24Z</time>
      </trkpt>
      <trkpt lat="44.73846" lon="-0.34919">
        <ele>60</ele>
        <time>2013-11-02T14:13:30Z</time>
      </trkpt>
      <trkpt lat="44.73837" lon="-0.34926">
        <ele>62</ele>
        <time>2013-11-02T14:13:37Z</time>
      </trkpt>
      <trkpt lat="44.73824" lon="-0.34935">
        <ele>63</ele>
        <time>2013-11-02T14:13:44Z</time>
      </trkpt>
      <trkpt lat="44.73814" lon="-0.34932">
        <ele>63</ele>
        <time>2013-11-02T14:13:51Z</time>
      </trkpt>
      <trkpt lat="44.73811" lon="-0.34925">
        <ele>63</ele>
        <time>2013-11-02T14:13:57Z</time>
      </trkpt>
      <trkpt lat="44.7381" lon="-0.34924">
        <ele>63</ele>
        <time>2013-11-02T14:13:58Z</time>
      </trkpt>
      <trkpt lat="44.73807" lon="-0.34919">
        <ele>62</ele>
        <time>2013-11-02T14:14:05Z</time>
      </trkpt>
      <trkpt lat="44.73808" lon="-0.34917">
        <ele>62</ele>
        <time>2013-11-02T14:14:16Z</time>
      </trkpt>
      <trkpt lat="44.73808" lon="-0.34917">
        <ele>62</ele>
        <time>2013-11-02T14:14:21Z</time>
      </trkpt>
      <trkpt lat="44.73805" lon="-0.3491">
        <ele>61</ele>
        <time>2013-11-02T14:14:25Z</time>
      </trkpt>
      <trkpt lat="44.73804" lon="-0.34907">
        <ele>61</ele>
        <time>2013-11-02T14:14:27Z</time>
      </trkpt>
      <trkpt lat="44.73802" lon="-0.34898">
        <ele>60</ele>
        <time>2013-11-02T14:14:34Z</time>
      </trkpt>
      <trkpt lat="44.73802" lon="-0.34892">
        <ele>59</ele>
        <time>2013-11-02T14:14:40Z</time>
      </trkpt>
      <trkpt lat="44.73802" lon="-0.34891">
        <ele>59</ele>
        <time>2013-11-02T14:14:42Z</time>
      </trkpt>
      <trkpt lat="44.73802" lon="-0.34883">
        <ele>58</ele>
        <time>2013-11-02T14:14:46Z</time>
      </trkpt>
      <trkpt lat="44.73796" lon="-0.34873">
        <ele>57</ele>
        <time>2013-11-02T14:14:51Z</time>
      </trkpt>
      <trkpt lat="44.73798" lon="-0.34856">
        <ele>55</ele>
        <time>2013-11-02T14:14:57Z</time>
      </trkpt>
      <trkpt lat="44.73797" lon="-0.34832">
        <ele>53</ele>
        <time>2013-11-02T14:15:04Z</time>
      </trkpt>
      <trkpt lat="44.73792" lon="-0.34821">
        <ele>51</ele>
        <time>2013-11-02T14:15:09Z</time>
      </trkpt>
      <trkpt lat="44.73788" lon="-0.34815">
        <ele>51</ele>
        <time>2013-11-02T14:15:13Z</time>
      </trkpt>
      <trkpt lat="44.73777" lon="-0.34818">
        <ele>51</ele>
        <time>2013-11-02T14:15:19Z</time>
      </trkpt>
      <trkpt lat="44.73772" lon="-0.34816">
        <ele>51</ele>
        <time>2013-11-02T14:15:24Z</time>
      </trkpt>
      <trkpt lat="44.73771" lon="-0.34816">
        <ele>51</ele>
        <time>2013-11-02T14:15:26Z</time>
      </trkpt>
      <trkpt lat="44.73767" lon="-0.34823">
        <ele>51</ele>
        <time>2013-11-02T14:15:30Z</time>
      </trkpt>
      <trkpt lat="44.73755" lon="-0.3483">
        <ele>52</ele>
        <time>2013-11-02T14:15:38Z</time>
      </trkpt>
      <trkpt lat="44.73753" lon="-0.3483">
        <ele>52</ele>
        <time>2013-11-02T14:15:39Z</time>
      </trkpt>
      <trkpt lat="44.73743" lon="-0.34832">
        <ele>52</ele>
        <time>2013-11-02T14:15:44Z</time>
      </trkpt>
      <trkpt lat="44.73736" lon="-0.34836">
        <ele>52</ele>
        <time>2013-11-02T14:15:49Z</time>
      </trkpt>
      <trkpt lat="44.73731" lon="-0.34842">
        <ele>52</ele>
        <time>2013-11-02T14:15:56Z</time>
      </trkpt>
      <trkpt lat="44.7373" lon="-0.34844">
        <ele>52</ele>
        <time>2013-11-02T14:15:57Z</time>
      </trkpt>
      <trkpt lat="44.73726" lon="-0.34842">
        <ele>52</ele>
        <time>2013-11-02T14:16:02Z</time>
      </trkpt>
      <trkpt lat="44.73722" lon="-0.3484">
        <ele>51</ele>
        <time>2013-11-02T14:16:08Z</time>
      </trkpt>
      <trkpt lat="44.73721" lon="-0.34841">
        <ele>51</ele>
        <time>2013-11-02T14:16:16Z</time>
      </trkpt>
      <trkpt lat="44.7372" lon="-0.34842">
        <ele>51</ele>
        <time>2013-11-02T14:16:24Z</time>
      </trkpt>
      <trkpt lat="44.73719" lon="-0.34842">
        <ele>51</ele>
        <time>2013-11-02T14:16:32Z</time>
      </trkpt>
      <trkpt lat="44.73719" lon="-0.34842">
        <ele>51</ele>
        <time>2013-11-02T14:16:37Z</time>
      </trkpt>
      <trkpt lat="44.73719" lon="-0.34842">
        <ele>51</ele>
        <time>2013-11-02T14:16:47Z</time>
      </trkpt>
      <trkpt lat="44.73718" lon="-0.34842">
        <ele>51</ele>
        <time>2013-11-02T14:17:00Z</time>
      </trkpt>
      <trkpt lat="44.73718" lon="-0.34842">
        <ele>51</ele>
        <time>2013-11-02T14:17:09Z</time>
      </trkpt>
      <trkpt lat="44.73718" lon="-0.34842">
        <ele>51</ele>
        <time>2013-11-02T14:17:17Z</time>
      </trkpt>
      <trkpt lat="44.73717" lon="-0.34842">
        <ele>51</ele>
        <time>2013-11-02T14:17:18Z</time>
      </trkpt>
      <trkpt lat="44.73713" lon="-0.34841">
        <ele>51</ele>
        <time>2013-11-02T14:17:22Z</time>
      </trkpt>
      <trkpt lat="44.73708" lon="-0.34838">
        <ele>51</ele>
        <time>2013-11-02T14:17:26Z</time>
      </trkpt>
      <trkpt lat="44.73704" lon="-0.34843">
        <ele>51</ele>
        <time>2013-11-02T14:17:30Z</time>
      </trkpt>
      <trkpt lat="44.73695" lon="-0.34857">
        <ele>50</ele>
        <time>2013-11-02T14:17:38Z</time>
      </trkpt>
      <trkpt lat="44.73689" lon="-0.34872">
        <ele>50</ele>
        <time>2013-11-02T14:17:45Z</time>
      </trkpt>
      <trkpt lat="44.73688" lon="-0.34879">
        <ele>50</ele>
        <time>2013-11-02T14:17:51Z</time>
      </trkpt>
      <trkpt lat="44.73686" lon="-0.3488">
        <ele>50</ele>
        <time>2013-11-02T14:17:57Z</time>
      </trkpt>
      <trkpt lat="44.73688" lon="-0.34881">
        <ele>51</ele>
        <time>2013-11-02T14:18:05Z</time>
      </trkpt>
      <trkpt lat="44.73685" lon="-0.34886">
        <ele>51</ele>
        <time>2013-11-02T14:18:11Z</time>
      </trkpt>
      <trkpt lat="44.73685" lon="-0.34887">
        <ele>51</ele>
        <time>2013-11-02T14:18:12Z</time>
      </trkpt>
      <trkpt lat="44.73684" lon="-0.34894">
        <ele>51</ele>
        <time>2013-11-02T14:18:18Z</time>
      </trkpt>
      <trkpt lat="44.73682" lon="-0.34898">
        <ele>51</ele>
        <time>2013-11-02T14:18:21Z</time>
      </trkpt>
      <trkpt lat="44.73681" lon="-0.34909">
        <ele>51</ele>
        <time>2013-11-02T14:18:26Z</time>
      </trkpt>
      <trkpt lat="44.73681" lon="-0.34916">
        <ele>51</ele>
        <time>2013-11-02T14:18:31Z</time>
      </trkpt>
      <trkpt lat="44.73683" lon="-0.34928">
        <ele>52</ele>
        <time>2013-11-02T14:18:37Z</time>
      </trkpt>
      <trkpt lat="44.73683" lon="-0.34933">
        <ele>52</ele>
        <time>2013-11-02T14:18:39Z</time>
      </trkpt>
      <trkpt lat="44.73682" lon="-0.34938">
        <ele>52</ele>
        <time>2013-11-02T14:18:41Z</time>
      </trkpt>
      <trkpt lat="44.7368" lon="-0.34951">
        <ele>52</ele>
        <time>2013-11-02T14:18:48Z</time>
      </trkpt>
      <trkpt lat="44.73679" lon="-0.34955">
        <ele>52</ele>
        <time>2013-11-02T14:18:54Z</time>
      </trkpt>
      <trkpt lat="44.73678" lon="-0.34955">
        <ele>52</ele>
        <time>2013-11-02T14:19:00Z</time>
      </trkpt>
      <trkpt lat="44.73677" lon="-0.34956">
        <ele>52</ele>
        <time>2013-11-02T14:19:07Z</time>
      </trkpt>
      <trkpt lat="44.73678" lon="-0.34957">
        <ele>52</ele>
        <time>2013-11-02T14:19:14Z</time>
      </trkpt>
      <trkpt lat="44.73676" lon="-0.34966">
        <ele>52</ele>
        <time>2013-11-02T14:19:20Z</time>
      </trkpt>
      <trkpt lat="44.73673" lon="-0.34972">
        <ele>53</ele>
        <time>2013-11-02T14:19:26Z</time>
      </trkpt>
      <trkpt lat="44.73672" lon="-0.34974">
        <ele>53</ele>
        <time>2013-11-02T14:19:28Z</time>
      </trkpt>
      <trkpt lat="44.73668" lon="-0.3498">
        <ele>53</ele>
        <time>2013-11-02T14:19:34Z</time>
      </trkpt>
      <trkpt lat="44.73663" lon="-0.34982">
        <ele>53</ele>
        <time>2013-11-02T14:19:41Z</time>
      </trkpt>
      <trkpt lat="44.73662" lon="-0.34983">
        <ele>53</ele>
        <time>2013-11-02T14:19:42Z</time>
      </trkpt>
      <trkpt lat="44.73649" lon="-0.34987">
        <ele>54</ele>
        <time>2013-11-02T14:19:49Z</time>
      </trkpt>
      <trkpt lat="44.73645" lon="-0.34995">
        <ele>54</ele>
        <time>2013-11-02T14:19:53Z</time>
      </trkpt>
      <trkpt lat="44.73641" lon="-0.35009">
        <ele>56</ele>
        <time>2013-11-02T14:19:59Z</time>
      </trkpt>
      <trkpt lat="44.7364" lon="-0.35013">
        <ele>56</ele>
        <time>2013-11-02T14:20:02Z</time>
      </trkpt>
      <trkpt lat="44.73636" lon="-0.35021">
        <ele>57</ele>
        <time>2013-11-02T14:20:05Z</time>
      </trkpt>
      <trkpt lat="44.7363" lon="-0.35032">
        <ele>58</ele>
        <time>2013-11-02T14:20:10Z</time>
      </trkpt>
      <trkpt lat="44.73622" lon="-0.3504">
        <ele>59</ele>
        <time>2013-11-02T14:20:18Z</time>
      </trkpt>
      <trkpt lat="44.73621" lon="-0.35042">
        <ele>59</ele>
        <time>2013-11-02T14:20:26Z</time>
      </trkpt>
      <trkpt lat="44.73618" lon="-0.35048">
        <ele>59</ele>
        <time>2013-11-02T14:20:34Z</time>
      </trkpt>
      <trkpt lat="44.73619" lon="-0.3506">
        <ele>60</ele>
        <time>2013-11-02T14:20:40Z</time>
      </trkpt>
      <trkpt lat="44.7362" lon="-0.35065">
        <ele>61</ele>
        <time>2013-11-02T14:20:42Z</time>
      </trkpt>
      <trkpt lat="44.73621" lon="-0.35079">
        <ele>62</ele>
        <time>2013-11-02T14:20:49Z</time>
      </trkpt>
      <trkpt lat="44.73612" lon="-0.35088">
        <ele>63</ele>
        <time>2013-11-02T14:20:56Z</time>
      </trkpt>
      <trkpt lat="44.73601" lon="-0.35084">
        <ele>62</ele>
        <time>2013-11-02T14:21:03Z</time>
      </trkpt>
      <trkpt lat="44.73598" lon="-0.35086">
        <ele>63</ele>
        <time>2013-11-02T14:21:06Z</time>
      </trkpt>
      <trkpt lat="44.73595" lon="-0.35091">
        <ele>63</ele>
        <time>2013-11-02T14:21:10Z</time>
      </trkpt>
      <trkpt lat="44.73592" lon="-0.35094">
        <ele>63</ele>
        <time>2013-11-02T14:21:12Z</time>
      </trkpt>
      <trkpt lat="44.73586" lon="-0.35105">
        <ele>64</ele>
        <time>2013-11-02T14:21:19Z</time>
      </trkpt>
      <trkpt lat="44.73582" lon="-0.35119">
        <ele>65</ele>
        <time>2013-11-02T14:21:27Z</time>
      </trkpt>
      <trkpt lat="44.73579" lon="-0.35119">
        <ele>65</ele>
        <time>2013-11-02T14:21:31Z</time>
      </trkpt>
      <trkpt lat="44.73572" lon="-0.35111">
        <ele>65</ele>
        <time>2013-11-02T14:21:37Z</time>
      </trkpt>
      <trkpt lat="44.73571" lon="-0.35106">
        <ele>64</ele>
        <time>2013-11-02T14:21:45Z</time>
      </trkpt>
      <trkpt lat="44.73571" lon="-0.35106">
        <ele>64</ele>
        <time>2013-11-02T14:21:55Z</time>
      </trkpt>
      <trkpt lat="44.7357" lon="-0.35108">
        <ele>64</ele>
        <time>2013-11-02T14:22:06Z</time>
      </trkpt>
      <trkpt lat="44.73568" lon="-0.35102">
        <ele>64</ele>
        <time>2013-11-02T14:22:18Z</time>
      </trkpt>
      <trkpt lat="44.73564" lon="-0.35096">
        <ele>63</ele>
        <time>2013-11-02T14:22:23Z</time>
      </trkpt>
      <trkpt lat="44.73563" lon="-0.35091">
        <ele>63</ele>
        <time>2013-11-02T14:22:30Z</time>
      </trkpt>
      <trkpt lat="44.73565" lon="-0.35094">
        <ele>63</ele>
        <time>2013-11-02T14:22:38Z</time>
      </trkpt>
      <trkpt lat="44.73567" lon="-0.35098">
        <ele>64</ele>
        <time>2013-11-02T14:22:41Z</time>
      </trkpt>
      <trkpt lat="44.73569" lon="-0.35102">
        <ele>64</ele>
        <time>2013-11-02T14:22:47Z</time>
      </trkpt>
      <trkpt lat="44.73572" lon="-0.35109">
        <ele>64</ele>
        <time>2013-11-02T14:22:53Z</time>
      </trkpt>
      <trkpt lat="44.73575" lon="-0.35116">
        <ele>65</ele>
        <time>2013-11-02T14:23:01Z</time>
      </trkpt>
      <trkpt lat="44.7358" lon="-0.3512">
        <ele>65</ele>
        <time>2013-11-02T14:23:06Z</time>
      </trkpt>
      <trkpt lat="44.73582" lon="-0.35117">
        <ele>65</ele>
        <time>2013-11-02T14:23:13Z</time>
      </trkpt>
      <trkpt lat="44.73584" lon="-0.35115">
        <ele>65</ele>
        <time>2013-11-02T14:23:18Z</time>
      </trkpt>
      <trkpt lat="44.73584" lon="-0.35114">
        <ele>65</ele>
        <time>2013-11-02T14:23:19Z</time>
      </trkpt>
      <trkpt lat="44.73584" lon="-0.35101">
        <ele>64</ele>
        <time>2013-11-02T14:23:25Z</time>
      </trkpt>
      <trkpt lat="44.73585" lon="-0.35097">
        <ele>63</ele>
        <time>2013-11-02T14:23:29Z</time>
      </trkpt>
      <trkpt lat="44.73582" lon="-0.35088">
        <ele>63</ele>
        <time>2013-11-02T14:23:35Z</time>
      </trkpt>
      <trkpt lat="44.73581" lon="-0.35073">
        <ele>62</ele>
        <time>2013-11-02T14:23:41Z</time>
      </trkpt>
      <trkpt lat="44.73581" lon="-0.35058">
        <ele>60</ele>
        <time>2013-11-02T14:23:48Z</time>
      </trkpt>
      <trkpt lat="44.73583" lon="-0.35049">
        <ele>60</ele>
        <time>2013-11-02T14:23:52Z</time>
      </trkpt>
      <trkpt lat="44.73585" lon="-0.35046">
        <ele>59</ele>
        <time>2013-11-02T14:23:54Z</time>
      </trkpt>
      <trkpt lat="44.73589" lon="-0.35042">
        <ele>59</ele>
        <time>2013-11-02T14:23:56Z</time>
      </trkpt>
      <trkpt lat="44.73596" lon="-0.3504">
        <ele>59</ele>
        <time>2013-11-02T14:24:01Z</time>
      </trkpt>
      <trkpt lat="44.736" lon="-0.3503">
        <ele>58</ele>
        <time>2013-11-02T14:24:07Z</time>
      </trkpt>
      <trkpt lat="44.73596" lon="-0.35021">
        <ele>57</ele>
        <time>2013-11-02T14:24:15Z</time>
      </trkpt>
      <trkpt lat="44.73593" lon="-0.35021">
        <ele>57</ele>
        <time>2013-11-02T14:24:18Z</time>
      </trkpt>
      <trkpt lat="44.73583" lon="-0.3502">
        <ele>57</ele>
        <time>2013-11-02T14:24:25Z</time>
      </trkpt>
      <trkpt lat="44.73575" lon="-0.35019">
        <ele>56</ele>
        <time>2013-11-02T14:24:31Z</time>
      </trkpt>
      <trkpt lat="44.73567" lon="-0.35026">
        <ele>57</ele>
        <time>2013-11-02T14:24:39Z</time>
      </trkpt>
      <trkpt lat="44.7356" lon="-0.35024">
        <ele>57</ele>
        <time>2013-11-02T14:24:45Z</time>
      </trkpt>
      <trkpt lat="44.73554" lon="-0.35016">
        <ele>56</ele>
        <time>2013-11-02T14:24:52Z</time>
      </trkpt>
      <trkpt lat="44.73548" lon="-0.35017">
        <ele>56</ele>
        <time>2013-11-02T14:24:57Z</time>
      </trkpt>
      <trkpt lat="44.7354" lon="-0.3502">
        <ele>56</ele>
        <time>2013-11-02T14:25:04Z</time>
      </trkpt>
      <trkpt lat="44.73538" lon="-0.3502">
        <ele>56</ele>
        <time>2013-11-02T14:25:06Z</time>
      </trkpt>
      <trkpt lat="44.73532" lon="-0.35022">
        <ele>56</ele>
        <time>2013-11-02T14:25:13Z</time>
      </trkpt>
      <trkpt lat="44.73527" lon="-0.35021">
        <ele>56</ele>
        <time>2013-11-02T14:25:16Z</time>
      </trkpt>
      <trkpt lat="44.73522" lon="-0.35018">
        <ele>56</ele>
        <time>2013-11-02T14:25:19Z</time>
      </trkpt>
      <trkpt lat="44.73513" lon="-0.35016">
        <ele>55</ele>
        <time>2013-11-02T14:25:25Z</time>
      </trkpt>
      <trkpt lat="44.73506" lon="-0.3501">
        <ele>55</ele>
        <time>2013-11-02T14:25:31Z</time>
      </trkpt>
      <trkpt lat="44.73503" lon="-0.3501">
        <ele>55</ele>
        <time>2013-11-02T14:25:36Z</time>
      </trkpt>
      <trkpt lat="44.73501" lon="-0.3501">
        <ele>55</ele>
        <time>2013-11-02T14:25:42Z</time>
      </trkpt>
      <trkpt lat="44.73499" lon="-0.35007">
        <ele>54</ele>
        <time>2013-11-02T14:25:47Z</time>
      </trkpt>
      <trkpt lat="44.73495" lon="-0.35">
        <ele>53</ele>
        <time>2013-11-02T14:25:51Z</time>
      </trkpt>
      <trkpt lat="44.73491" lon="-0.34994">
        <ele>52</ele>
        <time>2013-11-02T14:25:58Z</time>
      </trkpt>
      <trkpt lat="44.73491" lon="-0.34991">
        <ele>52</ele>
        <time>2013-11-02T14:26:05Z</time>
      </trkpt>
      <trkpt lat="44.73489" lon="-0.34987">
        <ele>52</ele>
        <time>2013-11-02T14:26:11Z</time>
      </trkpt>
      <trkpt lat="44.73483" lon="-0.34985">
        <ele>51</ele>
        <time>2013-11-02T14:26:18Z</time>
      </trkpt>
      <trkpt lat="44.7348" lon="-0.34985">
        <ele>51</ele>
        <time>2013-11-02T14:26:29Z</time>
      </trkpt>
      <trkpt lat="44.7348" lon="-0.34985">
        <ele>51</ele>
        <time>2013-11-02T14:26:43Z</time>
      </trkpt>
      <trkpt lat="44.73478" lon="-0.34984">
        <ele>51</ele>
        <time>2013-11-02T14:26:57Z</time>
      </trkpt>
      <trkpt lat="44.73475" lon="-0.34982">
        <ele>50</ele>
        <time>2013-11-02T14:27:13Z</time>
      </trkpt>
      <trkpt lat="44.73476" lon="-0.34983">
        <ele>50</ele>
        <time>2013-11-02T14:27:32Z</time>
      </trkpt>
      <trkpt lat="44.73475" lon="-0.34981">
        <ele>50</ele>
        <time>2013-11-02T14:27:48Z</time>
      </trkpt>
      <trkpt lat="44.73474" lon="-0.3498">
        <ele>50</ele>
        <time>2013-11-02T14:27:59Z</time>
      </trkpt>
      <trkpt lat="44.73474" lon="-0.34981">
        <ele>50</ele>
        <time>2013-11-02T14:28:05Z</time>
      </trkpt>
      <trkpt lat="44.73467" lon="-0.34978">
        <ele>50</ele>
        <time>2013-11-02T14:28:12Z</time>
      </trkpt>
      <trkpt lat="44.7346" lon="-0.34978">
        <ele>49</ele>
        <time>2013-11-02T14:28:18Z</time>
      </trkpt>
      <trkpt lat="44.73453" lon="-0.34977">
        <ele>49</ele>
        <time>2013-11-02T14:28:23Z</time>
      </trkpt>
      <trkpt lat="44.7345" lon="-0.34974">
        <ele>48</ele>
        <time>2013-11-02T14:28:26Z</time>
      </trkpt>
      <trkpt lat="44.73439" lon="-0.34973">
        <ele>48</ele>
        <time>2013-11-02T14:28:35Z</time>
      </trkpt>
      <trkpt lat="44.73435" lon="-0.3497">
        <ele>48</ele>
        <time>2013-11-02T14:28:42Z</time>
      </trkpt>
      <trkpt lat="44.73434" lon="-0.3497">
        <ele>48</ele>
        <time>2013-11-02T14:28:43Z</time>
      </trkpt>
      <trkpt lat="44.73431" lon="-0.34968">
        <ele>48</ele>
        <time>2013-11-02T14:28:46Z</time>
      </trkpt>
      <trkpt lat="44.73428" lon="-0.34966">
        <ele>47</ele>
        <time>2013-11-02T14:28:53Z</time>
      </trkpt>
      <trkpt lat="44.73418" lon="-0.3496">
        <ele>47</ele>
        <time>2013-11-02T14:28:59Z</time>
      </trkpt>
      <trkpt lat="44.73414" lon="-0.34958">
        <ele>47</ele>
        <time>2013-11-02T14:29:06Z</time>
      </trkpt>
      <trkpt lat="44.73413" lon="-0.34955">
        <ele>47</ele>
        <time>2013-11-02T14:29:09Z</time>
      </trkpt>
      <trkpt lat="44.7341" lon="-0.34952">
        <ele>47</ele>
        <time>2013-11-02T14:29:15Z</time>
      </trkpt>
      <trkpt lat="44.7341" lon="-0.34953">
        <ele>47</ele>
        <time>2013-11-02T14:29:19Z</time>
      </trkpt>
      <trkpt lat="44.734" lon="-0.34954">
        <ele>47</ele>
        <time>2013-11-02T14:29:26Z</time>
      </trkpt>
      <trkpt lat="44.73387" lon="-0.34958">
        <ele>47</ele>
        <time>2013-11-02T14:29:33Z</time>
      </trkpt>
      <trkpt lat="44.7338" lon="-0.34959">
        <ele>46</ele>
        <time>2013-11-02T14:29:38Z</time>
      </trkpt>
      <trkpt lat="44.73379" lon="-0.34959">
        <ele>46</ele>
        <time>2013-11-02T14:29:39Z</time>
      </trkpt>
      <trkpt lat="44.73365" lon="-0.34968">
        <ele>45</ele>
        <time>2013-11-02T14:29:46Z</time>
      </trkpt>
      <trkpt lat="44.7335" lon="-0.34978">
        <ele>45</ele>
        <time>2013-11-02T14:29:53Z</time>
      </trkpt>
      <trkpt lat="44.73339" lon="-0.34981">
        <ele>45</ele>
        <time>2013-11-02T14:29:57Z</time>
      </trkpt>
      <trkpt lat="44.73324" lon="-0.34978">
        <ele>44</ele>
        <time>2013-11-02T14:30:05Z</time>
      </trkpt>
      <trkpt lat="44.73324" lon="-0.34974">
        <ele>44</ele>
        <time>2013-11-02T14:30:11Z</time>
      </trkpt>
      <trkpt lat="44.73325" lon="-0.3497">
        <ele>44</ele>
        <time>2013-11-02T14:30:18Z</time>
      </trkpt>
      <trkpt lat="44.73326" lon="-0.34969">
        <ele>44</ele>
        <time>2013-11-02T14:30:25Z</time>
      </trkpt>
      <trkpt lat="44.73328" lon="-0.3497">
        <ele>44</ele>
        <time>2013-11-02T14:30:31Z</time>
      </trkpt>
      <trkpt lat="44.73329" lon="-0.34971">
        <ele>44</ele>
        <time>2013-11-02T14:30:39Z</time>
      </trkpt>
      <trkpt lat="44.73328" lon="-0.34972">
        <ele>44</ele>
        <time>2013-11-02T14:30:46Z</time>
      </trkpt>
      <trkpt lat="44.73328" lon="-0.3497">
        <ele>44</ele>
        <time>2013-11-02T14:30:55Z</time>
      </trkpt>
      <trkpt lat="44.73327" lon="-0.34971">
        <ele>44</ele>
        <time>2013-11-02T14:31:01Z</time>
      </trkpt>
      <trkpt lat="44.73327" lon="-0.3497">
        <ele>44</ele>
        <time>2013-11-02T14:31:16Z</time>
      </trkpt>
      <trkpt lat="44.73329" lon="-0.3497">
        <ele>44</ele>
        <time>2013-11-02T14:31:33Z</time>
      </trkpt>
      <trkpt lat="44.73331" lon="-0.3497">
        <ele>44</ele>
        <time>2013-11-02T14:31:52Z</time>
      </trkpt>
      <trkpt lat="44.73331" lon="-0.34967">
        <ele>44</ele>
        <time>2013-11-02T14:31:59Z</time>
      </trkpt>
      <trkpt lat="44.73332" lon="-0.34963">
        <ele>44</ele>
        <time>2013-11-02T14:32:05Z</time>
      </trkpt>
      <trkpt lat="44.73333" lon="-0.34958">
        <ele>45</ele>
        <time>2013-11-02T14:32:11Z</time>
      </trkpt>
      <trkpt lat="44.73335" lon="-0.34954">
        <ele>45</ele>
        <time>2013-11-02T14:32:19Z</time>
      </trkpt>
      <trkpt lat="44.73334" lon="-0.34954">
        <ele>45</ele>
        <time>2013-11-02T14:32:30Z</time>
      </trkpt>
      <trkpt lat="44.73337" lon="-0.34949">
        <ele>46</ele>
        <time>2013-11-02T14:32:46Z</time>
      </trkpt>
      <trkpt lat="44.73337" lon="-0.3495">
        <ele>46</ele>
        <time>2013-11-02T14:33:05Z</time>
      </trkpt>
      <trkpt lat="44.73337" lon="-0.34952">
        <ele>46</ele>
        <time>2013-11-02T14:33:19Z</time>
      </trkpt>
      <trkpt lat="44.73336" lon="-0.34953">
        <ele>45</ele>
        <time>2013-11-02T14:33:35Z</time>
      </trkpt>
      <trkpt lat="44.73336" lon="-0.34954">
        <ele>45</ele>
        <time>2013-11-02T14:33:49Z</time>
      </trkpt>
      <trkpt lat="44.73341" lon="-0.34952">
        <ele>46</ele>
        <time>2013-11-02T14:33:56Z</time>
      </trkpt>
      <trkpt lat="44.73346" lon="-0.34945">
        <ele>47</ele>
        <time>2013-11-02T14:34:02Z</time>
      </trkpt>
      <trkpt lat="44.73347" lon="-0.34935">
        <ele>48</ele>
        <time>2013-11-02T14:34:06Z</time>
      </trkpt>
      <trkpt lat="44.73349" lon="-0.34915">
        <ele>50</ele>
        <time>2013-11-02T14:34:13Z</time>
      </trkpt>
      <trkpt lat="44.73349" lon="-0.34913">
        <ele>50</ele>
        <time>2013-11-02T14:34:18Z</time>
      </trkpt>
      <trkpt lat="44.73348" lon="-0.34909">
        <ele>51</ele>
        <time>2013-11-02T14:34:25Z</time>
      </trkpt>
      <trkpt lat="44.73347" lon="-0.34901">
        <ele>52</ele>
        <time>2013-11-02T14:34:34Z</time>
      </trkpt>
      <trkpt lat="44.73347" lon="-0.34898">
        <ele>52</ele>
        <time>2013-11-02T14:34:40Z</time>
      </trkpt>
      <trkpt lat="44.73347" lon="-0.34897">
        <ele>52</ele>
        <time>2013-11-02T14:34:50Z</time>
      </trkpt>
      <trkpt lat="44.73347" lon="-0.34896">
        <ele>52</ele>
        <time>2013-11-02T14:34:52Z</time>
      </trkpt>
      <trkpt lat="44.73348" lon="-0.34896">
        <ele>52</ele>
        <time>2013-11-02T14:34:54Z</time>
      </trkpt>
      <trkpt lat="44.73349" lon="-0.34887">
        <ele>53</ele>
        <time>2013-11-02T14:35:00Z</time>
      </trkpt>
      <trkpt lat="44.73351" lon="-0.34884">
        <ele>53</ele>
        <time>2013-11-02T14:35:06Z</time>
      </trkpt>
      <trkpt lat="44.73353" lon="-0.34879">
        <ele>54</ele>
        <time>2013-11-02T14:35:12Z</time>
      </trkpt>
      <trkpt lat="44.73353" lon="-0.34877">
        <ele>54</ele>
        <time>2013-11-02T14:35:19Z</time>
      </trkpt>
      <trkpt lat="44.73352" lon="-0.34876">
        <ele>54</ele>
        <time>2013-11-02T14:35:22Z</time>
      </trkpt>
      <trkpt lat="44.73347" lon="-0.34875">
        <ele>54</ele>
        <time>2013-11-02T14:35:26Z</time>
      </trkpt>
      <trkpt lat="44.73343" lon="-0.34879">
        <ele>54</ele>
        <time>2013-11-02T14:35:30Z</time>
      </trkpt>
      <trkpt lat="44.73337" lon="-0.34889">
        <ele>53</ele>
        <time>2013-11-02T14:35:35Z</time>
      </trkpt>
      <trkpt lat="44.73336" lon="-0.34891">
        <ele>53</ele>
        <time>2013-11-02T14:35:36Z</time>
      </trkpt>
      <trkpt lat="44.73333" lon="-0.34895">
        <ele>52</ele>
        <time>2013-11-02T14:35:40Z</time>
      </trkpt>
      <trkpt lat="44.73327" lon="-0.34893">
        <ele>53</ele>
        <time>2013-11-02T14:35:44Z</time>
      </trkpt>
      <trkpt lat="44.73323" lon="-0.34895">
        <ele>53</ele>
        <time>2013-11-02T14:35:47Z</time>
      </trkpt>
      <trkpt lat="44.73317" lon="-0.34906">
        <ele>51</ele>
        <time>2013-11-02T14:35:53Z</time>
      </trkpt>
      <trkpt lat="44.73315" lon="-0.34909">
        <ele>51</ele>
        <time>2013-11-02T14:35:54Z</time>
      </trkpt>
      <trkpt lat="44.73305" lon="-0.34921">
        <ele>49</ele>
        <time>2013-11-02T14:36:00Z</time>
      </trkpt>
      <trkpt lat="44.73303" lon="-0.34922">
        <ele>48</ele>
        <time>2013-11-02T14:36:02Z</time>
      </trkpt>
      <trkpt lat="44.73292" lon="-0.34927">
        <ele>47</ele>
        <time>2013-11-02T14:36:08Z</time>
      </trkpt>
      <trkpt lat="44.73288" lon="-0.34924">
        <ele>47</ele>
        <time>2013-11-02T14:36:10Z</time>
      </trkpt>
      <trkpt lat="44.73284" lon="-0.3492">
        <ele>48</ele>
        <time>2013-11-02T14:36:12Z</time>
      </trkpt>
      <trkpt lat="44.73267" lon="-0.34911">
        <ele>48</ele>
        <time>2013-11-02T14:36:20Z</time>
      </trkpt>
      <trkpt lat="44.73265" lon="-0.34908">
        <ele>48</ele>
        <time>2013-11-02T14:36:22Z</time>
      </trkpt>
      <trkpt lat="44.73256" lon="-0.34906">
        <ele>48</ele>
        <time>2013-11-02T14:36:28Z</time>
      </trkpt>
      <trkpt lat="44.73251" lon="-0.34904">
        <ele>48</ele>
        <time>2013-11-02T14:36:31Z</time>
      </trkpt>
      <trkpt lat="44.73245" lon="-0.34893">
        <ele>49</ele>
        <time>2013-11-02T14:36:37Z</time>
      </trkpt>
      <trkpt lat="44.73236" lon="-0.34883">
        <ele>50</ele>
        <time>2013-11-02T14:36:43Z</time>
      </trkpt>
      <trkpt lat="44.73233" lon="-0.34876">
        <ele>51</ele>
        <time>2013-11-02T14:36:47Z</time>
      </trkpt>
      <trkpt lat="44.73224" lon="-0.34871">
        <ele>51</ele>
        <time>2013-11-02T14:36:54Z</time>
      </trkpt>
      <trkpt lat="44.73224" lon="-0.34871">
        <ele>51</ele>
        <time>2013-11-02T14:37:00Z</time>
      </trkpt>
      <trkpt lat="44.73224" lon="-0.34871">
        <ele>51</ele>
        <time>2013-11-02T14:37:11Z</time>
      </trkpt>
      <trkpt lat="44.73224" lon="-0.34871">
        <ele>51</ele>
        <time>2013-11-02T14:37:22Z</time>
      </trkpt>
      <trkpt lat="44.73223" lon="-0.3487">
        <ele>51</ele>
        <time>2013-11-02T14:37:34Z</time>
      </trkpt>
      <trkpt lat="44.73223" lon="-0.3487">
        <ele>51</ele>
        <time>2013-11-02T14:37:49Z</time>
      </trkpt>
      <trkpt lat="44.73223" lon="-0.3487">
        <ele>51</ele>
        <time>2013-11-02T14:38:01Z</time>
      </trkpt>
      <trkpt lat="44.73223" lon="-0.3487">
        <ele>51</ele>
        <time>2013-11-02T14:38:15Z</time>
      </trkpt>
      <trkpt lat="44.73223" lon="-0.3487">
        <ele>51</ele>
        <time>2013-11-02T14:38:16Z</time>
      </trkpt>
      <trkpt lat="44.73212" lon="-0.34868">
        <ele>50</ele>
        <time>2013-11-02T14:38:23Z</time>
      </trkpt>
      <trkpt lat="44.73209" lon="-0.34869">
        <ele>50</ele>
        <time>2013-11-02T14:38:25Z</time>
      </trkpt>
      <trkpt lat="44.73201" lon="-0.34864">
        <ele>50</ele>
        <time>2013-11-02T14:38:32Z</time>
      </trkpt>
      <trkpt lat="44.73201" lon="-0.34864">
        <ele>50</ele>
        <time>2013-11-02T14:38:38Z</time>
      </trkpt>
      <trkpt lat="44.73197" lon="-0.34852">
        <ele>52</ele>
        <time>2013-11-02T14:38:44Z</time>
      </trkpt>
      <trkpt lat="44.73188" lon="-0.34839">
        <ele>53</ele>
        <time>2013-11-02T14:38:54Z</time>
      </trkpt>
      <trkpt lat="44.73184" lon="-0.34834">
        <ele>54</ele>
        <time>2013-11-02T14:38:57Z</time>
      </trkpt>
      <trkpt lat="44.73181" lon="-0.34823">
        <ele>54</ele>
        <time>2013-11-02T14:39:02Z</time>
      </trkpt>
      <trkpt lat="44.73179" lon="-0.34813">
        <ele>54</ele>
        <time>2013-11-02T14:39:07Z</time>
      </trkpt>
      <trkpt lat="44.73167" lon="-0.34815">
        <ele>53</ele>
        <time>2013-11-02T14:39:15Z</time>
      </trkpt>
      <trkpt lat="44.73158" lon="-0.34817">
        <ele>52</ele>
        <time>2013-11-02T14:39:21Z</time>
      </trkpt>
      <trkpt lat="44.73154" lon="-0.34815">
        <ele>52</ele>
        <time>2013-11-02T14:39:24Z</time>
      </trkpt>
      <trkpt lat="44.73152" lon="-0.34802">
        <ele>52</ele>
        <time>2013-11-02T14:39:31Z</time>
      </trkpt>
      <trkpt lat="44.73151" lon="-0.3479">
        <ele>52</ele>
        <time>2013-11-02T14:39:39Z</time>
      </trkpt>
      <trkpt lat="44.73148" lon="-0.34776">
        <ele>52</ele>
        <time>2013-11-02T14:39:46Z</time>
      </trkpt>
      <trkpt lat="44.73147" lon="-0.34758">
        <ele>52</ele>
        <time>2013-11-02T14:39:54Z</time>
      </trkpt>
      <trkpt lat="44.73147" lon="-0.3475">
        <ele>52</ele>
        <time>2013-11-02T14:39:57Z</time>
      </trkpt>
      <trkpt lat="44.73148" lon="-0.3473">
        <ele>52</ele>
        <time>2013-11-02T14:40:04Z</time>
      </trkpt>
      <trkpt lat="44.73148" lon="-0.34726">
        <ele>52</ele>
        <time>2013-11-02T14:40:05Z</time>
      </trkpt>
      <trkpt lat="44.7315" lon="-0.34697">
        <ele>52</ele>
        <time>2013-11-02T14:40:15Z</time>
      </trkpt>
      <trkpt lat="44.73151" lon="-0.34677">
        <ele>53</ele>
        <time>2013-11-02T14:40:22Z</time>
      </trkpt>
      <trkpt lat="44.73151" lon="-0.34654">
        <ele>54</ele>
        <time>2013-11-02T14:40:29Z</time>
      </trkpt>
      <trkpt lat="44.73153" lon="-0.34631">
        <ele>54</ele>
        <time>2013-11-02T14:40:37Z</time>
      </trkpt>
      <trkpt lat="44.73153" lon="-0.34607">
        <ele>55</ele>
        <time>2013-11-02T14:40:46Z</time>
      </trkpt>
      <trkpt lat="44.73154" lon="-0.34591">
        <ele>55</ele>
        <time>2013-11-02T14:40:53Z</time>
      </trkpt>
      <trkpt lat="44.73153" lon="-0.34578">
        <ele>55</ele>
        <time>2013-11-02T14:40:59Z</time>
      </trkpt>
      <trkpt lat="44.73153" lon="-0.34558">
        <ele>56</ele>
        <time>2013-11-02T14:41:06Z</time>
      </trkpt>
      <trkpt lat="44.73152" lon="-0.34531">
        <ele>57</ele>
        <time>2013-11-02T14:41:16Z</time>
      </trkpt>
      <trkpt lat="44.7315" lon="-0.3451">
        <ele>57</ele>
        <time>2013-11-02T14:41:24Z</time>
      </trkpt>
      <trkpt lat="44.7315" lon="-0.34495">
        <ele>58</ele>
        <time>2013-11-02T14:41:31Z</time>
      </trkpt>
      <trkpt lat="44.73149" lon="-0.34476">
        <ele>59</ele>
        <time>2013-11-02T14:41:39Z</time>
      </trkpt>
      <trkpt lat="44.73148" lon="-0.34457">
        <ele>60</ele>
        <time>2013-11-02T14:41:47Z</time>
      </trkpt>
      <trkpt lat="44.73149" lon="-0.34437">
        <ele>60</ele>
        <time>2013-11-02T14:41:56Z</time>
      </trkpt>
      <trkpt lat="44.73149" lon="-0.34438">
        <ele>60</ele>
        <time>2013-11-02T14:42:01Z</time>
      </trkpt>
      <trkpt lat="44.73149" lon="-0.34435">
        <ele>60</ele>
        <time>2013-11-02T14:42:11Z</time>
      </trkpt>
      <trkpt lat="44.73149" lon="-0.34435">
        <ele>60</ele>
        <time>2013-11-02T14:42:22Z</time>
      </trkpt>
      <trkpt lat="44.7315" lon="-0.34434">
        <ele>60</ele>
        <time>2013-11-02T14:42:36Z</time>
      </trkpt>
      <trkpt lat="44.7315" lon="-0.34432">
        <ele>60</ele>
        <time>2013-11-02T14:42:38Z</time>
      </trkpt>
      <trkpt lat="44.73148" lon="-0.34422">
        <ele>60</ele>
        <time>2013-11-02T14:42:43Z</time>
      </trkpt>
      <trkpt lat="44.73141" lon="-0.34397">
        <ele>59</ele>
        <time>2013-11-02T14:42:52Z</time>
      </trkpt>
      <trkpt lat="44.73132" lon="-0.34366">
        <ele>58</ele>
        <time>2013-11-02T14:42:59Z</time>
      </trkpt>
      <trkpt lat="44.73118" lon="-0.34331">
        <ele>56</ele>
        <time>2013-11-02T14:43:06Z</time>
      </trkpt>
      <trkpt lat="44.73109" lon="-0.34315">
        <ele>56</ele>
        <time>2013-11-02T14:43:12Z</time>
      </trkpt>
      <trkpt lat="44.73096" lon="-0.34299">
        <ele>57</ele>
        <time>2013-11-02T14:43:20Z</time>
      </trkpt>
      <trkpt lat="44.73085" lon="-0.34284">
        <ele>58</ele>
        <time>2013-11-02T14:43:28Z</time>
      </trkpt>
      <trkpt lat="44.73071" lon="-0.34281">
        <ele>58</ele>
        <time>2013-11-02T14:43:35Z</time>
      </trkpt>
      <trkpt lat="44.73054" lon="-0.34283">
        <ele>59</ele>
        <time>2013-11-02T14:43:43Z</time>
      </trkpt>
      <trkpt lat="44.7304" lon="-0.34283">
        <ele>59</ele>
        <time>2013-11-02T14:43:50Z</time>
      </trkpt>
      <trkpt lat="44.73028" lon="-0.34278">
        <ele>60</ele>
        <time>2013-11-02T14:43:57Z</time>
      </trkpt>
      <trkpt lat="44.73024" lon="-0.34276">
        <ele>60</ele>
        <time>2013-11-02T14:44:00Z</time>
      </trkpt>
      <trkpt lat="44.73018" lon="-0.34269">
        <ele>61</ele>
        <time>2013-11-02T14:44:06Z</time>
      </trkpt>
      <trkpt lat="44.73014" lon="-0.34266">
        <ele>61</ele>
        <time>2013-11-02T14:44:09Z</time>
      </trkpt>
      <trkpt lat="44.73005" lon="-0.34259">
        <ele>62</ele>
        <time>2013-11-02T14:44:16Z</time>
      </trkpt>
      <trkpt lat="44.72999" lon="-0.34258">
        <ele>63</ele>
        <time>2013-11-02T14:44:21Z</time>
      </trkpt>
      <trkpt lat="44.72992" lon="-0.34258">
        <ele>64</ele>
        <time>2013-11-02T14:44:26Z</time>
      </trkpt>
      <trkpt lat="44.7299" lon="-0.34256">
        <ele>64</ele>
        <time>2013-11-02T14:44:32Z</time>
      </trkpt>
      <trkpt lat="44.72987" lon="-0.34255">
        <ele>65</ele>
        <time>2013-11-02T14:44:39Z</time>
      </trkpt>
      <trkpt lat="44.72986" lon="-0.34254">
        <ele>65</ele>
        <time>2013-11-02T14:44:46Z</time>
      </trkpt>
      <trkpt lat="44.72982" lon="-0.34252">
        <ele>65</ele>
        <time>2013-11-02T14:44:53Z</time>
      </trkpt>
      <trkpt lat="44.72978" lon="-0.34251">
        <ele>66</ele>
        <time>2013-11-02T14:44:59Z</time>
      </trkpt>
      <trkpt lat="44.72975" lon="-0.3425">
        <ele>66</ele>
        <time>2013-11-02T14:45:04Z</time>
      </trkpt>
      <trkpt lat="44.7297" lon="-0.34247">
        <ele>66</ele>
        <time>2013-11-02T14:45:12Z</time>
      </trkpt>
      <trkpt lat="44.72969" lon="-0.34247">
        <ele>67</ele>
        <time>2013-11-02T14:45:14Z</time>
      </trkpt>
      <trkpt lat="44.72963" lon="-0.34243">
        <ele>67</ele>
        <time>2013-11-02T14:45:22Z</time>
      </trkpt>
      <trkpt lat="44.72956" lon="-0.34239">
        <ele>68</ele>
        <time>2013-11-02T14:45:31Z</time>
      </trkpt>
      <trkpt lat="44.72952" lon="-0.34235">
        <ele>69</ele>
        <time>2013-11-02T14:45:37Z</time>
      </trkpt>
      <trkpt lat="44.72946" lon="-0.3423">
        <ele>70</ele>
        <time>2013-11-02T14:45:45Z</time>
      </trkpt>
      <trkpt lat="44.72945" lon="-0.34228">
        <ele>70</ele>
        <time>2013-11-02T14:45:52Z</time>
      </trkpt>
      <trkpt lat="44.72944" lon="-0.34228">
        <ele>70</ele>
        <time>2013-11-02T14:45:59Z</time>
      </trkpt>
      <trkpt lat="44.72933" lon="-0.34216">
        <ele>72</ele>
        <time>2013-11-02T14:46:09Z</time>
      </trkpt>
      <trkpt lat="44.72931" lon="-0.34216">
        <ele>72</ele>
        <time>2013-11-02T14:46:11Z</time>
      </trkpt>
      <trkpt lat="44.72922" lon="-0.34219">
        <ele>72</ele>
        <time>2013-11-02T14:46:19Z</time>
      </trkpt>
      <trkpt lat="44.72912" lon="-0.34228">
        <ele>73</ele>
        <time>2013-11-02T14:46:27Z</time>
      </trkpt>
      <trkpt lat="44.72908" lon="-0.34235">
        <ele>73</ele>
        <time>2013-11-02T14:46:31Z</time>
      </trkpt>
      <trkpt lat="44.729" lon="-0.34249">
        <ele>73</ele>
        <time>2013-11-02T14:46:39Z</time>
      </trkpt>
      <trkpt lat="44.72899" lon="-0.34251">
        <ele>73</ele>
        <time>2013-11-02T14:46:40Z</time>
      </trkpt>
      <trkpt lat="44.72895" lon="-0.34257">
        <ele>73</ele>
        <time>2013-11-02T14:46:43Z</time>
      </trkpt>
      <trkpt lat="44.72881" lon="-0.34268">
        <ele>74</ele>
        <time>2013-11-02T14:46:53Z</time>
      </trkpt>
      <trkpt lat="44.72871" lon="-0.34277">
        <ele>75</ele>
        <time>2013-11-02T14:47:01Z</time>
      </trkpt>
      <trkpt lat="44.72857" lon="-0.3429">
        <ele>77</ele>
        <time>2013-11-02T14:47:11Z</time>
      </trkpt>
      <trkpt lat="44.72846" lon="-0.34297">
        <ele>78</ele>
        <time>2013-11-02T14:47:19Z</time>
      </trkpt>
      <trkpt lat="44.72837" lon="-0.34305">
        <ele>79</ele>
        <time>2013-11-02T14:47:26Z</time>
      </trkpt>
      <trkpt lat="44.7283" lon="-0.34312">
        <ele>79</ele>
        <time>2013-11-02T14:47:33Z</time>
      </trkpt>
      <trkpt lat="44.72818" lon="-0.34318">
        <ele>80</ele>
        <time>2013-11-02T14:47:42Z</time>
      </trkpt>
      <trkpt lat="44.72806" lon="-0.3432">
        <ele>81</ele>
        <time>2013-11-02T14:47:50Z</time>
      </trkpt>
      <trkpt lat="44.72791" lon="-0.34321">
        <ele>82</ele>
        <time>2013-11-02T14:48:00Z</time>
      </trkpt>
      <trkpt lat="44.72778" lon="-0.34322">
        <ele>81</ele>
        <time>2013-11-02T14:48:08Z</time>
      </trkpt>
      <trkpt lat="44.72766" lon="-0.34322">
        <ele>81</ele>
        <time>2013-11-02T14:48:15Z</time>
      </trkpt>
      <trkpt lat="44.72752" lon="-0.34325">
        <ele>81</ele>
        <time>2013-11-02T14:48:23Z</time>
      </trkpt>
      <trkpt lat="44.72744" lon="-0.34326">
        <ele>81</ele>
        <time>2013-11-02T14:48:29Z</time>
      </trkpt>
      <trkpt lat="44.72729" lon="-0.34325">
        <ele>80</ele>
        <time>2013-11-02T14:48:38Z</time>
      </trkpt>
      <trkpt lat="44.72711" lon="-0.34325">
        <ele>79</ele>
        <time>2013-11-02T14:48:47Z</time>
      </trkpt>
      <trkpt lat="44.72694" lon="-0.34323">
        <ele>78</ele>
        <time>2013-11-02T14:48:55Z</time>
      </trkpt>
      <trkpt lat="44.72674" lon="-0.34315">
        <ele>77</ele>
        <time>2013-11-02T14:49:03Z</time>
      </trkpt>
      <trkpt lat="44.72663" lon="-0.34311">
        <ele>77</ele>
        <time>2013-11-02T14:49:09Z</time>
      </trkpt>
      <trkpt lat="44.72653" lon="-0.34307">
        <ele>77</ele>
        <time>2013-11-02T14:50:59Z</time>
      </trkpt>
      <trkpt lat="44.7265" lon="-0.34295">
        <ele>75</ele>
        <time>2013-11-02T14:51:05Z</time>
      </trkpt>
      <trkpt lat="44.72649" lon="-0.34293">
        <ele>75</ele>
        <time>2013-11-02T14:51:06Z</time>
      </trkpt>
      <trkpt lat="44.72655" lon="-0.34284">
        <ele>74</ele>
        <time>2013-11-02T14:51:12Z</time>
      </trkpt>
      <trkpt lat="44.72656" lon="-0.34283">
        <ele>74</ele>
        <time>2013-11-02T14:51:13Z</time>
      </trkpt>
      <trkpt lat="44.72659" lon="-0.34278">
        <ele>74</ele>
        <time>2013-11-02T14:51:16Z</time>
      </trkpt>
      <trkpt lat="44.7266" lon="-0.34261">
        <ele>72</ele>
        <time>2013-11-02T14:51:23Z</time>
      </trkpt>
      <trkpt lat="44.7266" lon="-0.34252">
        <ele>71</ele>
        <time>2013-11-02T14:51:29Z</time>
      </trkpt>
      <trkpt lat="44.72659" lon="-0.34247">
        <ele>71</ele>
        <time>2013-11-02T14:51:33Z</time>
      </trkpt>
      <trkpt lat="44.72663" lon="-0.34243">
        <ele>70</ele>
        <time>2013-11-02T14:51:41Z</time>
      </trkpt>
      <trkpt lat="44.72664" lon="-0.34241">
        <ele>70</ele>
        <time>2013-11-02T14:51:52Z</time>
      </trkpt>
      <trkpt lat="44.72657" lon="-0.34232">
        <ele>69</ele>
        <time>2013-11-02T14:51:59Z</time>
      </trkpt>
      <trkpt lat="44.72654" lon="-0.34221">
        <ele>68</ele>
        <time>2013-11-02T14:52:06Z</time>
      </trkpt>
      <trkpt lat="44.72654" lon="-0.34221">
        <ele>68</ele>
        <time>2013-11-02T14:52:07Z</time>
      </trkpt>
      <trkpt lat="44.72651" lon="-0.34206">
        <ele>66</ele>
        <time>2013-11-02T14:52:13Z</time>
      </trkpt>
      <trkpt lat="44.7265" lon="-0.34195">
        <ele>65</ele>
        <time>2013-11-02T14:52:17Z</time>
      </trkpt>
      <trkpt lat="44.72653" lon="-0.34185">
        <ele>64</ele>
        <time>2013-11-02T14:52:20Z</time>
      </trkpt>
      <trkpt lat="44.72652" lon="-0.34166">
        <ele>63</ele>
        <time>2013-11-02T14:52:25Z</time>
      </trkpt>
      <trkpt lat="44.72645" lon="-0.34153">
        <ele>62</ele>
        <time>2013-11-02T14:52:29Z</time>
      </trkpt>
      <trkpt lat="44.72637" lon="-0.34138">
        <ele>61</ele>
        <time>2013-11-02T14:52:35Z</time>
      </trkpt>
      <trkpt lat="44.7264" lon="-0.34123">
        <ele>60</ele>
        <time>2013-11-02T14:52:42Z</time>
      </trkpt>
      <trkpt lat="44.72641" lon="-0.34119">
        <ele>60</ele>
        <time>2013-11-02T14:52:45Z</time>
      </trkpt>
      <trkpt lat="44.72642" lon="-0.34109">
        <ele>60</ele>
        <time>2013-11-02T14:52:51Z</time>
      </trkpt>
      <trkpt lat="44.72639" lon="-0.34098">
        <ele>59</ele>
        <time>2013-11-02T14:52:55Z</time>
      </trkpt>
      <trkpt lat="44.72632" lon="-0.34084">
        <ele>59</ele>
        <time>2013-11-02T14:52:59Z</time>
      </trkpt>
      <trkpt lat="44.72627" lon="-0.34068">
        <ele>59</ele>
        <time>2013-11-02T14:53:07Z</time>
      </trkpt>
      <trkpt lat="44.72632" lon="-0.34061">
        <ele>59</ele>
        <time>2013-11-02T14:53:14Z</time>
      </trkpt>
      <trkpt lat="44.72635" lon="-0.34058">
        <ele>59</ele>
        <time>2013-11-02T14:53:19Z</time>
      </trkpt>
      <trkpt lat="44.72645" lon="-0.34049">
        <ele>60</ele>
        <time>2013-11-02T14:53:25Z</time>
      </trkpt>
      <trkpt lat="44.72645" lon="-0.34049">
        <ele>60</ele>
        <time>2013-11-02T14:53:26Z</time>
      </trkpt>
      <trkpt lat="44.72656" lon="-0.34043">
        <ele>61</ele>
        <time>2013-11-02T14:53:32Z</time>
      </trkpt>
      <trkpt lat="44.72659" lon="-0.34041">
        <ele>61</ele>
        <time>2013-11-02T14:53:37Z</time>
      </trkpt>
      <trkpt lat="44.72662" lon="-0.34038">
        <ele>61</ele>
        <time>2013-11-02T14:53:49Z</time>
      </trkpt>
      <trkpt lat="44.72674" lon="-0.34035">
        <ele>62</ele>
        <time>2013-11-02T14:53:55Z</time>
      </trkpt>
      <trkpt lat="44.72678" lon="-0.34033">
        <ele>63</ele>
        <time>2013-11-02T14:53:57Z</time>
      </trkpt>
      <trkpt lat="44.72688" lon="-0.3403">
        <ele>64</ele>
        <time>2013-11-02T14:54:04Z</time>
      </trkpt>
      <trkpt lat="44.72695" lon="-0.34029">
        <ele>65</ele>
        <time>2013-11-02T14:54:08Z</time>
      </trkpt>
      <trkpt lat="44.72707" lon="-0.34028">
        <ele>66</ele>
        <time>2013-11-02T14:54:15Z</time>
      </trkpt>
      <trkpt lat="44.72712" lon="-0.34026">
        <ele>67</ele>
        <time>2013-11-02T14:54:18Z</time>
      </trkpt>
      <trkpt lat="44.72721" lon="-0.34027">
        <ele>68</ele>
        <time>2013-11-02T14:54:23Z</time>
      </trkpt>
      <trkpt lat="44.72727" lon="-0.34028">
        <ele>68</ele>
        <time>2013-11-02T14:54:27Z</time>
      </trkpt>
      <trkpt lat="44.72742" lon="-0.34025">
        <ele>70</ele>
        <time>2013-11-02T14:54:35Z</time>
      </trkpt>
      <trkpt lat="44.72744" lon="-0.34024">
        <ele>70</ele>
        <time>2013-11-02T14:54:36Z</time>
      </trkpt>
      <trkpt lat="44.72749" lon="-0.34022">
        <ele>71</ele>
        <time>2013-11-02T14:54:40Z</time>
      </trkpt>
      <trkpt lat="44.72759" lon="-0.34021">
        <ele>72</ele>
        <time>2013-11-02T14:54:48Z</time>
      </trkpt>
      <trkpt lat="44.72762" lon="-0.34021">
        <ele>72</ele>
        <time>2013-11-02T14:54:50Z</time>
      </trkpt>
      <trkpt lat="44.72773" lon="-0.34016">
        <ele>73</ele>
        <time>2013-11-02T14:54:57Z</time>
      </trkpt>
      <trkpt lat="44.72777" lon="-0.34016">
        <ele>73</ele>
        <time>2013-11-02T14:55:03Z</time>
      </trkpt>
      <trkpt lat="44.72778" lon="-0.34016">
        <ele>73</ele>
        <time>2013-11-02T14:55:11Z</time>
      </trkpt>
      <trkpt lat="44.72783" lon="-0.34014">
        <ele>74</ele>
        <time>2013-11-02T14:55:18Z</time>
      </trkpt>
      <trkpt lat="44.72787" lon="-0.34014">
        <ele>74</ele>
        <time>2013-11-02T14:55:26Z</time>
      </trkpt>
      <trkpt lat="44.72793" lon="-0.34011">
        <ele>75</ele>
        <time>2013-11-02T14:55:33Z</time>
      </trkpt>
      <trkpt lat="44.72799" lon="-0.34009">
        <ele>75</ele>
        <time>2013-11-02T14:55:39Z</time>
      </trkpt>
      <trkpt lat="44.72803" lon="-0.34008">
        <ele>75</ele>
        <time>2013-11-02T14:55:46Z</time>
      </trkpt>
      <trkpt lat="44.72807" lon="-0.34008">
        <ele>75</ele>
        <time>2013-11-02T14:55:55Z</time>
      </trkpt>
      <trkpt lat="44.72812" lon="-0.34009">
        <ele>75</ele>
        <time>2013-11-02T14:56:02Z</time>
      </trkpt>
      <trkpt lat="44.72814" lon="-0.34007">
        <ele>75</ele>
        <time>2013-11-02T14:56:10Z</time>
      </trkpt>
      <trkpt lat="44.72814" lon="-0.34008">
        <ele>75</ele>
        <time>2013-11-02T14:56:20Z</time>
      </trkpt>
      <trkpt lat="44.72816" lon="-0.34007">
        <ele>75</ele>
        <time>2013-11-02T14:56:26Z</time>
      </trkpt>
      <trkpt lat="44.72817" lon="-0.34006">
        <ele>75</ele>
        <time>2013-11-02T14:56:37Z</time>
      </trkpt>
      <trkpt lat="44.72817" lon="-0.34004">
        <ele>75</ele>
        <time>2013-11-02T14:56:55Z</time>
      </trkpt>
      <trkpt lat="44.72817" lon="-0.34004">
        <ele>75</ele>
        <time>2013-11-02T14:57:05Z</time>
      </trkpt>
      <trkpt lat="44.72817" lon="-0.34003">
        <ele>75</ele>
        <time>2013-11-02T14:57:18Z</time>
      </trkpt>
      <trkpt lat="44.72817" lon="-0.34004">
        <ele>75</ele>
        <time>2013-11-02T14:57:32Z</time>
      </trkpt>
      <trkpt lat="44.72818" lon="-0.34003">
        <ele>75</ele>
        <time>2013-11-02T14:57:47Z</time>
      </trkpt>
      <trkpt lat="44.72818" lon="-0.34004">
        <ele>75</ele>
        <time>2013-11-02T14:58:01Z</time>
      </trkpt>
      <trkpt lat="44.72818" lon="-0.34004">
        <ele>75</ele>
        <time>2013-11-02T14:58:12Z</time>
      </trkpt>
      <trkpt lat="44.72828" lon="-0.34003">
        <ele>76</ele>
        <time>2013-11-02T14:58:19Z</time>
      </trkpt>
      <trkpt lat="44.72838" lon="-0.34001">
        <ele>76</ele>
        <time>2013-11-02T14:58:25Z</time>
      </trkpt>
      <trkpt lat="44.7284" lon="-0.34001">
        <ele>76</ele>
        <time>2013-11-02T14:58:26Z</time>
      </trkpt>
      <trkpt lat="44.72858" lon="-0.33997">
        <ele>77</ele>
        <time>2013-11-02T14:58:35Z</time>
      </trkpt>
      <trkpt lat="44.7287" lon="-0.33993">
        <ele>77</ele>
        <time>2013-11-02T14:58:41Z</time>
      </trkpt>
      <trkpt lat="44.72872" lon="-0.33993">
        <ele>77</ele>
        <time>2013-11-02T14:58:42Z</time>
      </trkpt>
      <trkpt lat="44.72884" lon="-0.33989">
        <ele>78</ele>
        <time>2013-11-02T14:58:49Z</time>
      </trkpt>
      <trkpt lat="44.72894" lon="-0.33987">
        <ele>78</ele>
        <time>2013-11-02T14:58:54Z</time>
      </trkpt>
      <trkpt lat="44.729" lon="-0.33987">
        <ele>79</ele>
        <time>2013-11-02T14:58:58Z</time>
      </trkpt>
      <trkpt lat="44.72903" lon="-0.3399">
        <ele>79</ele>
        <time>2013-11-02T14:59:01Z</time>
      </trkpt>
      <trkpt lat="44.72915" lon="-0.33986">
        <ele>80</ele>
        <time>2013-11-02T14:59:07Z</time>
      </trkpt>
      <trkpt lat="44.72933" lon="-0.33984">
        <ele>82</ele>
        <time>2013-11-02T14:59:15Z</time>
      </trkpt>
      <trkpt lat="44.72946" lon="-0.33986">
        <ele>83</ele>
        <time>2013-11-02T14:59:20Z</time>
      </trkpt>
      <trkpt lat="44.72964" lon="-0.33986">
        <ele>84</ele>
        <time>2013-11-02T14:59:27Z</time>
      </trkpt>
      <trkpt lat="44.72978" lon="-0.33985">
        <ele>86</ele>
        <time>2013-11-02T14:59:33Z</time>
      </trkpt>
      <trkpt lat="44.72991" lon="-0.33982">
        <ele>86</ele>
        <time>2013-11-02T14:59:40Z</time>
      </trkpt>
      <trkpt lat="44.73" lon="-0.33976">
        <ele>87</ele>
        <time>2013-11-02T14:59:46Z</time>
      </trkpt>
      <trkpt lat="44.73009" lon="-0.33971">
        <ele>87</ele>
        <time>2013-11-02T14:59:51Z</time>
      </trkpt>
      <trkpt lat="44.73017" lon="-0.33966">
        <ele>88</ele>
        <time>2013-11-02T14:59:56Z</time>
      </trkpt>
      <trkpt lat="44.73029" lon="-0.33958">
        <ele>89</ele>
        <time>2013-11-02T15:00:03Z</time>
      </trkpt>
      <trkpt lat="44.73039" lon="-0.33952">
        <ele>89</ele>
        <time>2013-11-02T15:00:10Z</time>
      </trkpt>
      <trkpt lat="44.73048" lon="-0.33945">
        <ele>89</ele>
        <time>2013-11-02T15:00:15Z</time>
      </trkpt>
      <trkpt lat="44.73058" lon="-0.3394">
        <ele>89</ele>
        <time>2013-11-02T15:00:20Z</time>
      </trkpt>
      <trkpt lat="44.73068" lon="-0.33936">
        <ele>89</ele>
        <time>2013-11-02T15:00:26Z</time>
      </trkpt>
      <trkpt lat="44.73079" lon="-0.33925">
        <ele>89</ele>
        <time>2013-11-02T15:00:34Z</time>
      </trkpt>
      <trkpt lat="44.7309" lon="-0.33916">
        <ele>89</ele>
        <time>2013-11-02T15:00:42Z</time>
      </trkpt>
      <trkpt lat="44.73094" lon="-0.33911">
        <ele>89</ele>
        <time>2013-11-02T15:00:46Z</time>
      </trkpt>
      <trkpt lat="44.73099" lon="-0.33908">
        <ele>89</ele>
        <time>2013-11-02T15:00:51Z</time>
      </trkpt>
      <trkpt lat="44.73111" lon="-0.33898">
        <ele>90</ele>
        <time>2013-11-02T15:01:00Z</time>
      </trkpt>
      <trkpt lat="44.73118" lon="-0.33893">
        <ele>90</ele>
        <time>2013-11-02T15:01:05Z</time>
      </trkpt>
      <trkpt lat="44.73132" lon="-0.33882">
        <ele>90</ele>
        <time>2013-11-02T15:01:15Z</time>
      </trkpt>
      <trkpt lat="44.73149" lon="-0.33867">
        <ele>90</ele>
        <time>2013-11-02T15:01:26Z</time>
      </trkpt>
      <trkpt lat="44.73165" lon="-0.33855">
        <ele>91</ele>
        <time>2013-11-02T15:01:35Z</time>
      </trkpt>
      <trkpt lat="44.73178" lon="-0.33847">
        <ele>91</ele>
        <time>2013-11-02T15:01:43Z</time>
      </trkpt>
      <trkpt lat="44.73191" lon="-0.33837">
        <ele>91</ele>
        <time>2013-11-02T15:01:51Z</time>
      </trkpt>
      <trkpt lat="44.73204" lon="-0.33827">
        <ele>92</ele>
        <time>2013-11-02T15:01:58Z</time>
      </trkpt>
      <trkpt lat="44.73212" lon="-0.33821">
        <ele>92</ele>
        <time>2013-11-02T15:02:02Z</time>
      </trkpt>
      <trkpt lat="44.73225" lon="-0.33809">
        <ele>92</ele>
        <time>2013-11-02T15:02:09Z</time>
      </trkpt>
      <trkpt lat="44.73236" lon="-0.33802">
        <ele>92</ele>
        <time>2013-11-02T15:02:14Z</time>
      </trkpt>
      <trkpt lat="44.73252" lon="-0.3379">
        <ele>92</ele>
        <time>2013-11-02T15:02:21Z</time>
      </trkpt>
      <trkpt lat="44.73265" lon="-0.33781">
        <ele>92</ele>
        <time>2013-11-02T15:02:27Z</time>
      </trkpt>
      <trkpt lat="44.73279" lon="-0.33769">
        <ele>93</ele>
        <time>2013-11-02T15:02:33Z</time>
      </trkpt>
      <trkpt lat="44.73295" lon="-0.33759">
        <ele>94</ele>
        <time>2013-11-02T15:02:40Z</time>
      </trkpt>
      <trkpt lat="44.73311" lon="-0.33753">
        <ele>94</ele>
        <time>2013-11-02T15:02:46Z</time>
      </trkpt>
      <trkpt lat="44.7333" lon="-0.33752">
        <ele>93</ele>
        <time>2013-11-02T15:02:53Z</time>
      </trkpt>
      <trkpt lat="44.73345" lon="-0.33755">
        <ele>93</ele>
        <time>2013-11-02T15:02:58Z</time>
      </trkpt>
      <trkpt lat="44.73366" lon="-0.33754">
        <ele>94</ele>
        <time>2013-11-02T15:03:05Z</time>
      </trkpt>
      <trkpt lat="44.73374" lon="-0.33745">
        <ele>95</ele>
        <time>2013-11-02T15:03:09Z</time>
      </trkpt>
      <trkpt lat="44.73376" lon="-0.33735">
        <ele>95</ele>
        <time>2013-11-02T15:03:13Z</time>
      </trkpt>
      <trkpt lat="44.73375" lon="-0.33724">
        <ele>96</ele>
        <time>2013-11-02T15:03:18Z</time>
      </trkpt>
      <trkpt lat="44.73372" lon="-0.33691">
        <ele>97</ele>
        <time>2013-11-02T15:03:28Z</time>
      </trkpt>
      <trkpt lat="44.73368" lon="-0.33665">
        <ele>97</ele>
        <time>2013-11-02T15:03:36Z</time>
      </trkpt>
      <trkpt lat="44.73368" lon="-0.33648">
        <ele>98</ele>
        <time>2013-11-02T15:03:42Z</time>
      </trkpt>
      <trkpt lat="44.73374" lon="-0.33625">
        <ele>97</ele>
        <time>2013-11-02T15:03:50Z</time>
      </trkpt>
      <trkpt lat="44.73389" lon="-0.33606">
        <ele>95</ele>
        <time>2013-11-02T15:03:58Z</time>
      </trkpt>
      <trkpt lat="44.73399" lon="-0.33589">
        <ele>94</ele>
        <time>2013-11-02T15:04:04Z</time>
      </trkpt>
      <trkpt lat="44.734" lon="-0.33583">
        <ele>94</ele>
        <time>2013-11-02T15:04:10Z</time>
      </trkpt>
      <trkpt lat="44.73401" lon="-0.33583">
        <ele>94</ele>
        <time>2013-11-02T15:04:26Z</time>
      </trkpt>
      <trkpt lat="44.73402" lon="-0.33583">
        <ele>94</ele>
        <time>2013-11-02T15:04:34Z</time>
      </trkpt>
      <trkpt lat="44.73402" lon="-0.33583">
        <ele>94</ele>
        <time>2013-11-02T15:04:35Z</time>
      </trkpt>
      <trkpt lat="44.73392" lon="-0.3357">
        <ele>94</ele>
        <time>2013-11-02T15:04:43Z</time>
      </trkpt>
      <trkpt lat="44.73379" lon="-0.33553">
        <ele>95</ele>
        <time>2013-11-02T15:04:50Z</time>
      </trkpt>
      <trkpt lat="44.73383" lon="-0.33533">
        <ele>94</ele>
        <time>2013-11-02T15:04:55Z</time>
      </trkpt>
      <trkpt lat="44.73404" lon="-0.33498">
        <ele>93</ele>
        <time>2013-11-02T15:05:01Z</time>
      </trkpt>
      <trkpt lat="44.73425" lon="-0.33468">
        <ele>92</ele>
        <time>2013-11-02T15:05:06Z</time>
      </trkpt>
      <trkpt lat="44.73456" lon="-0.33415">
        <ele>89</ele>
        <time>2013-11-02T15:05:15Z</time>
      </trkpt>
      <trkpt lat="44.73462" lon="-0.33405">
        <ele>89</ele>
        <time>2013-11-02T15:05:17Z</time>
      </trkpt>
      <trkpt lat="44.73465" lon="-0.33399">
        <ele>89</ele>
        <time>2013-11-02T15:05:18Z</time>
      </trkpt>
      <trkpt lat="44.73469" lon="-0.33387">
        <ele>88</ele>
        <time>2013-11-02T15:05:20Z</time>
      </trkpt>
      <trkpt lat="44.73471" lon="-0.3338">
        <ele>87</ele>
        <time>2013-11-02T15:05:21Z</time>
      </trkpt>
      <trkpt lat="44.73474" lon="-0.33362">
        <ele>86</ele>
        <time>2013-11-02T15:05:23Z</time>
      </trkpt>
      <trkpt lat="44.73474" lon="-0.33353">
        <ele>85</ele>
        <time>2013-11-02T15:05:24Z</time>
      </trkpt>
      <trkpt lat="44.7347" lon="-0.33273">
        <ele>78</ele>
        <time>2013-11-02T15:05:32Z</time>
      </trkpt>
      <trkpt lat="44.73465" lon="-0.33199">
        <ele>73</ele>
        <time>2013-11-02T15:05:41Z</time>
      </trkpt>
      <trkpt lat="44.73464" lon="-0.33192">
        <ele>73</ele>
        <time>2013-11-02T15:05:42Z</time>
      </trkpt>
      <trkpt lat="44.73461" lon="-0.33186">
        <ele>72</ele>
        <time>2013-11-02T15:05:43Z</time>
      </trkpt>
      <trkpt lat="44.73458" lon="-0.33181">
        <ele>72</ele>
        <time>2013-11-02T15:05:44Z</time>
      </trkpt>
      <trkpt lat="44.73453" lon="-0.33177">
        <ele>72</ele>
        <time>2013-11-02T15:05:45Z</time>
      </trkpt>
      <trkpt lat="44.73448" lon="-0.33174">
        <ele>71</ele>
        <time>2013-11-02T15:05:46Z</time>
      </trkpt>
      <trkpt lat="44.73438" lon="-0.33167">
        <ele>70</ele>
        <time>2013-11-02T15:05:48Z</time>
      </trkpt>
      <trkpt lat="44.734" lon="-0.33145">
        <ele>64</ele>
        <time>2013-11-02T15:05:53Z</time>
      </trkpt>
      <trkpt lat="44.73363" lon="-0.33133">
        <ele>64</ele>
        <time>2013-11-02T15:05:58Z</time>
      </trkpt>
      <trkpt lat="44.73343" lon="-0.33128">
        <ele>64</ele>
        <time>2013-11-02T15:06:03Z</time>
      </trkpt>
      <trkpt lat="44.73341" lon="-0.33125">
        <ele>63</ele>
        <time>2013-11-02T15:06:04Z</time>
      </trkpt>
      <trkpt lat="44.73339" lon="-0.33122">
        <ele>63</ele>
        <time>2013-11-02T15:06:05Z</time>
      </trkpt>
      <trkpt lat="44.73339" lon="-0.33117">
        <ele>63</ele>
        <time>2013-11-02T15:06:06Z</time>
      </trkpt>
      <trkpt lat="44.73339" lon="-0.33113">
        <ele>63</ele>
        <time>2013-11-02T15:06:07Z</time>
      </trkpt>
      <trkpt lat="44.73339" lon="-0.33108">
        <ele>62</ele>
        <time>2013-11-02T15:06:08Z</time>
      </trkpt>
      <trkpt lat="44.73341" lon="-0.33102">
        <ele>62</ele>
        <time>2013-11-02T15:06:09Z</time>
      </trkpt>
      <trkpt lat="44.73343" lon="-0.33096">
        <ele>62</ele>
        <time>2013-11-02T15:06:10Z</time>
      </trkpt>
      <trkpt lat="44.73344" lon="-0.3309">
        <ele>62</ele>
        <time>2013-11-02T15:06:11Z</time>
      </trkpt>
      <trkpt lat="44.73346" lon="-0.33085">
        <ele>61</ele>
        <time>2013-11-02T15:06:12Z</time>
      </trkpt>
      <trkpt lat="44.73347" lon="-0.33058">
        <ele>60</ele>
        <time>2013-11-02T15:06:17Z</time>
      </trkpt>
      <trkpt lat="44.73347" lon="-0.33044">
        <ele>59</ele>
        <time>2013-11-02T15:06:21Z</time>
      </trkpt>
      <trkpt lat="44.73347" lon="-0.33042">
        <ele>59</ele>
        <time>2013-11-02T15:06:22Z</time>
      </trkpt>
      <trkpt lat="44.73348" lon="-0.33041">
        <ele>58</ele>
        <time>2013-11-02T15:06:23Z</time>
      </trkpt>
      <trkpt lat="44.73349" lon="-0.3304">
        <ele>58</ele>
        <time>2013-11-02T15:06:24Z</time>
      </trkpt>
      <trkpt lat="44.73351" lon="-0.33039">
        <ele>58</ele>
        <time>2013-11-02T15:06:25Z</time>
      </trkpt>
      <trkpt lat="44.73352" lon="-0.33038">
        <ele>58</ele>
        <time>2013-11-02T15:06:26Z</time>
      </trkpt>
      <trkpt lat="44.73354" lon="-0.33037">
        <ele>58</ele>
        <time>2013-11-02T15:06:31Z</time>
      </trkpt>
      <trkpt lat="44.73355" lon="-0.33037">
        <ele>58</ele>
        <time>2013-11-02T15:06:40Z</time>
      </trkpt>
      <trkpt lat="44.73355" lon="-0.33036">
        <ele>58</ele>
        <time>2013-11-02T15:06:52Z</time>
      </trkpt>
      <trkpt lat="44.73355" lon="-0.33037">
        <ele>58</ele>
        <time>2013-11-02T15:07:04Z</time>
      </trkpt>
      <trkpt lat="44.73357" lon="-0.33037">
        <ele>59</ele>
        <time>2013-11-02T15:07:17Z</time>
      </trkpt>
      <trkpt lat="44.73357" lon="-0.33036">
        <ele>58</ele>
        <time>2013-11-02T15:07:25Z</time>
      </trkpt>
      <trkpt lat="44.73356" lon="-0.33035">
        <ele>58</ele>
        <time>2013-11-02T15:07:42Z</time>
      </trkpt>
      <trkpt lat="44.73356" lon="-0.33034">
        <ele>58</ele>
        <time>2013-11-02T15:07:57Z</time>
      </trkpt>
      <trkpt lat="44.73357" lon="-0.33034">
        <ele>58</ele>
        <time>2013-11-02T15:08:11Z</time>
      </trkpt>
      <trkpt lat="44.73365" lon="-0.3303">
        <ele>58</ele>
        <time>2013-11-02T15:08:17Z</time>
      </trkpt>
      <trkpt lat="44.73367" lon="-0.3303">
        <ele>58</ele>
        <time>2013-11-02T15:08:18Z</time>
      </trkpt>
      <trkpt lat="44.73368" lon="-0.3303">
        <ele>58</ele>
        <time>2013-11-02T15:08:19Z</time>
      </trkpt>
      <trkpt lat="44.7337" lon="-0.33029">
        <ele>58</ele>
        <time>2013-11-02T15:08:20Z</time>
      </trkpt>
      <trkpt lat="44.73372" lon="-0.33029">
        <ele>58</ele>
        <time>2013-11-02T15:08:21Z</time>
      </trkpt>
      <trkpt lat="44.73375" lon="-0.33028">
        <ele>58</ele>
        <time>2013-11-02T15:08:22Z</time>
      </trkpt>
      <trkpt lat="44.73377" lon="-0.33028">
        <ele>58</ele>
        <time>2013-11-02T15:08:23Z</time>
      </trkpt>
      <trkpt lat="44.73379" lon="-0.33027">
        <ele>58</ele>
        <time>2013-11-02T15:08:24Z</time>
      </trkpt>
      <trkpt lat="44.73381" lon="-0.33025">
        <ele>57</ele>
        <time>2013-11-02T15:08:25Z</time>
      </trkpt>
      <trkpt lat="44.73391" lon="-0.3302">
        <ele>57</ele>
        <time>2013-11-02T15:08:31Z</time>
      </trkpt>
      <trkpt lat="44.73401" lon="-0.33013">
        <ele>56</ele>
        <time>2013-11-02T15:08:39Z</time>
      </trkpt>
      <trkpt lat="44.7341" lon="-0.33006">
        <ele>55</ele>
        <time>2013-11-02T15:08:47Z</time>
      </trkpt>
      <trkpt lat="44.73411" lon="-0.33004">
        <ele>55</ele>
        <time>2013-11-02T15:08:49Z</time>
      </trkpt>
      <trkpt lat="44.73413" lon="-0.33004">
        <ele>55</ele>
        <time>2013-11-02T15:08:50Z</time>
      </trkpt>
      <trkpt lat="44.73414" lon="-0.33003">
        <ele>55</ele>
        <time>2013-11-02T15:08:51Z</time>
      </trkpt>
      <trkpt lat="44.7342" lon="-0.33">
        <ele>55</ele>
        <time>2013-11-02T15:08:56Z</time>
      </trkpt>
      <trkpt lat="44.73427" lon="-0.32998">
        <ele>55</ele>
        <time>2013-11-02T15:09:03Z</time>
      </trkpt>
      <trkpt lat="44.73429" lon="-0.32997">
        <ele>55</ele>
        <time>2013-11-02T15:09:05Z</time>
      </trkpt>
      <trkpt lat="44.73433" lon="-0.32993">
        <ele>54</ele>
        <time>2013-11-02T15:09:09Z</time>
      </trkpt>
      <trkpt lat="44.73448" lon="-0.32988">
        <ele>54</ele>
        <time>2013-11-02T15:09:18Z</time>
      </trkpt>
      <trkpt lat="44.73465" lon="-0.32982">
        <ele>53</ele>
        <time>2013-11-02T15:09:25Z</time>
      </trkpt>
      <trkpt lat="44.73484" lon="-0.32975">
        <ele>53</ele>
        <time>2013-11-02T15:09:33Z</time>
      </trkpt>
      <trkpt lat="44.73503" lon="-0.32974">
        <ele>53</ele>
        <time>2013-11-02T15:09:40Z</time>
      </trkpt>
      <trkpt lat="44.73517" lon="-0.32972">
        <ele>53</ele>
        <time>2013-11-02T15:09:45Z</time>
      </trkpt>
      <trkpt lat="44.7354" lon="-0.32969">
        <ele>54</ele>
        <time>2013-11-02T15:09:51Z</time>
      </trkpt>
      <trkpt lat="44.73552" lon="-0.32965">
        <ele>54</ele>
        <time>2013-11-02T15:09:56Z</time>
      </trkpt>
      <trkpt lat="44.73568" lon="-0.3296">
        <ele>54</ele>
        <time>2013-11-02T15:10:02Z</time>
      </trkpt>
      <trkpt lat="44.73587" lon="-0.32955">
        <ele>54</ele>
        <time>2013-11-02T15:10:10Z</time>
      </trkpt>
      <trkpt lat="44.73595" lon="-0.32955">
        <ele>54</ele>
        <time>2013-11-02T15:10:15Z</time>
      </trkpt>
      <trkpt lat="44.73608" lon="-0.32959">
        <ele>54</ele>
        <time>2013-11-02T15:10:22Z</time>
      </trkpt>
      <trkpt lat="44.73623" lon="-0.32968">
        <ele>54</ele>
        <time>2013-11-02T15:10:29Z</time>
      </trkpt>
      <trkpt lat="44.73637" lon="-0.32976">
        <ele>54</ele>
        <time>2013-11-02T15:10:35Z</time>
      </trkpt>
      <trkpt lat="44.73645" lon="-0.32982">
        <ele>55</ele>
        <time>2013-11-02T15:10:41Z</time>
      </trkpt>
      <trkpt lat="44.73647" lon="-0.32983">
        <ele>55</ele>
        <time>2013-11-02T15:10:42Z</time>
      </trkpt>
      <trkpt lat="44.73649" lon="-0.32988">
        <ele>55</ele>
        <time>2013-11-02T15:10:45Z</time>
      </trkpt>
      <trkpt lat="44.73659" lon="-0.32992">
        <ele>55</ele>
        <time>2013-11-02T15:10:51Z</time>
      </trkpt>
      <trkpt lat="44.7366" lon="-0.32992">
        <ele>55</ele>
        <time>2013-11-02T15:10:52Z</time>
      </trkpt>
      <trkpt lat="44.73669" lon="-0.3299">
        <ele>55</ele>
        <time>2013-11-02T15:10:57Z</time>
      </trkpt>
      <trkpt lat="44.73681" lon="-0.32986">
        <ele>56</ele>
        <time>2013-11-02T15:11:02Z</time>
      </trkpt>
      <trkpt lat="44.73689" lon="-0.32983">
        <ele>57</ele>
        <time>2013-11-02T15:11:08Z</time>
      </trkpt>
      <trkpt lat="44.73697" lon="-0.32982">
        <ele>58</ele>
        <time>2013-11-02T15:11:15Z</time>
      </trkpt>
      <trkpt lat="44.73702" lon="-0.32979">
        <ele>59</ele>
        <time>2013-11-02T15:11:19Z</time>
      </trkpt>
      <trkpt lat="44.7371" lon="-0.32974">
        <ele>60</ele>
        <time>2013-11-02T15:11:26Z</time>
      </trkpt>
      <trkpt lat="44.73718" lon="-0.3297">
        <ele>61</ele>
        <time>2013-11-02T15:11:32Z</time>
      </trkpt>
      <trkpt lat="44.73722" lon="-0.32968">
        <ele>62</ele>
        <time>2013-11-02T15:11:36Z</time>
      </trkpt>
      <trkpt lat="44.73731" lon="-0.32962">
        <ele>63</ele>
        <time>2013-11-02T15:11:42Z</time>
      </trkpt>
      <trkpt lat="44.73734" lon="-0.3296">
        <ele>63</ele>
        <time>2013-11-02T15:11:44Z</time>
      </trkpt>
      <trkpt lat="44.73746" lon="-0.32953">
        <ele>64</ele>
        <time>2013-11-02T15:11:52Z</time>
      </trkpt>
      <trkpt lat="44.73751" lon="-0.32952">
        <ele>65</ele>
        <time>2013-11-02T15:11:58Z</time>
      </trkpt>
      <trkpt lat="44.73763" lon="-0.32948">
        <ele>66</ele>
        <time>2013-11-02T15:12:05Z</time>
      </trkpt>
      <trkpt lat="44.73766" lon="-0.32947">
        <ele>67</ele>
        <time>2013-11-02T15:12:09Z</time>
      </trkpt>
      <trkpt lat="44.7377" lon="-0.32945">
        <ele>67</ele>
        <time>2013-11-02T15:12:12Z</time>
      </trkpt>
      <trkpt lat="44.73777" lon="-0.32943">
        <ele>67</ele>
        <time>2013-11-02T15:12:18Z</time>
      </trkpt>
      <trkpt lat="44.73778" lon="-0.32943">
        <ele>67</ele>
        <time>2013-11-02T15:12:19Z</time>
      </trkpt>
      <trkpt lat="44.73787" lon="-0.32943">
        <ele>68</ele>
        <time>2013-11-02T15:12:26Z</time>
      </trkpt>
      <trkpt lat="44.73795" lon="-0.3294">
        <ele>68</ele>
        <time>2013-11-02T15:12:31Z</time>
      </trkpt>
      <trkpt lat="44.73806" lon="-0.32938">
        <ele>69</ele>
        <time>2013-11-02T15:12:39Z</time>
      </trkpt>
      <trkpt lat="44.73809" lon="-0.32937">
        <ele>69</ele>
        <time>2013-11-02T15:12:41Z</time>
      </trkpt>
      <trkpt lat="44.73819" lon="-0.32933">
        <ele>69</ele>
        <time>2013-11-02T15:12:48Z</time>
      </trkpt>
      <trkpt lat="44.73825" lon="-0.32932">
        <ele>70</ele>
        <time>2013-11-02T15:12:54Z</time>
      </trkpt>
      <trkpt lat="44.73826" lon="-0.32932">
        <ele>70</ele>
        <time>2013-11-02T15:12:55Z</time>
      </trkpt>
      <trkpt lat="44.73836" lon="-0.32933">
        <ele>70</ele>
        <time>2013-11-02T15:13:01Z</time>
      </trkpt>
      <trkpt lat="44.73842" lon="-0.32941">
        <ele>71</ele>
        <time>2013-11-02T15:13:07Z</time>
      </trkpt>
      <trkpt lat="44.73842" lon="-0.32947">
        <ele>71</ele>
        <time>2013-11-02T15:13:10Z</time>
      </trkpt>
      <trkpt lat="44.73846" lon="-0.32963">
        <ele>73</ele>
        <time>2013-11-02T15:13:18Z</time>
      </trkpt>
      <trkpt lat="44.73853" lon="-0.32974">
        <ele>74</ele>
        <time>2013-11-02T15:13:25Z</time>
      </trkpt>
      <trkpt lat="44.7386" lon="-0.32986">
        <ele>75</ele>
        <time>2013-11-02T15:13:33Z</time>
      </trkpt>
      <trkpt lat="44.73862" lon="-0.32992">
        <ele>75</ele>
        <time>2013-11-02T15:13:37Z</time>
      </trkpt>
      <trkpt lat="44.73868" lon="-0.33">
        <ele>76</ele>
        <time>2013-11-02T15:13:43Z</time>
      </trkpt>
      <trkpt lat="44.7387" lon="-0.33004">
        <ele>76</ele>
        <time>2013-11-02T15:13:46Z</time>
      </trkpt>
      <trkpt lat="44.73873" lon="-0.33011">
        <ele>77</ele>
        <time>2013-11-02T15:13:50Z</time>
      </trkpt>
      <trkpt lat="44.7388" lon="-0.33022">
        <ele>78</ele>
        <time>2013-11-02T15:13:58Z</time>
      </trkpt>
      <trkpt lat="44.73889" lon="-0.33032">
        <ele>78</ele>
        <time>2013-11-02T15:14:06Z</time>
      </trkpt>
      <trkpt lat="44.73894" lon="-0.33037">
        <ele>79</ele>
        <time>2013-11-02T15:14:11Z</time>
      </trkpt>
      <trkpt lat="44.73898" lon="-0.33042">
        <ele>79</ele>
        <time>2013-11-02T15:14:18Z</time>
      </trkpt>
      <trkpt lat="44.73899" lon="-0.33042">
        <ele>79</ele>
        <time>2013-11-02T15:14:33Z</time>
      </trkpt>
      <trkpt lat="44.73899" lon="-0.33042">
        <ele>79</ele>
        <time>2013-11-02T15:14:48Z</time>
      </trkpt>
      <trkpt lat="44.73899" lon="-0.33042">
        <ele>79</ele>
        <time>2013-11-02T15:15:03Z</time>
      </trkpt>
      <trkpt lat="44.73899" lon="-0.33042">
        <ele>79</ele>
        <time>2013-11-02T15:15:10Z</time>
      </trkpt>
      <trkpt lat="44.73899" lon="-0.33042">
        <ele>79</ele>
        <time>2013-11-02T15:15:28Z</time>
      </trkpt>
      <trkpt lat="44.739" lon="-0.33042">
        <ele>79</ele>
        <time>2013-11-02T15:15:40Z</time>
      </trkpt>
      <trkpt lat="44.73899" lon="-0.33041">
        <ele>79</ele>
        <time>2013-11-02T15:15:50Z</time>
      </trkpt>
      <trkpt lat="44.73899" lon="-0.33041">
        <ele>79</ele>
        <time>2013-11-02T15:16:03Z</time>
      </trkpt>
      <trkpt lat="44.73899" lon="-0.33041">
        <ele>79</ele>
        <time>2013-11-02T15:16:15Z</time>
      </trkpt>
      <trkpt lat="44.73899" lon="-0.33041">
        <ele>79</ele>
        <time>2013-11-02T15:16:28Z</time>
      </trkpt>
      <trkpt lat="44.739" lon="-0.33041">
        <ele>79</ele>
        <time>2013-11-02T15:16:43Z</time>
      </trkpt>
      <trkpt lat="44.739" lon="-0.33041">
        <ele>79</ele>
        <time>2013-11-02T15:16:55Z</time>
      </trkpt>
      <trkpt lat="44.73899" lon="-0.33041">
        <ele>79</ele>
        <time>2013-11-02T15:17:09Z</time>
      </trkpt>
      <trkpt lat="44.73899" lon="-0.3304">
        <ele>79</ele>
        <time>2013-11-02T15:17:23Z</time>
      </trkpt>
      <trkpt lat="44.73899" lon="-0.3304">
        <ele>79</ele>
        <time>2013-11-02T15:17:37Z</time>
      </trkpt>
      <trkpt lat="44.739" lon="-0.3304">
        <ele>79</ele>
        <time>2013-11-02T15:17:48Z</time>
      </trkpt>
      <trkpt lat="44.739" lon="-0.3304">
        <ele>79</ele>
        <time>2013-11-02T15:18:01Z</time>
      </trkpt>
      <trkpt lat="44.73901" lon="-0.3304">
        <ele>79</ele>
        <time>2013-11-02T15:18:13Z</time>
      </trkpt>
      <trkpt lat="44.73905" lon="-0.33045">
        <ele>80</ele>
        <time>2013-11-02T15:18:19Z</time>
      </trkpt>
      <trkpt lat="44.73911" lon="-0.33049">
        <ele>80</ele>
        <time>2013-11-02T15:18:23Z</time>
      </trkpt>
      <trkpt lat="44.7392" lon="-0.33059">
        <ele>81</ele>
        <time>2013-11-02T15:18:31Z</time>
      </trkpt>
      <trkpt lat="44.73929" lon="-0.33073">
        <ele>83</ele>
        <time>2013-11-02T15:18:39Z</time>
      </trkpt>
      <trkpt lat="44.73936" lon="-0.3308">
        <ele>84</ele>
        <time>2013-11-02T15:18:45Z</time>
      </trkpt>
      <trkpt lat="44.73943" lon="-0.33094">
        <ele>85</ele>
        <time>2013-11-02T15:18:54Z</time>
      </trkpt>
      <trkpt lat="44.73944" lon="-0.33095">
        <ele>85</ele>
        <time>2013-11-02T15:18:55Z</time>
      </trkpt>
      <trkpt lat="44.7395" lon="-0.33106">
        <ele>86</ele>
        <time>2013-11-02T15:19:02Z</time>
      </trkpt>
      <trkpt lat="44.73959" lon="-0.33122">
        <ele>87</ele>
        <time>2013-11-02T15:19:12Z</time>
      </trkpt>
      <trkpt lat="44.73961" lon="-0.33126">
        <ele>87</ele>
        <time>2013-11-02T15:19:15Z</time>
      </trkpt>
      <trkpt lat="44.73964" lon="-0.33134">
        <ele>88</ele>
        <time>2013-11-02T15:19:19Z</time>
      </trkpt>
      <trkpt lat="44.73974" lon="-0.33147">
        <ele>88</ele>
        <time>2013-11-02T15:19:27Z</time>
      </trkpt>
      <trkpt lat="44.73984" lon="-0.33159">
        <ele>89</ele>
        <time>2013-11-02T15:19:35Z</time>
      </trkpt>
      <trkpt lat="44.73993" lon="-0.33172">
        <ele>90</ele>
        <time>2013-11-02T15:19:42Z</time>
      </trkpt>
      <trkpt lat="44.74007" lon="-0.3319">
        <ele>90</ele>
        <time>2013-11-02T15:19:52Z</time>
      </trkpt>
      <trkpt lat="44.74016" lon="-0.33202">
        <ele>90</ele>
        <time>2013-11-02T15:19:59Z</time>
      </trkpt>
      <trkpt lat="44.74027" lon="-0.33214">
        <ele>91</ele>
        <time>2013-11-02T15:20:07Z</time>
      </trkpt>
      <trkpt lat="44.74039" lon="-0.33228">
        <ele>91</ele>
        <time>2013-11-02T15:20:16Z</time>
      </trkpt>
      <trkpt lat="44.74052" lon="-0.33243">
        <ele>92</ele>
        <time>2013-11-02T15:20:26Z</time>
      </trkpt>
      <trkpt lat="44.74062" lon="-0.33253">
        <ele>93</ele>
        <time>2013-11-02T15:20:33Z</time>
      </trkpt>
      <trkpt lat="44.74076" lon="-0.33267">
        <ele>94</ele>
        <time>2013-11-02T15:20:42Z</time>
      </trkpt>
      <trkpt lat="44.7409" lon="-0.33281">
        <ele>95</ele>
        <time>2013-11-02T15:20:51Z</time>
      </trkpt>
      <trkpt lat="44.74099" lon="-0.3329">
        <ele>96</ele>
        <time>2013-11-02T15:20:58Z</time>
      </trkpt>
      <trkpt lat="44.7411" lon="-0.33301">
        <ele>97</ele>
        <time>2013-11-02T15:21:06Z</time>
      </trkpt>
      <trkpt lat="44.74119" lon="-0.33311">
        <ele>97</ele>
        <time>2013-11-02T15:21:12Z</time>
      </trkpt>
      <trkpt lat="44.7413" lon="-0.3332">
        <ele>97</ele>
        <time>2013-11-02T15:21:19Z</time>
      </trkpt>
      <trkpt lat="44.74139" lon="-0.33328">
        <ele>98</ele>
        <time>2013-11-02T15:21:26Z</time>
      </trkpt>
      <trkpt lat="44.74152" lon="-0.33341">
        <ele>98</ele>
        <time>2013-11-02T15:21:35Z</time>
      </trkpt>
      <trkpt lat="44.74162" lon="-0.33349">
        <ele>99</ele>
        <time>2013-11-02T15:21:42Z</time>
      </trkpt>
      <trkpt lat="44.74177" lon="-0.33361">
        <ele>100</ele>
        <time>2013-11-02T15:21:52Z</time>
      </trkpt>
      <trkpt lat="44.74186" lon="-0.33366">
        <ele>100</ele>
        <time>2013-11-02T15:21:59Z</time>
      </trkpt>
      <trkpt lat="44.74188" lon="-0.33367">
        <ele>101</ele>
        <time>2013-11-02T15:22:01Z</time>
      </trkpt>
      <trkpt lat="44.74192" lon="-0.3337">
        <ele>101</ele>
        <time>2013-11-02T15:22:05Z</time>
      </trkpt>
      <trkpt lat="44.74201" lon="-0.33377">
        <ele>102</ele>
        <time>2013-11-02T15:22:13Z</time>
      </trkpt>
      <trkpt lat="44.74204" lon="-0.33379">
        <ele>102</ele>
        <time>2013-11-02T15:22:15Z</time>
      </trkpt>
      <trkpt lat="44.74208" lon="-0.33382">
        <ele>102</ele>
        <time>2013-11-02T15:22:18Z</time>
      </trkpt>
      <trkpt lat="44.74213" lon="-0.33387">
        <ele>102</ele>
        <time>2013-11-02T15:22:22Z</time>
      </trkpt>
      <trkpt lat="44.74221" lon="-0.33397">
        <ele>103</ele>
        <time>2013-11-02T15:22:30Z</time>
      </trkpt>
      <trkpt lat="44.74229" lon="-0.33412">
        <ele>104</ele>
        <time>2013-11-02T15:22:39Z</time>
      </trkpt>
      <trkpt lat="44.74236" lon="-0.33418">
        <ele>104</ele>
        <time>2013-11-02T15:22:45Z</time>
      </trkpt>
      <trkpt lat="44.74243" lon="-0.33417">
        <ele>104</ele>
        <time>2013-11-02T15:22:51Z</time>
      </trkpt>
      <trkpt lat="44.74252" lon="-0.33413">
        <ele>105</ele>
        <time>2013-11-02T15:22:59Z</time>
      </trkpt>
      <trkpt lat="44.74258" lon="-0.33412">
        <ele>105</ele>
        <time>2013-11-02T15:23:03Z</time>
      </trkpt>
      <trkpt lat="44.74263" lon="-0.3341">
        <ele>105</ele>
        <time>2013-11-02T15:23:07Z</time>
      </trkpt>
      <trkpt lat="44.74272" lon="-0.33407">
        <ele>105</ele>
        <time>2013-11-02T15:23:14Z</time>
      </trkpt>
      <trkpt lat="44.74274" lon="-0.33406">
        <ele>105</ele>
        <time>2013-11-02T15:23:16Z</time>
      </trkpt>
      <trkpt lat="44.74283" lon="-0.33404">
        <ele>106</ele>
        <time>2013-11-02T15:23:24Z</time>
      </trkpt>
      <trkpt lat="44.74284" lon="-0.33404">
        <ele>106</ele>
        <time>2013-11-02T15:23:25Z</time>
      </trkpt>
      <trkpt lat="44.74286" lon="-0.33401">
        <ele>106</ele>
        <time>2013-11-02T15:23:27Z</time>
      </trkpt>
      <trkpt lat="44.74292" lon="-0.33397">
        <ele>106</ele>
        <time>2013-11-02T15:23:35Z</time>
      </trkpt>
      <trkpt lat="44.74292" lon="-0.33397">
        <ele>106</ele>
        <time>2013-11-02T15:23:45Z</time>
      </trkpt>
      <trkpt lat="44.743" lon="-0.33395">
        <ele>106</ele>
        <time>2013-11-02T15:23:51Z</time>
      </trkpt>
      <trkpt lat="44.74301" lon="-0.33394">
        <ele>106</ele>
        <time>2013-11-02T15:23:52Z</time>
      </trkpt>
      <trkpt lat="44.74319" lon="-0.33389">
        <ele>106</ele>
        <time>2013-11-02T15:24:01Z</time>
      </trkpt>
      <trkpt lat="44.74333" lon="-0.33385">
        <ele>106</ele>
        <time>2013-11-02T15:24:08Z</time>
      </trkpt>
      <trkpt lat="44.74339" lon="-0.33383">
        <ele>106</ele>
        <time>2013-11-02T15:24:11Z</time>
      </trkpt>
      <trkpt lat="44.74355" lon="-0.33396">
        <ele>106</ele>
        <time>2013-11-02T15:24:19Z</time>
      </trkpt>
      <trkpt lat="44.74361" lon="-0.33427">
        <ele>106</ele>
        <time>2013-11-02T15:24:28Z</time>
      </trkpt>
      <trkpt lat="44.74364" lon="-0.33449">
        <ele>107</ele>
        <time>2013-11-02T15:24:34Z</time>
      </trkpt>
      <trkpt lat="44.7437" lon="-0.33484">
        <ele>106</ele>
        <time>2013-11-02T15:24:43Z</time>
      </trkpt>
      <trkpt lat="44.74376" lon="-0.33507">
        <ele>106</ele>
        <time>2013-11-02T15:24:49Z</time>
      </trkpt>
      <trkpt lat="44.74379" lon="-0.33516">
        <ele>106</ele>
        <time>2013-11-02T15:24:52Z</time>
      </trkpt>
      <trkpt lat="44.74389" lon="-0.33515">
        <ele>106</ele>
        <time>2013-11-02T15:24:58Z</time>
      </trkpt>
      <trkpt lat="44.74402" lon="-0.33503">
        <ele>105</ele>
        <time>2013-11-02T15:25:04Z</time>
      </trkpt>
      <trkpt lat="44.74403" lon="-0.335">
        <ele>105</ele>
        <time>2013-11-02T15:25:05Z</time>
      </trkpt>
      <trkpt lat="44.74421" lon="-0.33485">
        <ele>105</ele>
        <time>2013-11-02T15:25:12Z</time>
      </trkpt>
      <trkpt lat="44.7444" lon="-0.33468">
        <ele>104</ele>
        <time>2013-11-02T15:25:20Z</time>
      </trkpt>
      <trkpt lat="44.74463" lon="-0.33452">
        <ele>104</ele>
        <time>2013-11-02T15:25:28Z</time>
      </trkpt>
      <trkpt lat="44.74491" lon="-0.33436">
        <ele>104</ele>
        <time>2013-11-02T15:25:37Z</time>
      </trkpt>
      <trkpt lat="44.7452" lon="-0.33419">
        <ele>103</ele>
        <time>2013-11-02T15:25:46Z</time>
      </trkpt>
      <trkpt lat="44.74548" lon="-0.33403">
        <ele>103</ele>
        <time>2013-11-02T15:25:54Z</time>
      </trkpt>
      <trkpt lat="44.74552" lon="-0.334">
        <ele>103</ele>
        <time>2013-11-02T15:25:55Z</time>
      </trkpt>
      <trkpt lat="44.7456" lon="-0.33397">
        <ele>102</ele>
        <time>2013-11-02T15:25:57Z</time>
      </trkpt>
      <trkpt lat="44.74563" lon="-0.33395">
        <ele>102</ele>
        <time>2013-11-02T15:25:58Z</time>
      </trkpt>
      <trkpt lat="44.74567" lon="-0.33393">
        <ele>102</ele>
        <time>2013-11-02T15:25:59Z</time>
      </trkpt>
      <trkpt lat="44.7457" lon="-0.33391">
        <ele>102</ele>
        <time>2013-11-02T15:26:00Z</time>
      </trkpt>
      <trkpt lat="44.74595" lon="-0.33376">
        <ele>102</ele>
        <time>2013-11-02T15:26:08Z</time>
      </trkpt>
      <trkpt lat="44.74622" lon="-0.3336">
        <ele>102</ele>
        <time>2013-11-02T15:26:17Z</time>
      </trkpt>
      <trkpt lat="44.74649" lon="-0.33344">
        <ele>103</ele>
        <time>2013-11-02T15:26:24Z</time>
      </trkpt>
      <trkpt lat="44.74687" lon="-0.3332">
        <ele>103</ele>
        <time>2013-11-02T15:26:33Z</time>
      </trkpt>
      <trkpt lat="44.74716" lon="-0.333">
        <ele>104</ele>
        <time>2013-11-02T15:26:40Z</time>
      </trkpt>
      <trkpt lat="44.7473" lon="-0.3329">
        <ele>104</ele>
        <time>2013-11-02T15:26:44Z</time>
      </trkpt>
      <trkpt lat="44.74757" lon="-0.33268">
        <ele>105</ele>
        <time>2013-11-02T15:26:52Z</time>
      </trkpt>
      <trkpt lat="44.74783" lon="-0.33249">
        <ele>105</ele>
        <time>2013-11-02T15:26:58Z</time>
      </trkpt>
      <trkpt lat="44.74819" lon="-0.33223">
        <ele>106</ele>
        <time>2013-11-02T15:27:07Z</time>
      </trkpt>
      <trkpt lat="44.74849" lon="-0.33199">
        <ele>106</ele>
        <time>2013-11-02T15:27:15Z</time>
      </trkpt>
      <trkpt lat="44.74887" lon="-0.33172">
        <ele>105</ele>
        <time>2013-11-02T15:27:25Z</time>
      </trkpt>
      <trkpt lat="44.74915" lon="-0.33156">
        <ele>104</ele>
        <time>2013-11-02T15:27:33Z</time>
      </trkpt>
      <trkpt lat="44.74936" lon="-0.33151">
        <ele>104</ele>
        <time>2013-11-02T15:27:39Z</time>
      </trkpt>
      <trkpt lat="44.74945" lon="-0.33152">
        <ele>104</ele>
        <time>2013-11-02T15:27:41Z</time>
      </trkpt>
      <trkpt lat="44.74949" lon="-0.33153">
        <ele>104</ele>
        <time>2013-11-02T15:27:42Z</time>
      </trkpt>
      <trkpt lat="44.74953" lon="-0.33155">
        <ele>104</ele>
        <time>2013-11-02T15:27:43Z</time>
      </trkpt>
      <trkpt lat="44.74957" lon="-0.33158">
        <ele>104</ele>
        <time>2013-11-02T15:27:44Z</time>
      </trkpt>
      <trkpt lat="44.74961" lon="-0.33161">
        <ele>104</ele>
        <time>2013-11-02T15:27:45Z</time>
      </trkpt>
      <trkpt lat="44.74965" lon="-0.33165">
        <ele>104</ele>
        <time>2013-11-02T15:27:46Z</time>
      </trkpt>
      <trkpt lat="44.74972" lon="-0.33175">
        <ele>104</ele>
        <time>2013-11-02T15:27:48Z</time>
      </trkpt>
      <trkpt lat="44.75003" lon="-0.33227">
        <ele>103</ele>
        <time>2013-11-02T15:27:57Z</time>
      </trkpt>
      <trkpt lat="44.75031" lon="-0.33277">
        <ele>102</ele>
        <time>2013-11-02T15:28:06Z</time>
      </trkpt>
      <trkpt lat="44.75051" lon="-0.33311">
        <ele>101</ele>
        <time>2013-11-02T15:28:14Z</time>
      </trkpt>
      <trkpt lat="44.75058" lon="-0.33319">
        <ele>100</ele>
        <time>2013-11-02T15:28:18Z</time>
      </trkpt>
      <trkpt lat="44.7506" lon="-0.33317">
        <ele>100</ele>
        <time>2013-11-02T15:28:19Z</time>
      </trkpt>
      <trkpt lat="44.75075" lon="-0.333">
        <ele>100</ele>
        <time>2013-11-02T15:28:25Z</time>
      </trkpt>
      <trkpt lat="44.75108" lon="-0.33261">
        <ele>101</ele>
        <time>2013-11-02T15:28:36Z</time>
      </trkpt>
      <trkpt lat="44.75152" lon="-0.33215">
        <ele>101</ele>
        <time>2013-11-02T15:28:48Z</time>
      </trkpt>
      <trkpt lat="44.75198" lon="-0.33183">
        <ele>102</ele>
        <time>2013-11-02T15:28:59Z</time>
      </trkpt>
      <trkpt lat="44.75229" lon="-0.33163">
        <ele>102</ele>
        <time>2013-11-02T15:29:07Z</time>
      </trkpt>
      <trkpt lat="44.75266" lon="-0.3314">
        <ele>103</ele>
        <time>2013-11-02T15:29:17Z</time>
      </trkpt>
      <trkpt lat="44.75302" lon="-0.33117">
        <ele>103</ele>
        <time>2013-11-02T15:29:27Z</time>
      </trkpt>
      <trkpt lat="44.7533" lon="-0.331">
        <ele>102</ele>
        <time>2013-11-02T15:29:34Z</time>
      </trkpt>
      <trkpt lat="44.75365" lon="-0.33077">
        <ele>104</ele>
        <time>2013-11-02T15:29:43Z</time>
      </trkpt>
      <trkpt lat="44.75397" lon="-0.33057">
        <ele>105</ele>
        <time>2013-11-02T15:29:51Z</time>
      </trkpt>
      <trkpt lat="44.75416" lon="-0.33044">
        <ele>106</ele>
        <time>2013-11-02T15:29:57Z</time>
      </trkpt>
      <trkpt lat="44.75439" lon="-0.33029">
        <ele>107</ele>
        <time>2013-11-02T15:30:05Z</time>
      </trkpt>
      <trkpt lat="44.75462" lon="-0.33015">
        <ele>107</ele>
        <time>2013-11-02T15:30:12Z</time>
      </trkpt>
      <trkpt lat="44.75477" lon="-0.33003">
        <ele>108</ele>
        <time>2013-11-02T15:30:18Z</time>
      </trkpt>
      <trkpt lat="44.75497" lon="-0.32986">
        <ele>108</ele>
        <time>2013-11-02T15:30:25Z</time>
      </trkpt>
      <trkpt lat="44.75517" lon="-0.32967">
        <ele>108</ele>
        <time>2013-11-02T15:30:32Z</time>
      </trkpt>
      <trkpt lat="44.75535" lon="-0.32947">
        <ele>108</ele>
        <time>2013-11-02T15:30:39Z</time>
      </trkpt>
      <trkpt lat="44.75565" lon="-0.32916">
        <ele>108</ele>
        <time>2013-11-02T15:30:49Z</time>
      </trkpt>
      <trkpt lat="44.75571" lon="-0.32909">
        <ele>108</ele>
        <time>2013-11-02T15:30:51Z</time>
      </trkpt>
      <trkpt lat="44.75599" lon="-0.32882">
        <ele>107</ele>
        <time>2013-11-02T15:31:00Z</time>
      </trkpt>
      <trkpt lat="44.7563" lon="-0.32856">
        <ele>107</ele>
        <time>2013-11-02T15:31:10Z</time>
      </trkpt>
      <trkpt lat="44.75634" lon="-0.32854">
        <ele>107</ele>
        <time>2013-11-02T15:31:11Z</time>
      </trkpt>
      <trkpt lat="44.75638" lon="-0.3285">
        <ele>107</ele>
        <time>2013-11-02T15:31:12Z</time>
      </trkpt>
      <trkpt lat="44.75641" lon="-0.32847">
        <ele>107</ele>
        <time>2013-11-02T15:31:13Z</time>
      </trkpt>
      <trkpt lat="44.75645" lon="-0.32844">
        <ele>107</ele>
        <time>2013-11-02T15:31:14Z</time>
      </trkpt>
      <trkpt lat="44.75649" lon="-0.32841">
        <ele>107</ele>
        <time>2013-11-02T15:31:15Z</time>
      </trkpt>
      <trkpt lat="44.75653" lon="-0.32839">
        <ele>107</ele>
        <time>2013-11-02T15:31:16Z</time>
      </trkpt>
      <trkpt lat="44.75666" lon="-0.32836">
        <ele>107</ele>
        <time>2013-11-02T15:31:19Z</time>
      </trkpt>
      <trkpt lat="44.75687" lon="-0.32841">
        <ele>107</ele>
        <time>2013-11-02T15:31:25Z</time>
      </trkpt>
      <trkpt lat="44.75703" lon="-0.32856">
        <ele>107</ele>
        <time>2013-11-02T15:31:31Z</time>
      </trkpt>
      <trkpt lat="44.75722" lon="-0.32879">
        <ele>107</ele>
        <time>2013-11-02T15:31:38Z</time>
      </trkpt>
      <trkpt lat="44.75742" lon="-0.32899">
        <ele>107</ele>
        <time>2013-11-02T15:31:45Z</time>
      </trkpt>
      <trkpt lat="44.75761" lon="-0.32912">
        <ele>107</ele>
        <time>2013-11-02T15:31:50Z</time>
      </trkpt>
      <trkpt lat="44.75765" lon="-0.32913">
        <ele>107</ele>
        <time>2013-11-02T15:31:51Z</time>
      </trkpt>
      <trkpt lat="44.75769" lon="-0.32915">
        <ele>107</ele>
        <time>2013-11-02T15:31:52Z</time>
      </trkpt>
      <trkpt lat="44.75773" lon="-0.32916">
        <ele>107</ele>
        <time>2013-11-02T15:31:53Z</time>
      </trkpt>
      <trkpt lat="44.75777" lon="-0.32917">
        <ele>107</ele>
        <time>2013-11-02T15:31:54Z</time>
      </trkpt>
      <trkpt lat="44.75789" lon="-0.32919">
        <ele>107</ele>
        <time>2013-11-02T15:31:57Z</time>
      </trkpt>
      <trkpt lat="44.75805" lon="-0.32922">
        <ele>107</ele>
        <time>2013-11-02T15:32:01Z</time>
      </trkpt>
      <trkpt lat="44.7581" lon="-0.32923">
        <ele>107</ele>
        <time>2013-11-02T15:32:02Z</time>
      </trkpt>
      <trkpt lat="44.75839" lon="-0.32924">
        <ele>107</ele>
        <time>2013-11-02T15:32:10Z</time>
      </trkpt>
      <trkpt lat="44.75869" lon="-0.32928">
        <ele>107</ele>
        <time>2013-11-02T15:32:18Z</time>
      </trkpt>
      <trkpt lat="44.75892" lon="-0.32931">
        <ele>107</ele>
        <time>2013-11-02T15:32:24Z</time>
      </trkpt>
      <trkpt lat="44.75922" lon="-0.3294">
        <ele>106</ele>
        <time>2013-11-02T15:32:32Z</time>
      </trkpt>
      <trkpt lat="44.75944" lon="-0.32947">
        <ele>106</ele>
        <time>2013-11-02T15:32:38Z</time>
      </trkpt>
      <trkpt lat="44.75972" lon="-0.32958">
        <ele>106</ele>
        <time>2013-11-02T15:32:46Z</time>
      </trkpt>
      <trkpt lat="44.76006" lon="-0.32971">
        <ele>106</ele>
        <time>2013-11-02T15:32:55Z</time>
      </trkpt>
      <trkpt lat="44.7604" lon="-0.32984">
        <ele>106</ele>
        <time>2013-11-02T15:33:03Z</time>
      </trkpt>
      <trkpt lat="44.76044" lon="-0.32986">
        <ele>106</ele>
        <time>2013-11-02T15:33:04Z</time>
      </trkpt>
      <trkpt lat="44.76048" lon="-0.32987">
        <ele>106</ele>
        <time>2013-11-02T15:33:05Z</time>
      </trkpt>
      <trkpt lat="44.7606" lon="-0.32991">
        <ele>106</ele>
        <time>2013-11-02T15:33:08Z</time>
      </trkpt>
      <trkpt lat="44.76064" lon="-0.32992">
        <ele>106</ele>
        <time>2013-11-02T15:33:09Z</time>
      </trkpt>
      <trkpt lat="44.76102" lon="-0.33009">
        <ele>107</ele>
        <time>2013-11-02T15:33:17Z</time>
      </trkpt>
      <trkpt lat="44.76106" lon="-0.33012">
        <ele>107</ele>
        <time>2013-11-02T15:33:18Z</time>
      </trkpt>
      <trkpt lat="44.76141" lon="-0.33033">
        <ele>107</ele>
        <time>2013-11-02T15:33:26Z</time>
      </trkpt>
      <trkpt lat="44.7615" lon="-0.3304">
        <ele>107</ele>
        <time>2013-11-02T15:33:28Z</time>
      </trkpt>
      <trkpt lat="44.76154" lon="-0.33044">
        <ele>107</ele>
        <time>2013-11-02T15:33:29Z</time>
      </trkpt>
      <trkpt lat="44.762" lon="-0.33087">
        <ele>106</ele>
        <time>2013-11-02T15:33:39Z</time>
      </trkpt>
      <trkpt lat="44.76237" lon="-0.33114">
        <ele>105</ele>
        <time>2013-11-02T15:33:47Z</time>
      </trkpt>
      <trkpt lat="44.76255" lon="-0.33125">
        <ele>105</ele>
        <time>2013-11-02T15:33:53Z</time>
      </trkpt>
      <trkpt lat="44.76258" lon="-0.33127">
        <ele>105</ele>
        <time>2013-11-02T15:33:54Z</time>
      </trkpt>
      <trkpt lat="44.76289" lon="-0.33145">
        <ele>105</ele>
        <time>2013-11-02T15:34:02Z</time>
      </trkpt>
      <trkpt lat="44.76293" lon="-0.33147">
        <ele>105</ele>
        <time>2013-11-02T15:34:03Z</time>
      </trkpt>
      <trkpt lat="44.76297" lon="-0.3315">
        <ele>105</ele>
        <time>2013-11-02T15:34:04Z</time>
      </trkpt>
      <trkpt lat="44.76301" lon="-0.33152">
        <ele>105</ele>
        <time>2013-11-02T15:34:05Z</time>
      </trkpt>
      <trkpt lat="44.76333" lon="-0.33171">
        <ele>106</ele>
        <time>2013-11-02T15:34:13Z</time>
      </trkpt>
      <trkpt lat="44.76364" lon="-0.33192">
        <ele>106</ele>
        <time>2013-11-02T15:34:21Z</time>
      </trkpt>
      <trkpt lat="44.76376" lon="-0.33202">
        <ele>106</ele>
        <time>2013-11-02T15:34:24Z</time>
      </trkpt>
      <trkpt lat="44.76383" lon="-0.33209">
        <ele>106</ele>
        <time>2013-11-02T15:34:26Z</time>
      </trkpt>
      <trkpt lat="44.76386" lon="-0.33212">
        <ele>106</ele>
        <time>2013-11-02T15:34:27Z</time>
      </trkpt>
      <trkpt lat="44.76389" lon="-0.33216">
        <ele>106</ele>
        <time>2013-11-02T15:34:28Z</time>
      </trkpt>
      <trkpt lat="44.76403" lon="-0.33238">
        <ele>106</ele>
        <time>2013-11-02T15:34:33Z</time>
      </trkpt>
      <trkpt lat="44.76427" lon="-0.33281">
        <ele>106</ele>
        <time>2013-11-02T15:34:42Z</time>
      </trkpt>
      <trkpt lat="44.76436" lon="-0.33295">
        <ele>106</ele>
        <time>2013-11-02T15:34:45Z</time>
      </trkpt>
      <trkpt lat="44.7644" lon="-0.33299">
        <ele>105</ele>
        <time>2013-11-02T15:34:46Z</time>
      </trkpt>
      <trkpt lat="44.76443" lon="-0.33303">
        <ele>105</ele>
        <time>2013-11-02T15:34:47Z</time>
      </trkpt>
      <trkpt lat="44.76446" lon="-0.33307">
        <ele>105</ele>
        <time>2013-11-02T15:34:48Z</time>
      </trkpt>
      <trkpt lat="44.7645" lon="-0.33311">
        <ele>105</ele>
        <time>2013-11-02T15:34:49Z</time>
      </trkpt>
      <trkpt lat="44.76482" lon="-0.33348">
        <ele>106</ele>
        <time>2013-11-02T15:34:58Z</time>
      </trkpt>
      <trkpt lat="44.76522" lon="-0.33388">
        <ele>105</ele>
        <time>2013-11-02T15:35:09Z</time>
      </trkpt>
      <trkpt lat="44.76557" lon="-0.33405">
        <ele>105</ele>
        <time>2013-11-02T15:35:17Z</time>
      </trkpt>
      <trkpt lat="44.76561" lon="-0.33406">
        <ele>105</ele>
        <time>2013-11-02T15:35:18Z</time>
      </trkpt>
      <trkpt lat="44.76606" lon="-0.33409">
        <ele>104</ele>
        <time>2013-11-02T15:35:28Z</time>
      </trkpt>
      <trkpt lat="44.76639" lon="-0.33407">
        <ele>104</ele>
        <time>2013-11-02T15:35:34Z</time>
      </trkpt>
      <trkpt lat="44.7665" lon="-0.33404">
        <ele>104</ele>
        <time>2013-11-02T15:35:36Z</time>
      </trkpt>
      <trkpt lat="44.76655" lon="-0.33403">
        <ele>104</ele>
        <time>2013-11-02T15:35:37Z</time>
      </trkpt>
      <trkpt lat="44.7666" lon="-0.33404">
        <ele>104</ele>
        <time>2013-11-02T15:35:38Z</time>
      </trkpt>
      <trkpt lat="44.76665" lon="-0.33404">
        <ele>104</ele>
        <time>2013-11-02T15:35:39Z</time>
      </trkpt>
      <trkpt lat="44.7667" lon="-0.33405">
        <ele>104</ele>
        <time>2013-11-02T15:35:40Z</time>
      </trkpt>
      <trkpt lat="44.76675" lon="-0.33405">
        <ele>104</ele>
        <time>2013-11-02T15:35:41Z</time>
      </trkpt>
      <trkpt lat="44.76707" lon="-0.33413">
        <ele>104</ele>
        <time>2013-11-02T15:35:48Z</time>
      </trkpt>
      <trkpt lat="44.76726" lon="-0.33419">
        <ele>104</ele>
        <time>2013-11-02T15:35:52Z</time>
      </trkpt>
      <trkpt lat="44.76751" lon="-0.3343">
        <ele>104</ele>
        <time>2013-11-02T15:35:58Z</time>
      </trkpt>
      <trkpt lat="44.76755" lon="-0.33433">
        <ele>104</ele>
        <time>2013-11-02T15:35:59Z</time>
      </trkpt>
      <trkpt lat="44.76758" lon="-0.33435">
        <ele>104</ele>
        <time>2013-11-02T15:36:00Z</time>
      </trkpt>
      <trkpt lat="44.76785" lon="-0.33456">
        <ele>104</ele>
        <time>2013-11-02T15:36:08Z</time>
      </trkpt>
      <trkpt lat="44.76808" lon="-0.33472">
        <ele>104</ele>
        <time>2013-11-02T15:36:15Z</time>
      </trkpt>
      <trkpt lat="44.76812" lon="-0.33475">
        <ele>104</ele>
        <time>2013-11-02T15:36:16Z</time>
      </trkpt>
      <trkpt lat="44.76829" lon="-0.33484">
        <ele>104</ele>
        <time>2013-11-02T15:36:20Z</time>
      </trkpt>
      <trkpt lat="44.76833" lon="-0.33486">
        <ele>104</ele>
        <time>2013-11-02T15:36:21Z</time>
      </trkpt>
      <trkpt lat="44.76837" lon="-0.33488">
        <ele>104</ele>
        <time>2013-11-02T15:36:22Z</time>
      </trkpt>
      <trkpt lat="44.76873" lon="-0.33494">
        <ele>105</ele>
        <time>2013-11-02T15:36:29Z</time>
      </trkpt>
      <trkpt lat="44.76902" lon="-0.33496">
        <ele>105</ele>
        <time>2013-11-02T15:36:35Z</time>
      </trkpt>
      <trkpt lat="44.76912" lon="-0.33498">
        <ele>105</ele>
        <time>2013-11-02T15:36:37Z</time>
      </trkpt>
      <trkpt lat="44.76916" lon="-0.33499">
        <ele>105</ele>
        <time>2013-11-02T15:36:38Z</time>
      </trkpt>
      <trkpt lat="44.76921" lon="-0.33499">
        <ele>105</ele>
        <time>2013-11-02T15:36:39Z</time>
      </trkpt>
      <trkpt lat="44.76944" lon="-0.33503">
        <ele>105</ele>
        <time>2013-11-02T15:36:44Z</time>
      </trkpt>
      <trkpt lat="44.76948" lon="-0.33504">
        <ele>105</ele>
        <time>2013-11-02T15:36:45Z</time>
      </trkpt>
      <trkpt lat="44.76952" lon="-0.33504">
        <ele>105</ele>
        <time>2013-11-02T15:36:46Z</time>
      </trkpt>
      <trkpt lat="44.76982" lon="-0.33502">
        <ele>105</ele>
        <time>2013-11-02T15:36:54Z</time>
      </trkpt>
      <trkpt lat="44.76995" lon="-0.33502">
        <ele>105</ele>
        <time>2013-11-02T15:36:57Z</time>
      </trkpt>
      <trkpt lat="44.76999" lon="-0.33502">
        <ele>105</ele>
        <time>2013-11-02T15:36:58Z</time>
      </trkpt>
      <trkpt lat="44.77003" lon="-0.33502">
        <ele>105</ele>
        <time>2013-11-02T15:36:59Z</time>
      </trkpt>
      <trkpt lat="44.77019" lon="-0.335">
        <ele>105</ele>
        <time>2013-11-02T15:37:03Z</time>
      </trkpt>
      <trkpt lat="44.77023" lon="-0.335">
        <ele>105</ele>
        <time>2013-11-02T15:37:04Z</time>
      </trkpt>
      <trkpt lat="44.77027" lon="-0.335">
        <ele>105</ele>
        <time>2013-11-02T15:37:05Z</time>
      </trkpt>
      <trkpt lat="44.77035" lon="-0.33499">
        <ele>105</ele>
        <time>2013-11-02T15:37:07Z</time>
      </trkpt>
      <trkpt lat="44.77066" lon="-0.33507">
        <ele>105</ele>
        <time>2013-11-02T15:37:15Z</time>
      </trkpt>
      <trkpt lat="44.7707" lon="-0.3351">
        <ele>105</ele>
        <time>2013-11-02T15:37:16Z</time>
      </trkpt>
      <trkpt lat="44.77084" lon="-0.3352">
        <ele>105</ele>
        <time>2013-11-02T15:37:20Z</time>
      </trkpt>
      <trkpt lat="44.77108" lon="-0.33545">
        <ele>105</ele>
        <time>2013-11-02T15:37:27Z</time>
      </trkpt>
      <trkpt lat="44.77129" lon="-0.33571">
        <ele>105</ele>
        <time>2013-11-02T15:37:34Z</time>
      </trkpt>
      <trkpt lat="44.77147" lon="-0.33591">
        <ele>105</ele>
        <time>2013-11-02T15:37:40Z</time>
      </trkpt>
      <trkpt lat="44.77159" lon="-0.33601">
        <ele>105</ele>
        <time>2013-11-02T15:37:45Z</time>
      </trkpt>
      <trkpt lat="44.77176" lon="-0.33596">
        <ele>105</ele>
        <time>2013-11-02T15:37:50Z</time>
      </trkpt>
      <trkpt lat="44.77195" lon="-0.33599">
        <ele>105</ele>
        <time>2013-11-02T15:37:56Z</time>
      </trkpt>
      <trkpt lat="44.77199" lon="-0.33599">
        <ele>104</ele>
        <time>2013-11-02T15:37:59Z</time>
      </trkpt>
      <trkpt lat="44.772" lon="-0.33601">
        <ele>104</ele>
        <time>2013-11-02T15:38:00Z</time>
      </trkpt>
      <trkpt lat="44.772" lon="-0.33604">
        <ele>104</ele>
        <time>2013-11-02T15:38:01Z</time>
      </trkpt>
      <trkpt lat="44.77201" lon="-0.33608">
        <ele>104</ele>
        <time>2013-11-02T15:38:02Z</time>
      </trkpt>
      <trkpt lat="44.772" lon="-0.33611">
        <ele>104</ele>
        <time>2013-11-02T15:38:03Z</time>
      </trkpt>
      <trkpt lat="44.77199" lon="-0.33614">
        <ele>104</ele>
        <time>2013-11-02T15:38:04Z</time>
      </trkpt>
      <trkpt lat="44.77198" lon="-0.33618">
        <ele>104</ele>
        <time>2013-11-02T15:38:05Z</time>
      </trkpt>
      <trkpt lat="44.77198" lon="-0.33643">
        <ele>104</ele>
        <time>2013-11-02T15:38:11Z</time>
      </trkpt>
      <trkpt lat="44.77214" lon="-0.33689">
        <ele>104</ele>
        <time>2013-11-02T15:38:21Z</time>
      </trkpt>
      <trkpt lat="44.77222" lon="-0.33719">
        <ele>104</ele>
        <time>2013-11-02T15:38:28Z</time>
      </trkpt>
      <trkpt lat="44.77227" lon="-0.33748">
        <ele>104</ele>
        <time>2013-11-02T15:38:34Z</time>
      </trkpt>
      <trkpt lat="44.77234" lon="-0.3379">
        <ele>104</ele>
        <time>2013-11-02T15:38:42Z</time>
      </trkpt>
      <trkpt lat="44.77236" lon="-0.33828">
        <ele>104</ele>
        <time>2013-11-02T15:38:50Z</time>
      </trkpt>
      <trkpt lat="44.77235" lon="-0.33878">
        <ele>104</ele>
        <time>2013-11-02T15:38:59Z</time>
      </trkpt>
      <trkpt lat="44.77234" lon="-0.33884">
        <ele>105</ele>
        <time>2013-11-02T15:39:00Z</time>
      </trkpt>
      <trkpt lat="44.77229" lon="-0.33935">
        <ele>104</ele>
        <time>2013-11-02T15:39:09Z</time>
      </trkpt>
      <trkpt lat="44.77226" lon="-0.33973">
        <ele>104</ele>
        <time>2013-11-02T15:39:16Z</time>
      </trkpt>
      <trkpt lat="44.77222" lon="-0.34015">
        <ele>104</ele>
        <time>2013-11-02T15:39:24Z</time>
      </trkpt>
      <trkpt lat="44.77218" lon="-0.34064">
        <ele>104</ele>
        <time>2013-11-02T15:39:33Z</time>
      </trkpt>
      <trkpt lat="44.77214" lon="-0.34113">
        <ele>103</ele>
        <time>2013-11-02T15:39:42Z</time>
      </trkpt>
      <trkpt lat="44.7721" lon="-0.34156">
        <ele>103</ele>
        <time>2013-11-02T15:39:50Z</time>
      </trkpt>
      <trkpt lat="44.7721" lon="-0.34199">
        <ele>103</ele>
        <time>2013-11-02T15:39:58Z</time>
      </trkpt>
      <trkpt lat="44.77214" lon="-0.34251">
        <ele>104</ele>
        <time>2013-11-02T15:40:08Z</time>
      </trkpt>
      <trkpt lat="44.77218" lon="-0.34292">
        <ele>104</ele>
        <time>2013-11-02T15:40:16Z</time>
      </trkpt>
      <trkpt lat="44.7722" lon="-0.34329">
        <ele>104</ele>
        <time>2013-11-02T15:40:23Z</time>
      </trkpt>
      <trkpt lat="44.77217" lon="-0.3438">
        <ele>104</ele>
        <time>2013-11-02T15:40:32Z</time>
      </trkpt>
      <trkpt lat="44.77216" lon="-0.34414">
        <ele>105</ele>
        <time>2013-11-02T15:40:38Z</time>
      </trkpt>
      <trkpt lat="44.77218" lon="-0.34425">
        <ele>105</ele>
        <time>2013-11-02T15:40:40Z</time>
      </trkpt>
      <trkpt lat="44.77235" lon="-0.34472">
        <ele>105</ele>
        <time>2013-11-02T15:40:49Z</time>
      </trkpt>
      <trkpt lat="44.7724" lon="-0.34482">
        <ele>105</ele>
        <time>2013-11-02T15:40:51Z</time>
      </trkpt>
      <trkpt lat="44.77243" lon="-0.34487">
        <ele>105</ele>
        <time>2013-11-02T15:40:52Z</time>
      </trkpt>
      <trkpt lat="44.77263" lon="-0.3452">
        <ele>105</ele>
        <time>2013-11-02T15:40:59Z</time>
      </trkpt>
      <trkpt lat="44.7728" lon="-0.34546">
        <ele>105</ele>
        <time>2013-11-02T15:41:04Z</time>
      </trkpt>
      <trkpt lat="44.77285" lon="-0.34549">
        <ele>105</ele>
        <time>2013-11-02T15:41:05Z</time>
      </trkpt>
      <trkpt lat="44.77289" lon="-0.3455">
        <ele>105</ele>
        <time>2013-11-02T15:41:06Z</time>
      </trkpt>
      <trkpt lat="44.77306" lon="-0.34558">
        <ele>105</ele>
        <time>2013-11-02T15:41:12Z</time>
      </trkpt>
      <trkpt lat="44.77308" lon="-0.34565">
        <ele>105</ele>
        <time>2013-11-02T15:41:15Z</time>
      </trkpt>
      <trkpt lat="44.77307" lon="-0.34568">
        <ele>105</ele>
        <time>2013-11-02T15:41:16Z</time>
      </trkpt>
      <trkpt lat="44.77306" lon="-0.3457">
        <ele>105</ele>
        <time>2013-11-02T15:41:17Z</time>
      </trkpt>
      <trkpt lat="44.77305" lon="-0.34571">
        <ele>105</ele>
        <time>2013-11-02T15:41:18Z</time>
      </trkpt>
      <trkpt lat="44.77304" lon="-0.34574">
        <ele>105</ele>
        <time>2013-11-02T15:41:20Z</time>
      </trkpt>
      <trkpt lat="44.77303" lon="-0.34576">
        <ele>105</ele>
        <time>2013-11-02T15:41:21Z</time>
      </trkpt>
      <trkpt lat="44.77303" lon="-0.34579">
        <ele>105</ele>
        <time>2013-11-02T15:41:22Z</time>
      </trkpt>
      <trkpt lat="44.77303" lon="-0.34583">
        <ele>105</ele>
        <time>2013-11-02T15:41:23Z</time>
      </trkpt>
      <trkpt lat="44.77304" lon="-0.34588">
        <ele>105</ele>
        <time>2013-11-02T15:41:24Z</time>
      </trkpt>
      <trkpt lat="44.77305" lon="-0.34593">
        <ele>105</ele>
        <time>2013-11-02T15:41:25Z</time>
      </trkpt>
      <trkpt lat="44.77307" lon="-0.34598">
        <ele>105</ele>
        <time>2013-11-02T15:41:26Z</time>
      </trkpt>
      <trkpt lat="44.7731" lon="-0.34603">
        <ele>105</ele>
        <time>2013-11-02T15:41:27Z</time>
      </trkpt>
      <trkpt lat="44.77312" lon="-0.34607">
        <ele>105</ele>
        <time>2013-11-02T15:41:28Z</time>
      </trkpt>
      <trkpt lat="44.77314" lon="-0.34611">
        <ele>105</ele>
        <time>2013-11-02T15:41:29Z</time>
      </trkpt>
      <trkpt lat="44.77336" lon="-0.34638">
        <ele>104</ele>
        <time>2013-11-02T15:41:37Z</time>
      </trkpt>
      <trkpt lat="44.77339" lon="-0.34638">
        <ele>104</ele>
        <time>2013-11-02T15:41:38Z</time>
      </trkpt>
      <trkpt lat="44.77342" lon="-0.34638">
        <ele>104</ele>
        <time>2013-11-02T15:41:39Z</time>
      </trkpt>
      <trkpt lat="44.77351" lon="-0.34639">
        <ele>104</ele>
        <time>2013-11-02T15:41:43Z</time>
      </trkpt>
      <trkpt lat="44.77352" lon="-0.34641">
        <ele>104</ele>
        <time>2013-11-02T15:41:44Z</time>
      </trkpt>
      <trkpt lat="44.77354" lon="-0.34657">
        <ele>104</ele>
        <time>2013-11-02T15:41:50Z</time>
      </trkpt>
      <trkpt lat="44.77349" lon="-0.34668">
        <ele>104</ele>
        <time>2013-11-02T15:41:56Z</time>
      </trkpt>
      <trkpt lat="44.77349" lon="-0.34671">
        <ele>104</ele>
        <time>2013-11-02T15:41:58Z</time>
      </trkpt>
      <trkpt lat="44.77349" lon="-0.34673">
        <ele>104</ele>
        <time>2013-11-02T15:41:59Z</time>
      </trkpt>
      <trkpt lat="44.7735" lon="-0.34677">
        <ele>104</ele>
        <time>2013-11-02T15:42:00Z</time>
      </trkpt>
      <trkpt lat="44.77352" lon="-0.3468">
        <ele>104</ele>
        <time>2013-11-02T15:42:01Z</time>
      </trkpt>
      <trkpt lat="44.77353" lon="-0.34683">
        <ele>104</ele>
        <time>2013-11-02T15:42:02Z</time>
      </trkpt>
      <trkpt lat="44.77355" lon="-0.34686">
        <ele>104</ele>
        <time>2013-11-02T15:42:03Z</time>
      </trkpt>
      <trkpt lat="44.77357" lon="-0.34689">
        <ele>104</ele>
        <time>2013-11-02T15:42:04Z</time>
      </trkpt>
      <trkpt lat="44.77358" lon="-0.34692">
        <ele>104</ele>
        <time>2013-11-02T15:42:05Z</time>
      </trkpt>
      <trkpt lat="44.77369" lon="-0.34716">
        <ele>104</ele>
        <time>2013-11-02T15:42:12Z</time>
      </trkpt>
      <trkpt lat="44.77385" lon="-0.34743">
        <ele>104</ele>
        <time>2013-11-02T15:42:21Z</time>
      </trkpt>
      <trkpt lat="44.77403" lon="-0.34766">
        <ele>104</ele>
        <time>2013-11-02T15:42:29Z</time>
      </trkpt>
      <trkpt lat="44.77416" lon="-0.34783">
        <ele>104</ele>
        <time>2013-11-02T15:42:35Z</time>
      </trkpt>
      <trkpt lat="44.7742" lon="-0.34789">
        <ele>104</ele>
        <time>2013-11-02T15:42:37Z</time>
      </trkpt>
      <trkpt lat="44.7743" lon="-0.34807">
        <ele>104</ele>
        <time>2013-11-02T15:42:43Z</time>
      </trkpt>
      <trkpt lat="44.77438" lon="-0.34821">
        <ele>103</ele>
        <time>2013-11-02T15:42:48Z</time>
      </trkpt>
      <trkpt lat="44.7744" lon="-0.34824">
        <ele>103</ele>
        <time>2013-11-02T15:42:49Z</time>
      </trkpt>
      <trkpt lat="44.77459" lon="-0.34867">
        <ele>102</ele>
        <time>2013-11-02T15:42:59Z</time>
      </trkpt>
      <trkpt lat="44.77472" lon="-0.34888">
        <ele>102</ele>
        <time>2013-11-02T15:43:05Z</time>
      </trkpt>
      <trkpt lat="44.77483" lon="-0.34904">
        <ele>101</ele>
        <time>2013-11-02T15:43:12Z</time>
      </trkpt>
      <trkpt lat="44.77498" lon="-0.34923">
        <ele>101</ele>
        <time>2013-11-02T15:43:19Z</time>
      </trkpt>
      <trkpt lat="44.77512" lon="-0.34948">
        <ele>99</ele>
        <time>2013-11-02T15:43:27Z</time>
      </trkpt>
      <trkpt lat="44.77524" lon="-0.34969">
        <ele>98</ele>
        <time>2013-11-02T15:43:33Z</time>
      </trkpt>
      <trkpt lat="44.77537" lon="-0.34996">
        <ele>97</ele>
        <time>2013-11-02T15:43:40Z</time>
      </trkpt>
      <trkpt lat="44.77545" lon="-0.3501">
        <ele>97</ele>
        <time>2013-11-02T15:43:43Z</time>
      </trkpt>
      <trkpt lat="44.77547" lon="-0.35015">
        <ele>97</ele>
        <time>2013-11-02T15:43:44Z</time>
      </trkpt>
      <trkpt lat="44.77561" lon="-0.35037">
        <ele>96</ele>
        <time>2013-11-02T15:43:51Z</time>
      </trkpt>
      <trkpt lat="44.77563" lon="-0.35038">
        <ele>96</ele>
        <time>2013-11-02T15:43:52Z</time>
      </trkpt>
      <trkpt lat="44.77565" lon="-0.35038">
        <ele>96</ele>
        <time>2013-11-02T15:43:53Z</time>
      </trkpt>
      <trkpt lat="44.77566" lon="-0.35038">
        <ele>96</ele>
        <time>2013-11-02T15:43:54Z</time>
      </trkpt>
      <trkpt lat="44.77567" lon="-0.35038">
        <ele>96</ele>
        <time>2013-11-02T15:43:55Z</time>
      </trkpt>
      <trkpt lat="44.77569" lon="-0.35037">
        <ele>96</ele>
        <time>2013-11-02T15:43:56Z</time>
      </trkpt>
      <trkpt lat="44.7757" lon="-0.35036">
        <ele>96</ele>
        <time>2013-11-02T15:43:57Z</time>
      </trkpt>
      <trkpt lat="44.77571" lon="-0.35036">
        <ele>96</ele>
        <time>2013-11-02T15:43:58Z</time>
      </trkpt>
      <trkpt lat="44.77573" lon="-0.35037">
        <ele>96</ele>
        <time>2013-11-02T15:43:59Z</time>
      </trkpt>
      <trkpt lat="44.77574" lon="-0.35039">
        <ele>95</ele>
        <time>2013-11-02T15:44:00Z</time>
      </trkpt>
      <trkpt lat="44.77575" lon="-0.35043">
        <ele>95</ele>
        <time>2013-11-02T15:44:01Z</time>
      </trkpt>
      <trkpt lat="44.77575" lon="-0.35047">
        <ele>95</ele>
        <time>2013-11-02T15:44:02Z</time>
      </trkpt>
      <trkpt lat="44.77576" lon="-0.35051">
        <ele>95</ele>
        <time>2013-11-02T15:44:03Z</time>
      </trkpt>
      <trkpt lat="44.77577" lon="-0.35055">
        <ele>95</ele>
        <time>2013-11-02T15:44:04Z</time>
      </trkpt>
      <trkpt lat="44.77578" lon="-0.3506">
        <ele>95</ele>
        <time>2013-11-02T15:44:05Z</time>
      </trkpt>
      <trkpt lat="44.77579" lon="-0.35064">
        <ele>95</ele>
        <time>2013-11-02T15:44:06Z</time>
      </trkpt>
      <trkpt lat="44.77581" lon="-0.35067">
        <ele>94</ele>
        <time>2013-11-02T15:44:07Z</time>
      </trkpt>
      <trkpt lat="44.77583" lon="-0.35071">
        <ele>94</ele>
        <time>2013-11-02T15:44:08Z</time>
      </trkpt>
      <trkpt lat="44.77595" lon="-0.35091">
        <ele>94</ele>
        <time>2013-11-02T15:44:14Z</time>
      </trkpt>
      <trkpt lat="44.776" lon="-0.35097">
        <ele>94</ele>
        <time>2013-11-02T15:44:17Z</time>
      </trkpt>
      <trkpt lat="44.77602" lon="-0.35097">
        <ele>94</ele>
        <time>2013-11-02T15:44:18Z</time>
      </trkpt>
      <trkpt lat="44.77604" lon="-0.35097">
        <ele>95</ele>
        <time>2013-11-02T15:44:19Z</time>
      </trkpt>
      <trkpt lat="44.77607" lon="-0.35097">
        <ele>95</ele>
        <time>2013-11-02T15:44:20Z</time>
      </trkpt>
      <trkpt lat="44.77609" lon="-0.35096">
        <ele>95</ele>
        <time>2013-11-02T15:44:21Z</time>
      </trkpt>
      <trkpt lat="44.77611" lon="-0.35095">
        <ele>95</ele>
        <time>2013-11-02T15:44:22Z</time>
      </trkpt>
      <trkpt lat="44.77613" lon="-0.3509">
        <ele>95</ele>
        <time>2013-11-02T15:44:24Z</time>
      </trkpt>
      <trkpt lat="44.77619" lon="-0.35061">
        <ele>96</ele>
        <time>2013-11-02T15:44:32Z</time>
      </trkpt>
      <trkpt lat="44.77625" lon="-0.35025">
        <ele>96</ele>
        <time>2013-11-02T15:44:41Z</time>
      </trkpt>
      <trkpt lat="44.77628" lon="-0.35008">
        <ele>96</ele>
        <time>2013-11-02T15:44:47Z</time>
      </trkpt>
      <trkpt lat="44.77633" lon="-0.34984">
        <ele>96</ele>
        <time>2013-11-02T15:44:55Z</time>
      </trkpt>
      <trkpt lat="44.77639" lon="-0.34963">
        <ele>97</ele>
        <time>2013-11-02T15:45:03Z</time>
      </trkpt>
      <trkpt lat="44.77642" lon="-0.34946">
        <ele>97</ele>
        <time>2013-11-02T15:45:11Z</time>
      </trkpt>
      <trkpt lat="44.77646" lon="-0.34928">
        <ele>98</ele>
        <time>2013-11-02T15:45:17Z</time>
      </trkpt>
      <trkpt lat="44.77652" lon="-0.34904">
        <ele>99</ele>
        <time>2013-11-02T15:45:26Z</time>
      </trkpt>
      <trkpt lat="44.77656" lon="-0.34884">
        <ele>99</ele>
        <time>2013-11-02T15:45:34Z</time>
      </trkpt>
    </trkseg>
  </trk>
</gpx>